Provisional Data: Apalachin Creek near Apalachin, NY


Please select a monitoring station.
Please select start date.
Please select start date.

Toggle Unit: C/F Toggle Unit: C/F
Sample Time Temperature (C) Temperature (F) Specific Conductivity (mS/cm) pH   Turbidity (NTU+) DO (mg/L)
4/18/2023 12:00:00 AM 11.81 53.258 0.148 7.12 2.55 9.72
4/18/2023 12:15:00 AM 11.73 53.114 0.148 7.12 2.31 9.74
4/18/2023 12:30:00 AM 11.66 52.988 0.148 7.12 2.41 9.75
4/18/2023 12:45:00 AM 11.59 52.862 0.148 7.12 2.53 9.76
4/18/2023 1:00:00 AM 11.5 52.7 0.148 7.11 2.66 9.79
4/18/2023 1:15:00 AM 11.4 52.52 0.149 7.11 2.45 9.79
4/18/2023 1:30:00 AM 11.3 52.34 0.149 7.09 2.58 9.81
4/18/2023 1:45:00 AM 11.21 52.178 0.149 7.11 2.82 9.84
4/18/2023 2:00:00 AM 11.13 52.034 0.149 7.1 2.33 9.85
4/18/2023 2:15:00 AM 11.06 51.908 0.149 7.1 2.55 9.87
4/18/2023 2:30:00 AM 10.99 51.782 0.149 7.1 2.17 9.88
4/18/2023 2:45:00 AM 10.92 51.656 0.149 7.09 2.35 9.91
4/18/2023 3:00:00 AM 10.86 51.548 0.149 7.09 2.25 9.91
4/18/2023 3:15:00 AM 10.8 51.44 0.15 7.09 2.33 9.93
4/18/2023 3:30:00 AM 10.75 51.35 0.15 7.09 2.17 9.92
4/18/2023 3:45:00 AM 10.69 51.242 0.15 7.09 1.97 9.95
4/18/2023 4:00:00 AM 10.64 51.152 0.15 7.09 2.66 9.96
4/18/2023 4:15:00 AM 10.61 51.098 0.15 7.08 2.24 9.96
4/18/2023 4:30:00 AM 10.57 51.026 0.15 7.09 2.17 9.98
4/18/2023 4:45:00 AM 10.53 50.954 0.15 7.09 2.14 10
4/18/2023 5:00:00 AM 10.5 50.9 0.15 7.09 2.29 10.01
4/18/2023 5:15:00 AM 10.46 50.828 0.15 7.09 2.38 10
4/18/2023 5:30:00 AM 10.42 50.756 0.15 7.09 2.13 10.01
4/18/2023 5:45:00 AM 10.38 50.684 0.15 7.09 2.58 10.03
4/18/2023 6:00:00 AM 10.34 50.612 0.15 7.09 2 10.04
4/18/2023 6:15:00 AM 10.31 50.558 0.15 7.09 1.99 10.04
4/18/2023 6:30:00 AM 10.28 50.504 0.151 7.1 2.03 10.07
4/18/2023 6:45:00 AM 10.25 50.45 0.151 7.1 2.17 10.1
4/18/2023 7:00:00 AM 10.23 50.414 0.151 7.11 2.22 10.15
4/18/2023 7:15:00 AM 10.21 50.378 0.151 7.12 2.13 10.22
4/18/2023 7:30:00 AM 10.19 50.342 0.151 7.13 2.2 10.28
4/18/2023 7:45:00 AM 10.19 50.342 0.151 7.14 1.94 10.36
4/18/2023 8:00:00 AM 10.18 50.324 0.151 7.16 2.14 10.44
4/18/2023 8:15:00 AM 10.19 50.342 0.151 7.17 2.1 10.53
4/18/2023 8:30:00 AM 10.22 50.396 0.151 7.19 2.12 10.61
4/18/2023 8:45:00 AM 10.25 50.45 0.151 7.21 2.09 10.68
4/18/2023 9:00:00 AM 10.28 50.504 0.151 7.22 1.97 10.73
4/18/2023 9:15:00 AM 10.3 50.54 0.151 7.23 1.88 10.79
4/18/2023 9:30:00 AM 10.33 50.594 0.151 7.25 1.98 10.83
4/18/2023 9:45:00 AM 10.38 50.684 0.151 7.26 1.9 10.85
4/18/2023 10:00:00 AM 10.44 50.792 0.151 7.27 1.93 10.89
4/18/2023 10:15:00 AM 10.53 50.954 0.151 7.28 1.84 10.9
4/18/2023 10:30:00 AM 10.57 51.026 0.151 7.29 1.75 10.88
4/18/2023 10:45:00 AM 10.6 51.08 0.151 7.3 1.76 10.89
4/18/2023 11:00:00 AM 10.63 51.134 0.151 7.3 1.8 10.87
4/18/2023 11:15:00 AM 10.69 51.242 0.151 7.31 1.92 10.9
4/18/2023 11:30:00 AM 10.83 51.494 0.151 7.32 2.12 10.94
4/18/2023 11:45:00 AM 10.96 51.728 0.151 7.33 1.77 10.95
4/18/2023 12:00:00 PM 11.18 52.124 0.151 7.34 1.82 10.93
4/18/2023 12:15:00 PM 11.29 52.322 0.151 7.34 1.71 10.88
4/18/2023 12:30:00 PM 11.36 52.448 0.151 7.35 1.59 10.86
4/18/2023 12:45:00 PM 11.53 52.754 0.151 7.35 1.69 10.85
4/18/2023 1:00:00 PM 11.55 52.79 0.151 7.35 1.66 10.8
4/18/2023 1:15:00 PM 11.56 52.808 0.151 7.35 1.66 10.77
4/18/2023 1:30:00 PM 11.5 52.7 0.151 7.34 1.73 10.67
4/18/2023 1:45:00 PM 11.43 52.574 0.151 7.34 1.54 10.67
4/18/2023 2:00:00 PM 11.38 52.484 0.151 7.34 1.7 10.69
4/18/2023 2:15:00 PM 11.31 52.358 0.151 7.34 1.62 10.67
4/18/2023 2:30:00 PM 11.23 52.214 0.151 7.33 1.68 10.65
4/18/2023 2:45:00 PM 11.2 52.16 0.151 7.34 2.28 10.69
4/18/2023 3:00:00 PM 11.17 52.106 0.152 7.33 1.71 10.68
4/18/2023 3:15:00 PM 11.14 52.052 0.152 7.33 1.64 10.73
4/18/2023 3:30:00 PM 11.1 51.98 0.152 7.33 1.58 10.71
4/18/2023 3:45:00 PM 11.04 51.872 0.152 7.33 1.59 10.7
4/18/2023 4:00:00 PM 10.99 51.782 0.152 7.32 1.73 10.66
4/18/2023 4:15:00 PM 10.94 51.692 0.152 7.31 1.56 10.66
4/18/2023 4:30:00 PM 10.88 51.584 0.152 7.3 1.6 10.63
4/18/2023 4:45:00 PM 10.82 51.476 0.152 7.29 1.61 10.57
4/18/2023 5:00:00 PM 10.76 51.368 0.152 7.29 1.6 10.59
4/18/2023 5:15:00 PM 10.72 51.296 0.152 7.29 1.58 10.62
4/18/2023 5:30:00 PM 10.65 51.17 0.152 7.28 1.62 10.58
4/18/2023 5:45:00 PM 10.59 51.062 0.152 7.27 1.59 10.54
4/18/2023 6:00:00 PM 10.52 50.936 0.152 7.27 1.58 10.57
4/18/2023 6:15:00 PM 10.47 50.846 0.153 7.26 1.59 10.56
4/18/2023 6:30:00 PM 10.42 50.756 0.152 7.26 1.59 10.59
4/18/2023 6:45:00 PM 10.37 50.666 0.152 7.25 1.67 10.58
4/18/2023 7:00:00 PM 10.32 50.576 0.152 7.25 1.64 10.61
4/18/2023 7:15:00 PM 10.28 50.504 0.152 7.24 1.66 10.59
4/18/2023 7:30:00 PM 10.22 50.396 0.153 7.23 1.71 10.53
4/18/2023 7:45:00 PM 10.06 50.108 0.152 7.21 1.62 10.46
4/18/2023 8:00:00 PM 9.98 49.964 0.153 7.2 1.7 10.42
4/18/2023 8:15:00 PM 9.94 49.892 0.153 7.19 1.73 10.39
4/18/2023 8:30:00 PM 9.88 49.784 0.153 7.18 1.59 10.35
4/18/2023 8:45:00 PM 9.83 49.694 0.153 7.17 1.6 10.32
4/18/2023 9:00:00 PM 9.78 49.604 0.153 7.16 1.62 10.3
4/18/2023 9:15:00 PM 9.72 49.496 0.153 7.14 1.61 10.31
4/18/2023 9:30:00 PM 9.65 49.37 0.153 7.13 1.69 10.32
4/18/2023 9:45:00 PM 9.59 49.262 0.153 7.13 1.74 10.33
4/18/2023 10:00:00 PM 9.53 49.154 0.153 7.13 1.64 10.35
4/18/2023 10:15:00 PM 9.48 49.064 0.153 7.13 1.61 10.35
4/18/2023 10:30:00 PM 9.41 48.938 0.153 7.12 1.67 10.36
4/18/2023 10:45:00 PM 9.35 48.83 0.153 7.12 1.58 10.37
4/18/2023 11:00:00 PM 9.31 48.758 0.154 7.12 1.64 10.39
4/18/2023 11:15:00 PM 9.26 48.668 0.154 7.12 1.73 10.4
4/18/2023 11:30:00 PM 9.2 48.56 0.154 7.11 1.67 10.41
4/18/2023 11:45:00 PM 9.15 48.47 0.154 7.11 1.56 10.42
4/19/2023 12:00:00 AM 9.12 48.416 0.154 7.11 1.55 10.44
4/19/2023 12:15:00 AM 9.09 48.362 0.154 7.11 1.62 10.46
4/19/2023 12:30:00 AM 9.06 48.308 0.154 7.11 1.58 10.46
4/19/2023 12:45:00 AM 9.03 48.254 0.154 7.11 1.61 10.46
4/19/2023 1:00:00 AM 9 48.2 0.154 7.11 1.63 10.47
4/19/2023 1:15:00 AM 8.98 48.164 0.154 7.12 1.7 10.48
4/19/2023 1:30:00 AM 8.96 48.128 0.154 7.12 1.69 10.49
4/19/2023 1:45:00 AM 8.94 48.092 0.154 7.11 1.53 10.5
4/19/2023 2:00:00 AM 8.91 48.038 0.154 7.12 1.65 10.51
4/19/2023 2:15:00 AM 8.89 48.002 0.154 7.12 1.54 10.52
4/19/2023 2:30:00 AM 8.87 47.966 0.154 7.12 1.77 10.52
4/19/2023 2:45:00 AM 8.84 47.912 0.154 7.12 1.64 10.52
4/19/2023 3:00:00 AM 8.82 47.876 0.154 7.12 1.58 10.52
4/19/2023 3:15:00 AM 8.81 47.858 0.155 7.12 1.84 10.54
4/19/2023 3:30:00 AM 8.79 47.822 0.155 7.12 1.63 10.54
4/19/2023 3:45:00 AM 8.77 47.786 0.155 7.12 1.53 10.54
4/19/2023 4:00:00 AM 8.75 47.75 0.155 7.12 1.51 10.55
4/19/2023 4:15:00 AM 8.74 47.732 0.155 7.12 1.6 10.56
4/19/2023 4:30:00 AM 8.73 47.714 0.155 7.13 1.54 10.55
4/19/2023 4:45:00 AM 8.7 47.66 0.155 7.13 1.53 10.55
4/19/2023 5:00:00 AM 8.69 47.642 0.155 7.13 1.63 10.56
4/19/2023 5:15:00 AM 8.68 47.624 0.155 7.13 1.53 10.55
4/19/2023 5:30:00 AM 8.67 47.606 0.155 7.13 1.53 10.57
4/19/2023 5:45:00 AM 8.66 47.588 0.155 7.13 1.51 10.57
4/19/2023 6:00:00 AM 8.65 47.57 0.155 7.13 1.54 10.57
4/19/2023 6:15:00 AM 8.64 47.552 0.155 7.13 1.58 10.58
4/19/2023 6:30:00 AM 8.63 47.534 0.155 7.13 1.57 10.57
4/19/2023 6:45:00 AM 8.61 47.498 0.155 7.13 1.53 10.59
4/19/2023 7:00:00 AM 8.59 47.462 0.155 7.14 1.53 10.61
4/19/2023 7:15:00 AM 8.58 47.444 0.155 7.14 1.52 10.61
4/19/2023 7:30:00 AM 8.57 47.426 0.155 7.14 1.64 10.66
4/19/2023 7:45:00 AM 8.57 47.426 0.155 7.15 1.8 10.72
4/19/2023 8:00:00 AM 8.57 47.426 0.155 7.16 1.66 10.74
4/19/2023 8:15:00 AM 8.57 47.426 0.155 7.16 1.45 10.79
4/19/2023 8:30:00 AM 8.57 47.426 0.155 7.17 1.57 10.82
4/19/2023 8:45:00 AM 8.57 47.426 0.155 7.17 1.46 10.88
4/19/2023 9:00:00 AM 8.57 47.426 0.155 7.19 1.64 10.95
4/19/2023 9:15:00 AM 8.57 47.426 0.155 7.2 1.5 11.02
4/19/2023 9:30:00 AM 8.58 47.444 0.155 7.21 1.45 11.09
4/19/2023 9:45:00 AM 8.6 47.48 0.155 7.21 1.48 11.13
4/19/2023 10:00:00 AM 8.61 47.498 0.155 7.22 1.5 11.17
4/19/2023 10:15:00 AM 8.63 47.534 0.155 7.23 1.64 11.23
4/19/2023 10:30:00 AM 8.66 47.588 0.155 7.24 1.59 11.27
4/19/2023 10:45:00 AM 8.7 47.66 0.155 7.25 1.58 11.33
4/19/2023 11:00:00 AM 8.75 47.75 0.155 7.26 1.49 11.38
4/19/2023 11:15:00 AM 8.79 47.822 0.155 7.27 1.52 11.38
4/19/2023 11:30:00 AM 8.83 47.894 0.155 7.28 1.48 11.42
4/19/2023 11:45:00 AM 8.9 48.02 0.154 7.29 1.4 11.47
4/19/2023 12:00:00 PM 8.97 48.146 0.155 7.3 1.47 11.47
4/19/2023 12:15:00 PM 9.05 48.29 0.154 7.31 1.53 11.5
4/19/2023 12:30:00 PM 9.16 48.488 0.154 7.31 1.47 11.49
4/19/2023 12:45:00 PM 9.32 48.776 0.154 7.33 1.51 11.52
4/19/2023 1:00:00 PM 9.48 49.064 0.154 7.33 1.41 11.48
4/19/2023 1:15:00 PM 9.62 49.316 0.154 7.34 1.48 11.49
4/19/2023 1:30:00 PM 9.83 49.694 0.154 7.35 1.52 11.48
4/19/2023 1:45:00 PM 10.15 50.27 0.154 7.36 1.51 11.46
4/19/2023 2:00:00 PM 10.41 50.738 0.155 7.38 1.43 11.43
4/19/2023 2:15:00 PM 10.7 51.26 0.154 7.38 1.41 11.38
4/19/2023 2:30:00 PM 10.92 51.656 0.154 7.38 1.58 11.32
4/19/2023 2:45:00 PM 11.21 52.178 0.154 7.38 1.56 11.26
4/19/2023 3:00:00 PM 11.44 52.592 0.155 7.38 1.41 11.22
4/19/2023 3:15:00 PM 11.63 52.934 0.155 7.4 1.65 11.16
4/19/2023 3:30:00 PM 11.8 53.24 0.155 7.38 1.44 11.1
4/19/2023 3:45:00 PM 11.97 53.546 0.155 7.38 1.41 11.06
4/19/2023 4:00:00 PM 12.18 53.924 0.155 7.39 1.5 11.01
4/19/2023 4:15:00 PM 12.37 54.266 0.155 7.39 1.55 10.95
4/19/2023 4:30:00 PM 12.51 54.518 0.155 7.39 1.46 10.87
4/19/2023 4:45:00 PM 12.58 54.644 0.155 7.39 1.5 10.83
4/19/2023 5:00:00 PM 12.63 54.734 0.155 7.39 1.54 10.79
4/19/2023 5:15:00 PM 12.64 54.752 0.155 7.39 1.46 10.76
4/19/2023 5:30:00 PM 12.62 54.716 0.155 7.38 1.7 10.71
4/19/2023 5:45:00 PM 12.57 54.626 0.155 7.38 1.61 10.68
4/19/2023 6:00:00 PM 12.49 54.482 0.155 7.38 1.58 10.67
4/19/2023 6:15:00 PM 12.33 54.194 0.155 7.37 1.46 10.63
4/19/2023 6:30:00 PM 12.21 53.978 0.155 7.36 1.49 10.6
4/19/2023 6:45:00 PM 12.04 53.672 0.155 7.36 1.54 10.57
4/19/2023 7:00:00 PM 11.86 53.348 0.155 7.34 1.59 10.5
4/19/2023 7:15:00 PM 11.68 53.024 0.156 7.33 1.43 10.47
4/19/2023 7:30:00 PM 11.51 52.718 0.156 7.31 1.62 10.4
4/19/2023 7:45:00 PM 11.34 52.412 0.156 7.29 1.54 10.34
4/19/2023 8:00:00 PM 11.19 52.142 0.156 7.28 1.63 10.27
4/19/2023 8:15:00 PM 11.04 51.872 0.156 7.26 1.5 10.24
4/19/2023 8:30:00 PM 10.89 51.602 0.156 7.25 1.69 10.2
4/19/2023 8:45:00 PM 10.75 51.35 0.156 7.23 1.63 10.19
4/19/2023 9:00:00 PM 10.62 51.116 0.156 7.22 1.69 10.17
4/19/2023 9:15:00 PM 10.47 50.846 0.156 7.21 1.54 10.18
4/19/2023 9:30:00 PM 10.34 50.612 0.156 7.2 1.61 10.19
4/19/2023 9:45:00 PM 10.22 50.396 0.156 7.18 2.87 10.21
4/19/2023 10:00:00 PM 10.1 50.18 0.156 7.19 1.59 10.22
4/19/2023 10:15:00 PM 10.01 50.018 0.156 7.18 1.58 10.24
4/19/2023 10:30:00 PM 9.92 49.856 0.156 7.17 1.58 10.24
4/19/2023 10:45:00 PM 9.83 49.694 0.157 7.16 1.6 10.27
4/19/2023 11:00:00 PM 9.74 49.532 0.156 7.16 1.54 10.3
4/19/2023 11:15:00 PM 9.66 49.388 0.157 7.16 1.52 10.33
4/19/2023 11:30:00 PM 9.58 49.244 0.157 7.15 1.52 10.34
4/19/2023 11:45:00 PM 9.52 49.136 0.157 7.15 1.49 10.37
4/20/2023 12:00:00 AM 9.46 49.028 0.157 7.14 1.48 10.36
4/20/2023 12:15:00 AM 9.42 48.956 0.157 7.13 1.47 10.39
4/20/2023 12:30:00 AM 9.39 48.902 0.157 7.13 1.47 10.39
4/20/2023 12:45:00 AM 9.36 48.848 0.157 7.13 1.47 10.4
4/20/2023 1:00:00 AM 9.33 48.794 0.157 7.12 1.6 10.4
4/20/2023 1:15:00 AM 9.31 48.758 0.157 7.12 1.44 10.42
4/20/2023 1:30:00 AM 9.28 48.704 0.157 7.12 1.48 10.42
4/20/2023 1:45:00 AM 9.24 48.632 0.157 7.12 1.44 10.44
4/20/2023 2:00:00 AM 9.2 48.56 0.157 7.12 1.59 10.43
4/20/2023 2:15:00 AM 9.18 48.524 0.157 7.12 1.59 10.46
4/20/2023 2:30:00 AM 9.16 48.488 0.158 7.12 1.52 10.46
4/20/2023 2:45:00 AM 9.14 48.452 0.158 7.12 1.43 10.47
4/20/2023 3:00:00 AM 9.11 48.398 0.158 7.12 1.44 10.48
4/20/2023 3:15:00 AM 9.08 48.344 0.158 7.11 1.61 10.48
4/20/2023 3:30:00 AM 9.07 48.326 0.158 7.11 1.53 10.49
4/20/2023 3:45:00 AM 9.05 48.29 0.158 7.11 1.52 10.5
4/20/2023 4:00:00 AM 9.04 48.272 0.158 7.11 1.45 10.49
4/20/2023 4:15:00 AM 9.02 48.236 0.158 7.11 1.53 10.5
4/20/2023 4:30:00 AM 9 48.2 0.158 7.11 1.49 10.51
4/20/2023 4:45:00 AM 8.99 48.182 0.158 7.12 1.51 10.51
4/20/2023 5:00:00 AM 8.98 48.164 0.158 7.11 1.6 10.51
4/20/2023 5:15:00 AM 8.96 48.128 0.158 7.11 1.75 10.52
4/20/2023 5:30:00 AM 8.96 48.128 0.158 7.11 2.09 10.53
4/20/2023 5:45:00 AM 8.94 48.092 0.158 7.11 1.43 10.53
4/20/2023 6:00:00 AM 8.93 48.074 0.158 7.12 1.52 10.51
4/20/2023 6:15:00 AM 8.91 48.038 0.158 7.11 1.57 10.52
4/20/2023 6:30:00 AM 8.9 48.02 0.158 7.12 1.64 10.54
4/20/2023 6:45:00 AM 8.89 48.002 0.158 7.12 1.58 10.58
4/20/2023 7:00:00 AM 8.87 47.966 0.158 7.13 1.69 10.61
4/20/2023 7:15:00 AM 8.86 47.948 0.158 7.13 1.57 10.67
4/20/2023 7:30:00 AM 8.86 47.948 0.158 7.14 1.99 10.77
4/20/2023 7:45:00 AM 8.87 47.966 0.158 7.15 1.77 10.82
4/20/2023 8:00:00 AM 8.86 47.948 0.158 7.16 1.58 10.86
4/20/2023 8:15:00 AM 8.86 47.948 0.158 7.16 1.5 10.86
4/20/2023 8:30:00 AM 8.87 47.966 0.158 7.17 1.52 10.97
4/20/2023 8:45:00 AM 8.89 48.002 0.158 7.18 1.46 11.07
4/20/2023 9:00:00 AM 8.92 48.056 0.158 7.19 1.54 11.13
4/20/2023 9:15:00 AM 8.94 48.092 0.158 7.21 1.56 11.17
4/20/2023 9:30:00 AM 8.95 48.11 0.158 7.21 1.58 11.21
4/20/2023 9:45:00 AM 8.97 48.146 0.158 7.22 1.51 11.25
4/20/2023 10:00:00 AM 9.06 48.308 0.158 7.23 1.49 11.35
4/20/2023 10:15:00 AM 9.19 48.542 0.158 7.25 1.58 11.41
4/20/2023 10:30:00 AM 9.29 48.722 0.158 7.26 1.59 11.41
4/20/2023 10:45:00 AM 9.4 48.92 0.158 7.27 1.53 11.45
4/20/2023 11:00:00 AM 9.54 49.172 0.158 7.28 1.59 11.45
4/20/2023 11:15:00 AM 9.66 49.388 0.157 7.29 1.51 11.48
4/20/2023 11:30:00 AM 9.91 49.838 0.157 7.31 1.49 11.49
4/20/2023 11:45:00 AM 10.22 50.396 0.158 7.32 1.43 11.48
4/20/2023 12:00:00 PM 10.56 51.008 0.158 7.33 1.48 11.44
4/20/2023 12:15:00 PM 10.9 51.62 0.158 7.34 1.44 11.41
4/20/2023 12:30:00 PM 11.26 52.268 0.158 7.36 1.47 11.31
4/20/2023 12:45:00 PM 11.65 52.97 0.157 7.39 1.48 11.23
4/20/2023 1:00:00 PM 12.02 53.636 0.157 7.4 1.49 11.16
4/20/2023 1:15:00 PM 12.35 54.23 0.157 7.41 1.4 11.12
4/20/2023 1:30:00 PM 12.68 54.824 0.157 7.41 1.46 11.06
4/20/2023 1:45:00 PM 12.98 55.364 0.157 7.38 2.61 10.96
4/20/2023 2:00:00 PM 13.26 55.868 0.158 7.43 1.43 10.93
4/20/2023 2:15:00 PM 13.54 56.372 0.158 7.4 2.73 10.87
4/20/2023 2:30:00 PM 13.79 56.822 0.158 7.41 1.44 10.76
4/20/2023 2:45:00 PM 14.02 57.236 0.158 7.4 1.51 10.71
4/20/2023 3:00:00 PM 14.24 57.632 0.158 7.4 1.4 10.67
4/20/2023 3:15:00 PM 14.41 57.938 0.158 7.4 1.36 10.61
4/20/2023 3:30:00 PM 14.55 58.19 0.158 7.38 2.44 10.52
4/20/2023 3:45:00 PM 14.71 58.478 0.158 7.4 1.32 10.53
4/20/2023 4:00:00 PM 14.79 58.622 0.158 7.39 1.48 10.46
4/20/2023 4:15:00 PM 14.84 58.712 0.158 7.39 2.14 10.43
4/20/2023 4:30:00 PM 14.82 58.676 0.158 7.39 1.7 10.37
4/20/2023 4:45:00 PM 14.69 58.442 0.158 7.38 1.51 10.27
4/20/2023 5:00:00 PM 14.62 58.316 0.158 7.38 1.58 10.3
4/20/2023 5:15:00 PM 14.6 58.28 0.158 7.38 1.5 10.3
4/20/2023 5:30:00 PM 14.53 58.154 0.158 7.38 1.46 10.29
4/20/2023 5:45:00 PM 14.44 57.992 0.158 7.37 1.68 10.28
4/20/2023 6:00:00 PM 14.32 57.776 0.158 7.37 1.54 10.25
4/20/2023 6:15:00 PM 14.2 57.56 0.158 7.36 1.68 10.21
4/20/2023 6:30:00 PM 14.05 57.29 0.158 7.35 1.74 10.17
4/20/2023 6:45:00 PM 13.88 56.984 0.158 7.33 3.19 10.13
4/20/2023 7:00:00 PM 13.74 56.732 0.158 7.31 3.1 10.06
4/20/2023 7:15:00 PM 13.57 56.426 0.159 7.31 1.86 10
4/20/2023 7:30:00 PM 13.43 56.174 0.159 7.29 1.82 9.9
4/20/2023 7:45:00 PM 13.28 55.904 0.159 7.27 1.87 9.83
4/20/2023 8:00:00 PM 13.13 55.634 0.159 7.25 1.86 9.75
4/20/2023 8:15:00 PM 13 55.4 0.159 7.23 1.76 9.7
4/20/2023 8:30:00 PM 12.87 55.166 0.159 7.22 1.74 9.63
4/20/2023 8:45:00 PM 12.73 54.914 0.159 7.2 1.91 9.62
4/20/2023 9:00:00 PM 12.59 54.662 0.159 7.19 2.02 9.57
4/20/2023 9:15:00 PM 12.48 54.464 0.159 7.18 1.98 9.58
4/20/2023 9:30:00 PM 12.35 54.23 0.159 7.17 1.85 9.59
4/20/2023 9:45:00 PM 12.24 54.032 0.16 7.16 1.72 9.61
4/20/2023 10:00:00 PM 12.15 53.87 0.16 7.16 1.69 9.6
4/20/2023 10:15:00 PM 12.01 53.618 0.159 7.15 1.76 9.63
4/20/2023 10:30:00 PM 11.92 53.456 0.159 7.15 1.59 9.63
4/20/2023 10:45:00 PM 11.82 53.276 0.16 7.14 1.8 9.66
4/20/2023 11:00:00 PM 11.72 53.096 0.16 7.14 1.62 9.63
4/20/2023 11:15:00 PM 11.62 52.916 0.16 7.13 1.69 9.67
4/20/2023 11:30:00 PM 11.52 52.736 0.16 7.13 1.64 9.72
4/20/2023 11:45:00 PM 11.44 52.592 0.16 7.13 1.59 9.72
4/21/2023 12:00:00 AM 11.35 52.43 0.16 7.12 1.64 9.72
4/21/2023 12:15:00 AM 11.27 52.286 0.16 7.11 1.52 9.74
4/21/2023 12:30:00 AM 11.19 52.142 0.16 7.11 1.53 9.77
4/21/2023 12:45:00 AM 11.1 51.98 0.16 7.1 1.59 9.79
4/21/2023 1:00:00 AM 11.03 51.854 0.16 7.1 1.61 9.79
4/21/2023 1:15:00 AM 10.96 51.728 0.16 7.09 1.55 9.83
4/21/2023 1:30:00 AM 10.9 51.62 0.16 7.09 1.56 9.84
4/21/2023 1:45:00 AM 10.83 51.494 0.16 7.09 1.53 9.85
4/21/2023 2:00:00 AM 10.77 51.386 0.16 7.09 1.61 9.87
4/21/2023 2:15:00 AM 10.72 51.296 0.16 7.09 1.52 9.88
4/21/2023 2:30:00 AM 10.67 51.206 0.16 7.08 1.62 9.88
4/21/2023 2:45:00 AM 10.62 51.116 0.16 7.08 1.57 9.89
4/21/2023 3:00:00 AM 10.57 51.026 0.16 7.08 1.51 9.9
4/21/2023 3:15:00 AM 10.52 50.936 0.161 7.08 1.65 9.93
4/21/2023 3:30:00 AM 10.47 50.846 0.161 7.07 1.72 9.94
4/21/2023 3:45:00 AM 10.44 50.792 0.161 7.07 1.73 9.94
4/21/2023 4:00:00 AM 10.4 50.72 0.161 7.07 1.5 9.96
4/21/2023 4:15:00 AM 10.36 50.648 0.161 7.07 1.82 9.97
4/21/2023 4:30:00 AM 10.32 50.576 0.161 7.07 1.51 9.98
4/21/2023 4:45:00 AM 10.28 50.504 0.161 7.07 1.56 9.97
4/21/2023 5:00:00 AM 10.25 50.45 0.161 7.07 1.54 9.99
4/21/2023 5:15:00 AM 10.21 50.378 0.161 7.06 1.49 10
4/21/2023 5:30:00 AM 10.17 50.306 0.161 7.07 1.56 10.01
4/21/2023 5:45:00 AM 10.12 50.216 0.161 7.06 1.56 10.03
4/21/2023 6:00:00 AM 10.09 50.162 0.161 7.06 1.6 10
4/21/2023 6:15:00 AM 10.08 50.144 0.161 7.06 1.46 10
4/21/2023 6:30:00 AM 10.07 50.126 0.161 7.07 1.55 10.03
4/21/2023 6:45:00 AM 10.06 50.108 0.161 7.07 1.5 10.08
4/21/2023 7:00:00 AM 10.07 50.126 0.161 7.08 1.67 10.16
4/21/2023 7:15:00 AM 10.08 50.144 0.161 7.09 1.46 10.28
4/21/2023 7:30:00 AM 10.1 50.18 0.161 7.11 1.47 10.36
4/21/2023 7:45:00 AM 10.13 50.234 0.161 7.12 1.45 10.46
4/21/2023 8:00:00 AM 10.17 50.306 0.161 7.13 1.45 10.56
4/21/2023 8:15:00 AM 10.24 50.432 0.161 7.15 1.87 10.65
4/21/2023 8:30:00 AM 10.33 50.594 0.161 7.17 1.51 10.73
4/21/2023 8:45:00 AM 10.44 50.792 0.161 7.19 1.46 10.78
4/21/2023 9:00:00 AM 10.58 51.044 0.161 7.2 1.42 10.85
4/21/2023 9:15:00 AM 10.72 51.296 0.16 7.21 1.48 10.88
4/21/2023 9:30:00 AM 10.95 51.71 0.16 7.23 1.41 10.88
4/21/2023 9:45:00 AM 11.17 52.106 0.16 7.24 1.43 10.92
4/21/2023 10:00:00 AM 11.43 52.574 0.16 7.25 1.46 10.91
4/21/2023 10:15:00 AM 11.73 53.114 0.16 7.26 1.43 10.92
4/21/2023 10:30:00 AM 12.04 53.672 0.16 7.28 1.51 10.91
4/21/2023 10:45:00 AM 12.36 54.248 0.161 7.29 1.58 10.86
4/21/2023 11:00:00 AM 12.64 54.752 0.161 7.3 1.43 10.82
4/21/2023 11:15:00 AM 12.95 55.31 0.161 7.31 1.51 10.78
4/21/2023 11:30:00 AM 13.27 55.886 0.161 7.33 1.47 10.78
4/21/2023 11:45:00 AM 13.61 56.498 0.161 7.33 1.47 10.73
4/21/2023 12:00:00 PM 13.96 57.128 0.161 7.34 1.47 10.69
4/21/2023 12:15:00 PM 14.29 57.722 0.161 7.36 1.41 10.65
4/21/2023 12:30:00 PM 14.59 58.262 0.161 7.36 1.41 10.58
4/21/2023 12:45:00 PM 14.92 58.856 0.161 7.36 2.67 10.55
4/21/2023 1:00:00 PM 15.21 59.378 0.161 7.38 1.54 10.48
4/21/2023 1:15:00 PM 15.54 59.972 0.161 7.4 1.48 10.42
4/21/2023 1:30:00 PM 15.92 60.656 0.16 7.41 2.78 10.39
4/21/2023 1:45:00 PM 16.27 61.286 0.159 7.45 1.56 10.32
4/21/2023 2:00:00 PM 16.55 61.79 0.158 7.45 1.63 10.23
4/21/2023 2:15:00 PM 16.81 62.258 0.158 7.44 1.77 10.08
4/21/2023 2:30:00 PM 17.07 62.726 0.157 7.44 1.64 10.04
4/21/2023 2:45:00 PM 17.36 63.248 0.155 7.42 2.87 9.98
4/21/2023 3:00:00 PM 17.62 63.716 0.155 7.43 2.81 9.96
4/21/2023 3:15:00 PM 17.78 64.004 0.154 7.44 1.63 9.86
4/21/2023 3:30:00 PM 17.79 64.022 0.154 7.44 1.68 9.79
4/21/2023 3:45:00 PM 17.88 64.184 0.154 7.42 2.82 9.78
4/21/2023 4:00:00 PM 17.9 64.22 0.154 7.41 2.7 9.76
4/21/2023 4:15:00 PM 17.9 64.22 0.154 7.43 1.92 9.74
4/21/2023 4:30:00 PM 17.87 64.166 0.154 7.42 2.1 9.71
4/21/2023 4:45:00 PM 17.78 64.004 0.155 7.4 3.47 9.68
4/21/2023 5:00:00 PM 17.68 63.824 0.155 7.4 1.84 9.66
4/21/2023 5:15:00 PM 17.59 63.662 0.156 7.39 2.35 9.67
4/21/2023 5:30:00 PM 17.47 63.446 0.156 7.36 2.86 9.65
4/21/2023 5:45:00 PM 17.27 63.086 0.156 7.37 2.02 9.54
4/21/2023 6:00:00 PM 16.99 62.582 0.157 7.35 1.65 9.47
4/21/2023 6:15:00 PM 16.84 62.312 0.157 7.34 1.74 9.49
4/21/2023 6:30:00 PM 16.59 61.862 0.158 7.33 1.69 9.45
4/21/2023 6:45:00 PM 16.36 61.448 0.159 7.32 1.65 9.45
4/21/2023 7:00:00 PM 16.17 61.106 0.159 7.29 2.81 9.35
4/21/2023 7:15:00 PM 15.99 60.782 0.16 7.27 2.96 9.24
4/21/2023 7:30:00 PM 15.78 60.404 0.161 7.25 4.1 9.13
4/21/2023 7:45:00 PM 15.59 60.062 0.161 7.23 3.02 9.05
4/21/2023 8:00:00 PM 15.42 59.756 0.162 7.22 3.15 9.03
4/21/2023 8:15:00 PM 15.25 59.45 0.163 7.21 1.67 8.97
4/21/2023 8:30:00 PM 15.1 59.18 0.164 7.19 3.05 8.96
4/21/2023 8:45:00 PM 14.99 58.982 0.164 7.19 1.77 8.92
4/21/2023 9:00:00 PM 14.88 58.784 0.165 7.18 1.78 8.9
4/21/2023 9:15:00 PM 14.77 58.586 0.166 7.17 1.93 8.88
4/21/2023 9:30:00 PM 14.66 58.388 0.166 7.16 1.78 8.87
4/21/2023 9:45:00 PM 14.55 58.19 0.166 7.15 1.79 8.87
4/21/2023 10:00:00 PM 14.47 58.046 0.167 7.15 1.77 8.86
4/21/2023 10:15:00 PM 14.38 57.884 0.167 7.13 2.96 8.87
4/21/2023 10:30:00 PM 14.31 57.758 0.167 7.14 2.24 8.87
4/21/2023 10:45:00 PM 14.25 57.65 0.167 7.13 2.03 8.89
4/21/2023 11:00:00 PM 14.18 57.524 0.167 7.12 2.96 8.89
4/21/2023 11:15:00 PM 14.13 57.434 0.168 7.12 1.8 8.88
4/21/2023 11:30:00 PM 14.07 57.326 0.168 7.12 1.72 8.9
4/21/2023 11:45:00 PM 14.01 57.218 0.168 7.11 1.78 8.91
4/22/2023 12:00:00 AM 13.96 57.128 0.168 7.11 1.76 8.92
4/22/2023 12:15:00 AM 13.91 57.038 0.168 7.11 1.71 8.89
4/22/2023 12:30:00 AM 13.84 56.912 0.168 7.11 1.77 8.93
4/22/2023 12:45:00 AM 13.77 56.786 0.168 7.11 1.71 8.93
4/22/2023 1:00:00 AM 13.73 56.714 0.168 7.1 3.21 8.96
4/22/2023 1:15:00 AM 13.67 56.606 0.167 7.11 1.76 8.97
4/22/2023 1:30:00 AM 13.63 56.534 0.168 7.11 1.77 8.97
4/22/2023 1:45:00 AM 13.58 56.444 0.168 7.1 1.71 8.98
4/22/2023 2:00:00 AM 13.51 56.318 0.167 7.09 2.92 9.01
4/22/2023 2:15:00 AM 13.45 56.21 0.167 7.1 1.76 9
4/22/2023 2:30:00 AM 13.39 56.102 0.167 7.1 1.62 9.03
4/22/2023 2:45:00 AM 13.32 55.976 0.167 7.1 1.75 9.05
4/22/2023 3:00:00 AM 13.26 55.868 0.167 7.1 2.3 9.04
4/22/2023 3:15:00 AM 13.2 55.76 0.167 7.1 1.62 9.05
4/22/2023 3:30:00 AM 13.14 55.652 0.167 7.09 1.66 9.07
4/22/2023 3:45:00 AM 13.08 55.544 0.167 7.08 1.72 9.07
4/22/2023 4:00:00 AM 13.02 55.436 0.167 7.08 1.61 9.06
4/22/2023 4:15:00 AM 12.96 55.328 0.167 7.08 1.58 9.1
4/22/2023 4:30:00 AM 12.89 55.202 0.167 7.07 1.52 9.11
4/22/2023 4:45:00 AM 12.84 55.112 0.167 7.07 1.57 9.12
4/22/2023 5:00:00 AM 12.77 54.986 0.167 7.07 1.67 9.14
4/22/2023 5:15:00 AM 12.71 54.878 0.167 7.07 1.8 9.13
4/22/2023 5:30:00 AM 12.66 54.788 0.167 7.07 1.67 9.14
4/22/2023 5:45:00 AM 12.6 54.68 0.167 7.06 1.64 9.17
4/22/2023 6:00:00 AM 12.56 54.608 0.167 7.06 1.64 9.13
4/22/2023 6:15:00 AM 12.51 54.518 0.167 7.06 1.65 9.17
4/22/2023 6:30:00 AM 12.47 54.446 0.167 7.06 1.73 9.2
4/22/2023 6:45:00 AM 12.44 54.392 0.167 7.07 1.49 9.26
4/22/2023 7:00:00 AM 12.43 54.374 0.166 7.08 1.53 9.4
4/22/2023 7:15:00 AM 12.44 54.392 0.166 7.09 1.6 9.49
4/22/2023 7:30:00 AM 12.45 54.41 0.166 7.1 1.54 9.56
4/22/2023 7:45:00 AM 12.47 54.446 0.166 7.12 1.49 9.71
4/22/2023 8:00:00 AM 12.5 54.5 0.166 7.14 1.54 9.82
4/22/2023 8:15:00 AM 12.55 54.59 0.166 7.16 1.52 9.94
4/22/2023 8:30:00 AM 12.59 54.662 0.166 7.17 1.52 10.01
4/22/2023 8:45:00 AM 12.65 54.77 0.166 7.19 1.53 10.1
4/22/2023 9:00:00 AM 12.72 54.896 0.166 7.21 1.49 10.18
4/22/2023 9:15:00 AM 12.81 55.058 0.166 7.22 1.48 10.24
4/22/2023 9:30:00 AM 12.91 55.238 0.166 7.23 1.5 10.29
4/22/2023 9:45:00 AM 13.03 55.454 0.166 7.24 1.51 10.32
4/22/2023 10:00:00 AM 13.23 55.814 0.166 7.26 1.45 10.39
4/22/2023 10:15:00 AM 13.48 56.264 0.166 7.27 1.42 10.37
4/22/2023 10:30:00 AM 13.76 56.768 0.166 7.28 1.52 10.4
4/22/2023 10:45:00 AM 14.04 57.272 0.166 7.28 2.38 10.38
4/22/2023 11:00:00 AM 14.29 57.722 0.166 7.29 2.56 10.38
4/22/2023 11:15:00 AM 14.48 58.064 0.166 7.3 1.52 10.31
4/22/2023 11:30:00 AM 14.64 58.352 0.166 7.31 1.43 10.27
4/22/2023 11:45:00 AM 14.74 58.532 0.165 7.32 1.46 10.26
4/22/2023 12:00:00 PM 14.81 58.658 0.165 7.33 1.62 10.26
4/22/2023 12:15:00 PM 14.97 58.946 0.165 7.34 1.47 10.29
4/22/2023 12:30:00 PM 15.26 59.468 0.166 7.36 1.43 10.29
4/22/2023 12:45:00 PM 15.52 59.936 0.166 7.37 1.5 10.26
4/22/2023 1:00:00 PM 15.7 60.26 0.166 7.38 1.52 10.19
4/22/2023 1:15:00 PM 15.81 60.458 0.166 7.37 1.5 10.16
4/22/2023 1:30:00 PM 15.96 60.728 0.165 7.37 1.45 10.12
4/22/2023 1:45:00 PM 16.08 60.944 0.165 7.37 1.47 10.08
4/22/2023 2:00:00 PM 16.09 60.962 0.165 7.36 1.48 9.98
4/22/2023 2:15:00 PM 16.18 61.124 0.165 7.36 2.6 10.04
4/22/2023 2:30:00 PM 16.39 61.502 0.165 7.38 1.48 10.01
4/22/2023 2:45:00 PM 16.48 61.664 0.165 7.36 2.48 9.95
4/22/2023 3:00:00 PM 16.5 61.7 0.165 7.37 1.57 9.95
4/22/2023 3:15:00 PM 16.63 61.934 0.165 7.38 1.5 9.93
4/22/2023 3:30:00 PM 16.75 62.15 0.165 7.37 1.47 9.88
4/22/2023 3:45:00 PM 16.8 62.24 0.165 7.37 1.59 9.85
4/22/2023 4:00:00 PM 16.92 62.456 0.165 7.37 1.46 9.86
4/22/2023 4:15:00 PM 16.87 62.366 0.165 7.34 2.61 9.75
4/22/2023 4:30:00 PM 16.7 62.06 0.165 7.33 2.69 9.62
4/22/2023 4:45:00 PM 16.52 61.736 0.166 7.33 1.53 9.48
4/22/2023 5:00:00 PM 16.31 61.358 0.166 7.31 1.79 9.34
4/22/2023 5:15:00 PM 16.1 60.98 0.165 7.26 2.81 9.23
4/22/2023 5:30:00 PM 15.87 60.566 0.164 7.27 1.8 9.24
4/22/2023 5:45:00 PM 15.73 60.314 0.164 7.27 1.77 9.21
4/22/2023 6:00:00 PM 15.58 60.044 0.163 7.26 1.68 9.2
4/22/2023 6:15:00 PM 15.44 59.792 0.163 7.23 1.53 9.14
4/22/2023 6:30:00 PM 15.3 59.54 0.163 7.24 1.65 9.1
4/22/2023 6:45:00 PM 15.15 59.27 0.163 7.23 1.55 9.14
4/22/2023 7:00:00 PM 14.99 58.982 0.163 7.2 2.72 9.09
4/22/2023 7:15:00 PM 14.86 58.748 0.163 7.2 1.59 9.03
4/22/2023 7:30:00 PM 14.71 58.478 0.163 7.19 1.59 8.99
4/22/2023 7:45:00 PM 14.58 58.244 0.163 7.17 2.34 8.96
4/22/2023 8:00:00 PM 14.46 58.028 0.163 7.17 1.71 8.97
4/22/2023 8:15:00 PM 14.35 57.83 0.163 7.16 1.59 8.95
4/22/2023 8:30:00 PM 14.27 57.686 0.163 7.14 3.13 8.92
4/22/2023 8:45:00 PM 14.19 57.542 0.163 7.15 1.64 8.92
4/22/2023 9:00:00 PM 14.1 57.38 0.163 7.14 1.66 8.92
4/22/2023 9:15:00 PM 14.02 57.236 0.163 7.13 2.77 8.92
4/22/2023 9:30:00 PM 13.96 57.128 0.163 7.13 1.66 8.94
4/22/2023 9:45:00 PM 13.89 57.002 0.162 7.13 1.65 8.93
4/22/2023 10:00:00 PM 13.83 56.894 0.162 7.12 1.72 8.94
4/22/2023 10:15:00 PM 13.77 56.786 0.162 7.12 1.54 8.98
4/22/2023 10:30:00 PM 13.71 56.678 0.162 7.12 1.75 8.97
4/22/2023 10:45:00 PM 13.65 56.57 0.162 7.12 1.65 9
4/22/2023 11:00:00 PM 13.6 56.48 0.162 7.11 1.61 9
4/22/2023 11:15:00 PM 13.54 56.372 0.162 7.11 1.68 9.03
4/22/2023 11:30:00 PM 13.49 56.282 0.161 7.1 2.86 9.06
4/22/2023 11:45:00 PM 13.44 56.192 0.161 7.11 1.74 9.08
4/23/2023 12:00:00 AM 13.4 56.12 0.16 7.11 1.71 9.09
4/23/2023 12:15:00 AM 13.35 56.03 0.16 7.11 1.71 9.11
4/23/2023 12:30:00 AM 13.31 55.958 0.16 7.1 1.82 9.11
4/23/2023 12:45:00 AM 13.28 55.904 0.16 7.1 1.79 9.14
4/23/2023 1:00:00 AM 13.24 55.832 0.16 7.1 1.69 9.12
4/23/2023 1:15:00 AM 13.2 55.76 0.16 7.1 1.63 9.15
4/23/2023 1:30:00 AM 13.16 55.688 0.16 7.1 1.63 9.15
4/23/2023 1:45:00 AM 13.11 55.598 0.16 7.1 1.84 9.16
4/23/2023 2:00:00 AM 13.08 55.544 0.16 7.1 1.82 9.17
4/23/2023 2:15:00 AM 13.04 55.472 0.16 7.1 1.84 9.19
4/23/2023 2:30:00 AM 12.99 55.382 0.16 7.09 1.78 9.21
4/23/2023 2:45:00 AM 12.95 55.31 0.16 7.09 1.71 9.21
4/23/2023 3:00:00 AM 12.91 55.238 0.16 7.09 1.63 9.21
4/23/2023 3:15:00 AM 12.87 55.166 0.16 7.09 1.74 9.21
4/23/2023 3:30:00 AM 12.82 55.076 0.16 7.08 1.87 9.24
4/23/2023 3:45:00 AM 12.78 55.004 0.16 7.08 1.73 9.25
4/23/2023 4:00:00 AM 12.73 54.914 0.16 7.08 1.75 9.25
4/23/2023 4:15:00 AM 12.68 54.824 0.16 7.08 1.63 9.27
4/23/2023 4:30:00 AM 12.63 54.734 0.16 7.08 1.95 9.29
4/23/2023 4:45:00 AM 12.58 54.644 0.16 7.08 1.75 9.3
4/23/2023 5:00:00 AM 12.53 54.554 0.16 7.08 1.71 9.3
4/23/2023 5:15:00 AM 12.48 54.464 0.16 7.08 1.86 9.33
4/23/2023 5:30:00 AM 12.43 54.374 0.16 7.08 1.83 9.34
4/23/2023 5:45:00 AM 12.38 54.284 0.16 7.08 1.9 9.35
4/23/2023 6:00:00 AM 12.33 54.194 0.16 7.08 2 9.36
4/23/2023 6:15:00 AM 12.28 54.104 0.16 7.08 1.81 9.4
4/23/2023 6:30:00 AM 12.23 54.014 0.161 7.08 1.75 9.42
4/23/2023 6:45:00 AM 12.19 53.942 0.16 7.08 1.79 9.47
4/23/2023 7:00:00 AM 12.15 53.87 0.16 7.09 1.82 9.54
4/23/2023 7:15:00 AM 12.12 53.816 0.16 7.1 1.71 9.6
4/23/2023 7:30:00 AM 12.1 53.78 0.16 7.11 1.77 9.66
4/23/2023 7:45:00 AM 12.09 53.762 0.16 7.13 1.81 9.77
4/23/2023 8:00:00 AM 12.1 53.78 0.16 7.14 1.71 9.89
4/23/2023 8:15:00 AM 12.14 53.852 0.16 7.16 1.72 10.05
4/23/2023 8:30:00 AM 12.17 53.906 0.16 7.18 1.79 10.15
4/23/2023 8:45:00 AM 12.22 53.996 0.159 7.2 1.68 10.24
4/23/2023 9:00:00 AM 12.29 54.122 0.159 7.22 1.7 10.3
4/23/2023 9:15:00 AM 12.41 54.338 0.159 7.23 1.66 10.38
4/23/2023 9:30:00 AM 12.61 54.698 0.159 7.26 1.81 10.44
4/23/2023 9:45:00 AM 12.79 55.022 0.159 7.27 1.75 10.47
4/23/2023 10:00:00 AM 12.95 55.31 0.158 7.29 1.6 10.51
4/23/2023 10:15:00 AM 13.13 55.634 0.158 7.31 1.74 10.49
4/23/2023 10:30:00 AM 13.31 55.958 0.158 7.32 1.7 10.51
4/23/2023 10:45:00 AM 13.46 56.228 0.158 7.33 1.61 10.46
4/23/2023 11:00:00 AM 13.65 56.57 0.158 7.35 1.67 10.47
4/23/2023 11:15:00 AM 13.67 56.606 0.158 7.33 2.77 10.42
4/23/2023 11:30:00 AM 13.9 57.02 0.158 7.36 1.66 10.43
4/23/2023 11:45:00 AM 13.95 57.11 0.158 7.35 1.74 10.36
4/23/2023 12:00:00 PM 13.91 57.038 0.158 7.34 2.93 10.31
4/23/2023 12:15:00 PM 13.95 57.11 0.158 7.36 1.79 10.36
4/23/2023 12:30:00 PM 14.05 57.29 0.158 7.37 1.71 10.38
4/23/2023 12:45:00 PM 14.06 57.308 0.158 7.37 1.55 10.35
4/23/2023 1:00:00 PM 14.02 57.236 0.158 7.36 2.9 10.3
4/23/2023 1:15:00 PM 13.95 57.11 0.158 7.36 1.61 10.25
4/23/2023 1:30:00 PM 13.89 57.002 0.158 7.36 1.62 10.19
4/23/2023 1:45:00 PM 13.87 56.966 0.158 7.35 1.68 10.22
4/23/2023 2:00:00 PM 13.86 56.948 0.158 7.36 1.67 10.22
4/23/2023 2:15:00 PM 13.79 56.822 0.158 7.34 2.84 10.16
4/23/2023 2:30:00 PM 13.72 56.696 0.158 7.34 1.6 10.15
4/23/2023 2:45:00 PM 13.67 56.606 0.158 7.33 2.72 10.15
4/23/2023 3:00:00 PM 13.6 56.48 0.158 7.32 2.79 10.12
4/23/2023 3:15:00 PM 13.53 56.354 0.158 7.34 1.56 10.12
4/23/2023 3:30:00 PM 13.45 56.21 0.158 7.33 1.64 10.12
4/23/2023 3:45:00 PM 13.37 56.066 0.158 7.32 1.62 10.1
4/23/2023 4:00:00 PM 13.31 55.958 0.158 7.31 2.74 10.12
4/23/2023 4:15:00 PM 13.27 55.886 0.158 7.32 1.75 10.16
4/23/2023 4:30:00 PM 13.22 55.796 0.158 7.32 1.65 10.19
4/23/2023 4:45:00 PM 13.2 55.76 0.158 7.33 1.63 10.23
4/23/2023 5:00:00 PM 13.16 55.688 0.158 7.31 2.8 10.21
4/23/2023 5:15:00 PM 13.1 55.58 0.158 7.32 1.63 10.19
4/23/2023 5:30:00 PM 13.03 55.454 0.159 7.31 1.61 10.13
4/23/2023 5:45:00 PM 12.93 55.274 0.159 7.28 2.77 10.05
4/23/2023 6:00:00 PM 12.83 55.094 0.159 7.28 1.63 9.98
4/23/2023 6:15:00 PM 12.71 54.878 0.159 7.26 1.68 9.93
4/23/2023 6:30:00 PM 12.62 54.716 0.158 7.25 1.82 9.87
4/23/2023 6:45:00 PM 12.54 54.572 0.158 7.24 1.75 9.87
4/23/2023 7:00:00 PM 12.47 54.446 0.158 7.23 1.75 9.84
4/23/2023 7:15:00 PM 12.39 54.302 0.158 7.21 1.66 9.8
4/23/2023 7:30:00 PM 12.3 54.14 0.158 7.2 1.69 9.83
4/23/2023 7:45:00 PM 12.21 53.978 0.158 7.19 1.72 9.81
4/23/2023 8:00:00 PM 12.12 53.816 0.158 7.18 1.75 9.78
4/23/2023 8:15:00 PM 12.03 53.654 0.158 7.17 1.66 9.75
4/23/2023 8:30:00 PM 11.95 53.51 0.158 7.16 1.73 9.75
4/23/2023 8:45:00 PM 11.88 53.384 0.158 7.15 1.7 9.72
4/23/2023 9:00:00 PM 11.81 53.258 0.158 7.14 1.73 9.72
4/23/2023 9:15:00 PM 11.74 53.132 0.158 7.13 1.83 9.7
4/23/2023 9:30:00 PM 11.68 53.024 0.158 7.13 1.84 9.71
4/23/2023 9:45:00 PM 11.62 52.916 0.158 7.13 1.74 9.74
4/23/2023 10:00:00 PM 11.56 52.808 0.158 7.12 1.79 9.75
4/23/2023 10:15:00 PM 11.51 52.718 0.158 7.12 1.67 9.75
4/23/2023 10:30:00 PM 11.46 52.628 0.158 7.12 1.75 9.75
4/23/2023 10:45:00 PM 11.41 52.538 0.158 7.11 1.83 9.77
4/23/2023 11:00:00 PM 11.35 52.43 0.158 7.11 1.89 9.78
4/23/2023 11:15:00 PM 11.29 52.322 0.158 7.11 1.77 9.8
4/23/2023 11:30:00 PM 11.22 52.196 0.158 7.11 1.79 9.82
4/23/2023 11:45:00 PM 11.16 52.088 0.158 7.11 1.88 9.85
4/24/2023 12:00:00 AM 11.11 51.998 0.158 7.11 1.68 9.85
4/24/2023 12:15:00 AM 11.06 51.908 0.157 7.1 3.02 9.87
4/24/2023 12:30:00 AM 11.01 51.818 0.157 7.11 1.89 9.89
4/24/2023 12:45:00 AM 10.98 51.764 0.157 7.11 1.68 9.91
4/24/2023 1:00:00 AM 10.94 51.692 0.157 7.11 1.88 9.91
4/24/2023 1:15:00 AM 10.89 51.602 0.157 7.11 1.64 9.93
4/24/2023 1:30:00 AM 10.84 51.512 0.157 7.11 1.92 9.96
4/24/2023 1:45:00 AM 10.8 51.44 0.157 7.11 1.82 9.97
4/24/2023 2:00:00 AM 10.77 51.386 0.157 7.12 1.94 9.98
4/24/2023 2:15:00 AM 10.71 51.278 0.157 7.12 1.8 10.01
4/24/2023 2:30:00 AM 10.67 51.206 0.157 7.12 1.86 10
4/24/2023 2:45:00 AM 10.62 51.116 0.157 7.12 1.85 10.03
4/24/2023 3:00:00 AM 10.57 51.026 0.157 7.12 1.86 10.05
4/24/2023 3:15:00 AM 10.5 50.9 0.156 7.12 1.9 10.07
4/24/2023 3:30:00 AM 10.43 50.774 0.156 7.12 1.97 10.09
4/24/2023 3:45:00 AM 10.35 50.63 0.156 7.12 1.86 10.11
4/24/2023 4:00:00 AM 10.26 50.468 0.156 7.11 2.05 10.13
4/24/2023 4:15:00 AM 10.18 50.324 0.156 7.11 2.02 10.16
4/24/2023 4:30:00 AM 10.11 50.198 0.156 7.12 2.01 10.19
4/24/2023 4:45:00 AM 10.04 50.072 0.156 7.12 1.81 10.21
4/24/2023 5:00:00 AM 9.96 49.928 0.155 7.12 1.72 10.22
4/24/2023 5:15:00 AM 9.88 49.784 0.155 7.12 1.83 10.24
4/24/2023 5:30:00 AM 9.83 49.694 0.155 7.12 1.85 10.26
4/24/2023 5:45:00 AM 9.76 49.568 0.155 7.11 2.44 10.28
4/24/2023 6:00:00 AM 9.71 49.478 0.155 7.11 2.07 10.28
4/24/2023 6:15:00 AM 9.65 49.37 0.155 7.11 1.92 10.31
4/24/2023 6:30:00 AM 9.6 49.28 0.155 7.12 1.81 10.35
4/24/2023 6:45:00 AM 9.56 49.208 0.155 7.13 1.78 10.41
4/24/2023 7:00:00 AM 9.53 49.154 0.155 7.14 1.81 10.51
4/24/2023 7:15:00 AM 9.51 49.118 0.155 7.15 1.88 10.59
4/24/2023 7:30:00 AM 9.49 49.082 0.155 7.16 1.86 10.69
4/24/2023 7:45:00 AM 9.51 49.118 0.155 7.09 1.82 10.81
4/24/2023 8:00:00 AM 9.53 49.154 0.154 7.2 1.78 10.89
4/24/2023 8:15:00 AM 9.55 49.19 0.154 7.21 1.82 10.95
4/24/2023 8:30:00 AM 9.65 49.37 0.154 7.22 1.8 11.08
4/24/2023 8:45:00 AM 9.7 49.46 0.154 7.24 1.74 11.11
4/24/2023 9:00:00 AM 9.77 49.586 0.154 7.25 1.84 11.14
4/24/2023 9:15:00 AM 9.94 49.892 0.154 7.27 1.86 11.16
4/24/2023 9:30:00 AM 10.18 50.324 0.154 7.28 1.76 11.19
4/24/2023 9:45:00 AM 10.37 50.666 0.154 7.29 1.71 11.16
4/24/2023 10:00:00 AM 10.48 50.864 0.154 7.3 1.74 11.15
4/24/2023 10:15:00 AM 10.6 51.08 0.154 7.31 1.7 11.12
4/24/2023 10:30:00 AM 10.81 51.458 0.154 7.31 3.25 11.12
4/24/2023 10:45:00 AM 10.96 51.728 0.154 7.33 1.74 11.13
4/24/2023 11:00:00 AM 11.23 52.214 0.154 7.34 1.67 11.12
4/24/2023 11:15:00 AM 11.43 52.574 0.154 7.35 1.67 11.07
4/24/2023 11:30:00 AM 11.56 52.808 0.154 7.36 1.69 11.02
4/24/2023 11:45:00 AM 11.7 53.06 0.153 7.37 1.76 11.04
4/24/2023 12:00:00 PM 11.99 53.582 0.153 7.37 1.72 10.97
4/24/2023 12:15:00 PM 12.1 53.78 0.153 7.38 1.63 10.93
4/24/2023 12:30:00 PM 12.17 53.906 0.153 7.38 1.88 10.92
4/24/2023 12:45:00 PM 12.37 54.266 0.153 7.38 1.82 10.88
4/24/2023 1:00:00 PM 12.44 54.392 0.153 7.38 1.73 10.79
4/24/2023 1:15:00 PM 12.46 54.428 0.153 7.38 1.61 10.77
4/24/2023 1:30:00 PM 12.62 54.716 0.153 7.39 1.9 10.8
4/24/2023 1:45:00 PM 12.84 55.112 0.153 7.41 1.66 10.8
4/24/2023 2:00:00 PM 13 55.4 0.153 7.4 1.63 10.73
4/24/2023 2:15:00 PM 13.05 55.49 0.153 7.4 1.78 10.66
4/24/2023 2:30:00 PM 13.11 55.598 0.153 7.39 2.87 10.65
4/24/2023 2:45:00 PM 13.2 55.76 0.153 7.41 1.64 10.64
4/24/2023 3:00:00 PM 13.31 55.958 0.153 7.42 1.65 10.65
4/24/2023 3:15:00 PM 13.35 56.03 0.153 7.42 1.57 10.63
4/24/2023 3:30:00 PM 13.46 56.228 0.154 7.42 1.58 10.64
4/24/2023 3:45:00 PM 13.56 56.408 0.153 7.41 2.82 10.64
4/24/2023 4:00:00 PM 13.48 56.264 0.154 7.42 1.6 10.58
4/24/2023 4:15:00 PM 13.51 56.318 0.154 7.42 1.6 10.6
4/24/2023 4:30:00 PM 13.6 56.48 0.154 7.42 1.66 10.55
4/24/2023 4:45:00 PM 13.61 56.498 0.154 7.41 1.64 10.53
4/24/2023 5:00:00 PM 13.64 56.552 0.154 7.4 2.74 10.53
4/24/2023 5:15:00 PM 13.62 56.516 0.154 7.41 1.57 10.49
4/24/2023 5:30:00 PM 13.51 56.318 0.154 7.4 1.55 10.43
4/24/2023 5:45:00 PM 13.41 56.138 0.154 7.39 1.62 10.44
4/24/2023 6:00:00 PM 13.29 55.922 0.154 7.39 1.58 10.43
4/24/2023 6:15:00 PM 13.13 55.634 0.154 7.38 1.73 10.4
4/24/2023 6:30:00 PM 13.01 55.418 0.154 7.36 2.7 10.35
4/24/2023 6:45:00 PM 12.85 55.13 0.154 7.36 1.65 10.32
4/24/2023 7:00:00 PM 12.67 54.806 0.154 7.35 1.59 10.26
4/24/2023 7:15:00 PM 12.52 54.536 0.154 7.33 1.66 10.21
4/24/2023 7:30:00 PM 12.36 54.248 0.154 7.31 1.64 10.14
4/24/2023 7:45:00 PM 12.22 53.996 0.155 7.3 1.69 10.09
4/24/2023 8:00:00 PM 12.1 53.78 0.155 7.28 1.77 9.97
4/24/2023 8:15:00 PM 11.98 53.564 0.155 7.26 1.74 9.95
4/24/2023 8:30:00 PM 11.88 53.384 0.155 7.25 1.64 9.92
4/24/2023 8:45:00 PM 11.78 53.204 0.155 7.23 1.65 9.88
4/24/2023 9:00:00 PM 11.68 53.024 0.155 7.22 1.77 9.88
4/24/2023 9:15:00 PM 11.59 52.862 0.155 7.21 1.63 9.85
4/24/2023 9:30:00 PM 11.51 52.718 0.155 7.2 1.76 9.87
4/24/2023 9:45:00 PM 11.41 52.538 0.155 7.2 1.72 9.88
4/24/2023 10:00:00 PM 11.33 52.394 0.155 7.19 1.68 9.87
4/24/2023 10:15:00 PM 11.26 52.268 0.156 7.19 1.88 9.89
4/24/2023 10:30:00 PM 11.2 52.16 0.156 7.18 1.68 9.89
4/24/2023 10:45:00 PM 11.12 52.016 0.156 7.18 1.7 9.92
4/24/2023 11:00:00 PM 11.05 51.89 0.156 7.18 1.64 9.94
4/24/2023 11:15:00 PM 10.99 51.782 0.156 7.17 1.75 9.94
4/24/2023 11:30:00 PM 10.93 51.674 0.156 7.16 1.63 9.96
4/24/2023 11:45:00 PM 10.87 51.566 0.156 7.16 1.68 9.98
4/25/2023 12:00:00 AM 10.81 51.458 0.156 7.16 1.7 9.98
4/25/2023 12:15:00 AM 10.75 51.35 0.156 7.15 1.67 10
4/25/2023 12:30:00 AM 10.7 51.26 0.156 7.15 1.79 10
4/25/2023 12:45:00 AM 10.65 51.17 0.157 7.14 1.79 10.02
4/25/2023 1:00:00 AM 10.6 51.08 0.157 7.14 1.61 10.04
4/25/2023 1:15:00 AM 10.55 50.99 0.157 7.14 1.51 10.04
4/25/2023 1:30:00 AM 10.5 50.9 0.157 7.13 1.55 10.05
4/25/2023 1:45:00 AM 10.45 50.81 0.157 7.13 1.59 10.07
4/25/2023 2:00:00 AM 10.41 50.738 0.157 7.13 1.63 10.09
4/25/2023 2:15:00 AM 10.37 50.666 0.157 7.13 1.63 10.1
4/25/2023 2:30:00 AM 10.32 50.576 0.157 7.12 1.56 10.11
4/25/2023 2:45:00 AM 10.28 50.504 0.157 7.12 1.92 10.1
4/25/2023 3:00:00 AM 10.24 50.432 0.157 7.11 2.81 10.12
4/25/2023 3:15:00 AM 10.19 50.342 0.157 7.12 1.7 10.12
4/25/2023 3:30:00 AM 10.11 50.198 0.157 7.11 1.7 10.14
4/25/2023 3:45:00 AM 10.04 50.072 0.157 7.11 1.8 10.17
4/25/2023 4:00:00 AM 9.96 49.928 0.157 7.11 1.67 10.18
4/25/2023 4:15:00 AM 9.89 49.802 0.157 7.1 1.64 10.19
4/25/2023 4:30:00 AM 9.81 49.658 0.157 7.1 1.82 10.21
4/25/2023 4:45:00 AM 9.73 49.514 0.157 7.1 1.59 10.24
4/25/2023 5:00:00 AM 9.66 49.388 0.157 7.1 1.68 10.26
4/25/2023 5:15:00 AM 9.58 49.244 0.157 7.1 1.63 10.27
4/25/2023 5:30:00 AM 9.5 49.1 0.157 7.1 1.69 10.3
4/25/2023 5:45:00 AM 9.43 48.974 0.157 7.1 1.64 10.31
4/25/2023 6:00:00 AM 9.37 48.866 0.157 7.1 1.61 10.28
4/25/2023 6:15:00 AM 9.3 48.74 0.157 7.1 1.61 10.34
4/25/2023 6:30:00 AM 9.26 48.668 0.157 7.1 1.69 10.39
4/25/2023 6:45:00 AM 9.22 48.596 0.157 7.11 1.64 10.46
4/25/2023 7:00:00 AM 9.21 48.578 0.157 7.11 1.65 10.51
4/25/2023 7:15:00 AM 9.2 48.56 0.157 7.12 2.08 10.58
4/25/2023 7:30:00 AM 9.21 48.578 0.157 7.13 1.82 10.69
4/25/2023 7:45:00 AM 9.26 48.668 0.157 7.16 1.56 10.82
4/25/2023 8:00:00 AM 9.31 48.758 0.157 7.17 1.77 10.92
4/25/2023 8:15:00 AM 9.29 48.722 0.157 7.18 1.64 10.97
4/25/2023 8:30:00 AM 9.35 48.83 0.156 7.2 1.67 11.03
4/25/2023 8:45:00 AM 9.47 49.046 0.156 7.22 1.57 11.11
4/25/2023 9:00:00 AM 9.63 49.334 0.156 7.24 1.56 11.18
4/25/2023 9:15:00 AM 9.81 49.658 0.156 7.25 1.62 11.21
4/25/2023 9:30:00 AM 9.91 49.838 0.156 7.26 1.57 11.21
4/25/2023 9:45:00 AM 10.06 50.108 0.156 7.28 1.52 11.23
4/25/2023 10:00:00 AM 10.28 50.504 0.156 7.29 1.54 11.23
4/25/2023 10:15:00 AM 10.5 50.9 0.156 7.3 1.56 11.22
4/25/2023 10:30:00 AM 10.65 51.17 0.156 7.3 1.6 11.17
4/25/2023 10:45:00 AM 10.79 51.422 0.156 7.31 1.47 11.16
4/25/2023 11:00:00 AM 10.98 51.764 0.156 7.32 1.57 11.17
4/25/2023 11:15:00 AM 11.04 51.872 0.156 7.32 1.58 11.08
4/25/2023 11:30:00 AM 11.03 51.854 0.156 7.32 1.59 11.02
4/25/2023 11:45:00 AM 11.01 51.818 0.156 7.32 1.62 11.06
4/25/2023 12:00:00 PM 11.01 51.818 0.156 7.33 1.56 11.09
4/25/2023 12:15:00 PM 11.04 51.872 0.156 7.34 1.43 11.09
4/25/2023 12:30:00 PM 11.13 52.034 0.156 7.35 1.51 11.13
4/25/2023 12:45:00 PM 11.2 52.16 0.156 7.35 1.5 11.12
4/25/2023 1:00:00 PM 11.33 52.394 0.156 7.36 1.44 11.14
4/25/2023 1:15:00 PM 11.47 52.646 0.156 7.36 1.46 11.14
4/25/2023 1:30:00 PM 11.66 52.988 0.156 7.37 1.5 11.16
4/25/2023 1:45:00 PM 12.01 53.618 0.156 7.38 1.48 11.13
4/25/2023 2:00:00 PM 12.14 53.852 0.156 7.38 1.41 11.04
4/25/2023 2:15:00 PM 12.29 54.122 0.156 7.38 1.48 11.03
4/25/2023 2:30:00 PM 12.59 54.662 0.156 7.38 1.44 11.02
4/25/2023 2:45:00 PM 12.74 54.932 0.156 7.38 1.51 10.87
4/25/2023 3:00:00 PM 12.61 54.698 0.156 7.36 2.59 10.76
4/25/2023 3:15:00 PM 12.55 54.59 0.156 7.36 1.6 10.74
4/25/2023 3:30:00 PM 12.72 54.896 0.156 7.37 1.46 10.82
4/25/2023 3:45:00 PM 12.94 55.292 0.156 7.37 1.57 10.77
4/25/2023 4:00:00 PM 13.02 55.436 0.156 7.36 2.69 10.75
4/25/2023 4:15:00 PM 13.12 55.616 0.156 7.38 1.53 10.73
4/25/2023 4:30:00 PM 13.06 55.508 0.156 7.37 1.48 10.64
4/25/2023 4:45:00 PM 13.15 55.67 0.156 7.37 1.53 10.66
4/25/2023 5:00:00 PM 13.17 55.706 0.156 7.37 1.53 10.64
4/25/2023 5:15:00 PM 13.2 55.76 0.156 7.37 1.47 10.59
4/25/2023 5:30:00 PM 13.19 55.742 0.156 7.37 1.62 10.58
4/25/2023 5:45:00 PM 13.21 55.778 0.156 7.37 1.5 10.54
4/25/2023 6:00:00 PM 13.2 55.76 0.156 7.37 1.59 10.51
4/25/2023 6:15:00 PM 13.17 55.706 0.156 7.35 2.64 10.46
4/25/2023 6:30:00 PM 13.06 55.508 0.157 7.35 1.55 10.37
4/25/2023 6:45:00 PM 12.94 55.292 0.157 7.34 1.49 10.33
4/25/2023 7:00:00 PM 12.82 55.076 0.157 7.33 1.63 10.26
4/25/2023 7:15:00 PM 12.71 54.878 0.157 7.31 2.62 10.2
4/25/2023 7:30:00 PM 12.59 54.662 0.157 7.31 1.54 10.13
4/25/2023 7:45:00 PM 12.45 54.41 0.157 7.29 1.53 10.06
4/25/2023 8:00:00 PM 12.29 54.122 0.157 7.27 1.58 10.01
4/25/2023 8:15:00 PM 12.12 53.816 0.157 7.26 1.58 9.93
4/25/2023 8:30:00 PM 11.94 53.492 0.158 7.24 1.69 9.91
4/25/2023 8:45:00 PM 11.79 53.222 0.158 7.23 1.57 9.88
4/25/2023 9:00:00 PM 11.63 52.934 0.158 7.21 1.66 9.86
4/25/2023 9:15:00 PM 11.44 52.592 0.158 7.21 1.69 9.87
4/25/2023 9:30:00 PM 11.29 52.322 0.158 7.2 1.64 9.88
4/25/2023 9:45:00 PM 11.14 52.052 0.158 7.19 1.8 9.89
4/25/2023 10:00:00 PM 11.01 51.818 0.158 7.18 1.64 9.92
4/25/2023 10:15:00 PM 10.86 51.548 0.158 7.18 1.6 9.96
4/25/2023 10:30:00 PM 10.75 51.35 0.158 7.17 1.54 9.96
4/25/2023 10:45:00 PM 10.63 51.134 0.158 7.16 1.54 9.99
4/25/2023 11:00:00 PM 10.5 50.9 0.158 7.16 2.79 10.01
4/25/2023 11:15:00 PM 10.4 50.72 0.158 7.16 1.48 10.05
4/25/2023 11:30:00 PM 10.29 50.522 0.158 7.15 1.71 10.07
4/25/2023 11:45:00 PM 10.18 50.324 0.158 7.15 1.62 10.1
4/26/2023 12:00:00 AM 10.08 50.144 0.158 7.14 1.75 10.11
4/26/2023 12:15:00 AM 9.97 49.946 0.158 7.14 1.59 10.14
4/26/2023 12:30:00 AM 9.88 49.784 0.158 7.13 1.59 10.17
4/26/2023 12:45:00 AM 9.78 49.604 0.158 7.11 1.55 10.19
4/26/2023 1:00:00 AM 9.7 49.46 0.158 7.11 1.55 10.21
4/26/2023 1:15:00 AM 9.61 49.298 0.158 7.11 1.59 10.24
4/26/2023 1:30:00 AM 9.53 49.154 0.159 7.11 1.56 10.26
4/26/2023 1:45:00 AM 9.44 48.992 0.159 7.11 1.57 10.29
4/26/2023 2:00:00 AM 9.37 48.866 0.159 7.11 1.64 10.3
4/26/2023 2:15:00 AM 9.3 48.74 0.159 7.1 1.63 10.31
4/26/2023 2:30:00 AM 9.23 48.614 0.159 7.1 1.62 10.34
4/26/2023 2:45:00 AM 9.16 48.488 0.159 7.1 1.55 10.36
4/26/2023 3:00:00 AM 9.09 48.362 0.159 7.1 1.63 10.39
4/26/2023 3:15:00 AM 9.03 48.254 0.159 7.1 1.68 10.39
4/26/2023 3:30:00 AM 8.96 48.128 0.159 7.1 1.59 10.41
4/26/2023 3:45:00 AM 8.92 48.056 0.159 7.09 1.57 10.43
4/26/2023 4:00:00 AM 8.88 47.984 0.159 7.09 1.52 10.43
4/26/2023 4:15:00 AM 8.86 47.948 0.159 7.09 1.53 10.45
4/26/2023 4:30:00 AM 8.83 47.894 0.159 7.09 1.55 10.45
4/26/2023 4:45:00 AM 8.8 47.84 0.159 7.1 1.49 10.47
4/26/2023 5:00:00 AM 8.77 47.786 0.159 7.1 1.48 10.49
4/26/2023 5:15:00 AM 8.74 47.732 0.159 7.1 1.56 10.48
4/26/2023 5:30:00 AM 8.71 47.678 0.159 7.1 1.5 10.49
4/26/2023 5:45:00 AM 8.69 47.642 0.159 7.1 1.54 10.48
4/26/2023 6:00:00 AM 8.68 47.624 0.159 7.1 1.46 10.49
4/26/2023 6:15:00 AM 8.67 47.606 0.159 7.1 1.56 10.51
4/26/2023 6:30:00 AM 8.66 47.588 0.159 7.1 1.64 10.55
4/26/2023 6:45:00 AM 8.64 47.552 0.159 7.11 1.7 10.56
4/26/2023 7:00:00 AM 8.64 47.552 0.159 7.12 1.6 10.62
4/26/2023 7:15:00 AM 8.64 47.552 0.159 7.13 1.69 10.72
4/26/2023 7:30:00 AM 8.66 47.588 0.159 7.14 1.58 10.8
4/26/2023 7:45:00 AM 8.68 47.624 0.159 7.15 1.54 10.91
4/26/2023 8:00:00 AM 8.73 47.714 0.159 7.17 1.48 11.01
4/26/2023 8:15:00 AM 8.81 47.858 0.159 7.18 1.6 11.11
4/26/2023 8:30:00 AM 8.88 47.984 0.159 7.2 1.55 11.17
4/26/2023 8:45:00 AM 8.98 48.164 0.159 7.21 1.54 11.24
4/26/2023 9:00:00 AM 9.14 48.452 0.159 7.22 1.6 11.27
4/26/2023 9:15:00 AM 9.32 48.776 0.158 7.24 1.55 11.31
4/26/2023 9:30:00 AM 9.52 49.136 0.158 7.26 2.14 11.34
4/26/2023 9:45:00 AM 9.75 49.55 0.159 7.27 1.44 11.35
4/26/2023 10:00:00 AM 10 50 0.159 7.28 1.5 11.34
4/26/2023 10:15:00 AM 10.26 50.468 0.159 7.29 1.67 11.33
4/26/2023 10:30:00 AM 10.55 50.99 0.159 7.31 1.47 11.32
4/26/2023 10:45:00 AM 10.81 51.458 0.159 7.31 1.54 11.25
4/26/2023 11:00:00 AM 11.03 51.854 0.159 7.32 1.53 11.24
4/26/2023 11:15:00 AM 11.34 52.412 0.159 7.33 1.47 11.21
4/26/2023 11:30:00 AM 11.65 52.97 0.159 7.34 1.51 11.2
4/26/2023 11:45:00 AM 11.85 53.33 0.159 7.35 1.46 11.14
4/26/2023 12:00:00 PM 12.03 53.654 0.159 7.35 1.43 11.09
4/26/2023 12:15:00 PM 12.09 53.762 0.159 7.35 1.51 11
4/26/2023 12:30:00 PM 12.22 53.996 0.158 7.36 1.48 11.02
4/26/2023 12:45:00 PM 12.42 54.356 0.158 7.37 1.46 10.96
4/26/2023 1:00:00 PM 12.33 54.194 0.158 7.35 1.43 10.76
4/26/2023 1:15:00 PM 12.13 53.834 0.158 7.34 1.82 10.66
4/26/2023 1:30:00 PM 12.03 53.654 0.158 7.35 1.5 10.79
4/26/2023 1:45:00 PM 12.01 53.618 0.158 7.35 1.54 10.78
4/26/2023 2:00:00 PM 12.2 53.96 0.157 7.37 1.47 10.86
4/26/2023 2:15:00 PM 12.4 54.32 0.157 7.36 1.51 10.84
4/26/2023 2:30:00 PM 12.36 54.248 0.157 7.35 2.71 10.79
4/26/2023 2:45:00 PM 12.32 54.176 0.158 7.35 1.55 10.71
4/26/2023 3:00:00 PM 12.27 54.086 0.157 7.35 1.53 10.7
4/26/2023 3:15:00 PM 12.23 54.014 0.157 7.35 1.52 10.71
4/26/2023 3:30:00 PM 12.29 54.122 0.157 7.35 1.51 10.77
4/26/2023 3:45:00 PM 12.45 54.41 0.157 7.36 1.43 10.81
4/26/2023 4:00:00 PM 12.56 54.608 0.157 7.37 1.41 10.79
4/26/2023 4:15:00 PM 12.54 54.572 0.157 7.36 1.49 10.74
4/26/2023 4:30:00 PM 12.54 54.572 0.157 7.35 2.73 10.74
4/26/2023 4:45:00 PM 12.6 54.68 0.157 7.37 1.61 10.74
4/26/2023 5:00:00 PM 12.66 54.788 0.157 7.37 1.37 10.74
4/26/2023 5:15:00 PM 12.64 54.752 0.157 7.36 1.46 10.71
4/26/2023 5:30:00 PM 12.55 54.59 0.157 7.36 1.48 10.64
4/26/2023 5:45:00 PM 12.41 54.338 0.157 7.35 1.54 10.55
4/26/2023 6:00:00 PM 12.3 54.14 0.157 7.33 1.56 10.42
4/26/2023 6:15:00 PM 12.16 53.888 0.157 7.32 1.52 10.35
4/26/2023 6:30:00 PM 12.07 53.726 0.157 7.31 1.8 10.34
4/26/2023 6:45:00 PM 12.01 53.618 0.157 7.3 1.63 10.41
4/26/2023 7:00:00 PM 11.93 53.474 0.157 7.3 1.57 10.43
4/26/2023 7:15:00 PM 11.82 53.276 0.157 7.29 1.45 10.38
4/26/2023 7:30:00 PM 11.68 53.024 0.157 7.29 1.59 10.37
4/26/2023 7:45:00 PM 11.55 52.79 0.157 7.27 1.58 10.32
4/26/2023 8:00:00 PM 11.42 52.556 0.157 7.26 1.74 10.26
4/26/2023 8:15:00 PM 11.29 52.322 0.157 7.24 1.66 10.19
4/26/2023 8:30:00 PM 11.19 52.142 0.157 7.23 1.58 10.14
4/26/2023 8:45:00 PM 11.1 51.98 0.157 7.22 1.65 10.12
4/26/2023 9:00:00 PM 11.03 51.854 0.157 7.21 1.75 10.09
4/26/2023 9:15:00 PM 10.96 51.728 0.157 7.2 1.65 10.07
4/26/2023 9:30:00 PM 10.89 51.602 0.157 7.19 1.58 10.06
4/26/2023 9:45:00 PM 10.81 51.458 0.157 7.19 1.57 10.07
4/26/2023 10:00:00 PM 10.72 51.296 0.157 7.18 1.55 10.06
4/26/2023 10:15:00 PM 10.64 51.152 0.157 7.17 1.63 10.08
4/26/2023 10:30:00 PM 10.59 51.062 0.157 7.17 1.6 10.07
4/26/2023 10:45:00 PM 10.51 50.918 0.157 7.17 1.69 10.09
4/26/2023 11:00:00 PM 10.43 50.774 0.157 7.16 1.76 10.1
4/26/2023 11:15:00 PM 10.36 50.648 0.157 7.15 1.53 10.12
4/26/2023 11:30:00 PM 10.31 50.558 0.157 7.15 1.58 10.14
4/26/2023 11:45:00 PM 10.25 50.45 0.157 7.14 1.63 10.14
4/27/2023 12:00:00 AM 10.18 50.324 0.157 7.14 1.59 10.17
4/27/2023 12:15:00 AM 10.13 50.234 0.157 7.14 1.64 10.17
4/27/2023 12:30:00 AM 10.1 50.18 0.157 7.13 1.62 10.19
4/27/2023 12:45:00 AM 10.07 50.126 0.157 7.13 1.61 10.18
4/27/2023 1:00:00 AM 10.02 50.036 0.157 7.13 1.83 10.19
4/27/2023 1:15:00 AM 9.98 49.964 0.157 7.13 1.53 10.2
4/27/2023 1:30:00 AM 9.94 49.892 0.157 7.12 1.53 10.21
4/27/2023 1:45:00 AM 9.91 49.838 0.157 7.12 1.52 10.22
4/27/2023 2:00:00 AM 9.88 49.784 0.157 7.12 1.57 10.23
4/27/2023 2:15:00 AM 9.86 49.748 0.157 7.12 1.57 10.24
4/27/2023 2:30:00 AM 9.84 49.712 0.157 7.12 1.56 10.24
4/27/2023 2:45:00 AM 9.82 49.676 0.157 7.12 1.6 10.25
4/27/2023 3:00:00 AM 9.81 49.658 0.157 7.12 1.5 10.25
4/27/2023 3:15:00 AM 9.79 49.622 0.157 7.12 1.52 10.26
4/27/2023 3:30:00 AM 9.78 49.604 0.157 7.12 1.63 10.28
4/27/2023 3:45:00 AM 9.76 49.568 0.157 7.12 1.59 10.26
4/27/2023 4:00:00 AM 9.74 49.532 0.157 7.12 1.64 10.28
4/27/2023 4:15:00 AM 9.73 49.514 0.157 7.12 1.55 10.29
4/27/2023 4:30:00 AM 9.71 49.478 0.157 7.12 1.56 10.3
4/27/2023 4:45:00 AM 9.69 49.442 0.157 7.13 1.66 10.3
4/27/2023 5:00:00 AM 9.68 49.424 0.157 7.13 1.64 10.31
4/27/2023 5:15:00 AM 9.66 49.388 0.157 7.13 1.58 10.32
4/27/2023 5:30:00 AM 9.64 49.352 0.157 7.13 1.65 10.32
4/27/2023 5:45:00 AM 9.63 49.334 0.157 7.13 1.57 10.33
4/27/2023 6:00:00 AM 9.61 49.298 0.157 7.13 1.62 10.33
4/27/2023 6:15:00 AM 9.6 49.28 0.157 7.13 1.67 10.32
4/27/2023 6:30:00 AM 9.58 49.244 0.157 7.13 1.53 10.34
4/27/2023 6:45:00 AM 9.57 49.226 0.157 7.13 1.54 10.36
4/27/2023 7:00:00 AM 9.56 49.208 0.157 7.14 1.53 10.42
4/27/2023 7:15:00 AM 9.56 49.208 0.157 7.15 1.63 10.51
4/27/2023 7:30:00 AM 9.57 49.226 0.157 7.16 1.53 10.62
4/27/2023 7:45:00 AM 9.58 49.244 0.157 7.17 1.68 10.68
4/27/2023 8:00:00 AM 9.6 49.28 0.157 7.18 1.85 10.79
4/27/2023 8:15:00 AM 9.64 49.352 0.157 7.2 1.52 10.88
4/27/2023 8:30:00 AM 9.67 49.406 0.156 7.21 1.6 10.97
4/27/2023 8:45:00 AM 9.71 49.478 0.156 7.23 1.56 11.05
4/27/2023 9:00:00 AM 9.77 49.586 0.156 7.24 1.56 11.12
4/27/2023 9:15:00 AM 9.86 49.748 0.156 7.25 1.48 11.15
4/27/2023 9:30:00 AM 9.95 49.91 0.156 7.26 1.49 11.21
4/27/2023 9:45:00 AM 10.07 50.126 0.156 7.28 1.57 11.24
4/27/2023 10:00:00 AM 10.22 50.396 0.156 7.29 1.58 11.28
4/27/2023 10:15:00 AM 10.39 50.702 0.156 7.3 1.58 11.3
4/27/2023 10:30:00 AM 10.52 50.936 0.156 7.31 1.55 11.31
4/27/2023 10:45:00 AM 10.74 51.332 0.156 7.32 1.57 11.29
4/27/2023 11:00:00 AM 11 51.8 0.156 7.33 1.58 11.32
4/27/2023 11:15:00 AM 11.35 52.43 0.156 7.33 1.56 11.25
4/27/2023 11:30:00 AM 11.72 53.096 0.156 7.34 1.58 11.23
4/27/2023 11:45:00 AM 12.02 53.636 0.156 7.35 1.52 11.18
4/27/2023 12:00:00 PM 12.23 54.014 0.156 7.35 1.53 11.1
4/27/2023 12:15:00 PM 12.39 54.302 0.156 7.36 1.63 11.08
4/27/2023 12:30:00 PM 12.67 54.806 0.155 7.36 1.55 11.04
4/27/2023 12:45:00 PM 12.9 55.22 0.155 7.37 1.52 11.01
4/27/2023 1:00:00 PM 13.16 55.688 0.155 7.38 1.58 10.96
4/27/2023 1:15:00 PM 13.34 56.012 0.155 7.38 1.57 10.88
4/27/2023 1:30:00 PM 13.66 56.588 0.155 7.37 2.71 10.87
4/27/2023 1:45:00 PM 13.76 56.768 0.156 7.38 1.54 10.75
4/27/2023 2:00:00 PM 13.96 57.128 0.155 7.38 1.54 10.69
4/27/2023 2:15:00 PM 14 57.2 0.155 7.37 2.77 10.64
4/27/2023 2:30:00 PM 14.16 57.488 0.155 7.38 2.62 10.63
4/27/2023 2:45:00 PM 14.29 57.722 0.155 7.39 1.61 10.57
4/27/2023 3:00:00 PM 14.53 58.154 0.155 7.4 1.52 10.56
4/27/2023 3:15:00 PM 14.69 58.442 0.155 7.39 1.67 10.52
4/27/2023 3:30:00 PM 14.75 58.55 0.156 7.39 1.46 10.48
4/27/2023 3:45:00 PM 14.93 58.874 0.156 7.4 1.56 10.45
4/27/2023 4:00:00 PM 14.97 58.946 0.156 7.39 1.57 10.34
4/27/2023 4:15:00 PM 14.84 58.712 0.156 7.39 1.52 10.26
4/27/2023 4:30:00 PM 14.88 58.784 0.156 7.38 1.55 10.3
4/27/2023 4:45:00 PM 14.85 58.73 0.156 7.39 1.79 10.31
4/27/2023 5:00:00 PM 14.73 58.514 0.156 7.38 1.79 10.27
4/27/2023 5:15:00 PM 14.51 58.118 0.156 7.37 1.57 10.24
4/27/2023 5:30:00 PM 14.35 57.83 0.156 7.37 1.57 10.27
4/27/2023 5:45:00 PM 14.27 57.686 0.156 7.37 1.56 10.3
4/27/2023 6:00:00 PM 14.14 57.452 0.156 7.36 1.53 10.27
4/27/2023 6:15:00 PM 14.02 57.236 0.156 7.36 1.48 10.24
4/27/2023 6:30:00 PM 13.87 56.966 0.156 7.35 1.67 10.21
4/27/2023 6:45:00 PM 13.75 56.75 0.156 7.35 1.61 10.15
4/27/2023 7:00:00 PM 13.63 56.534 0.155 7.34 1.67 10.1
4/27/2023 7:15:00 PM 13.49 56.282 0.155 7.32 1.71 10.03
4/27/2023 7:30:00 PM 13.35 56.03 0.155 7.29 2.8 9.97
4/27/2023 7:45:00 PM 13.2 55.76 0.155 7.29 1.65 9.92
4/27/2023 8:00:00 PM 13.05 55.49 0.155 7.26 2.75 9.83
4/27/2023 8:15:00 PM 12.9 55.22 0.155 7.26 1.67 9.8
4/27/2023 8:30:00 PM 12.75 54.95 0.155 7.24 1.82 9.75
4/27/2023 8:45:00 PM 12.62 54.716 0.155 7.22 1.82 9.71
4/27/2023 9:00:00 PM 12.47 54.446 0.155 7.2 2.77 9.68
4/27/2023 9:15:00 PM 12.33 54.194 0.155 7.2 1.68 9.68
4/27/2023 9:30:00 PM 12.21 53.978 0.155 7.19 1.63 9.69
4/27/2023 9:45:00 PM 12.07 53.726 0.155 7.18 1.82 9.68
4/27/2023 10:00:00 PM 11.94 53.492 0.156 7.18 1.61 9.71
4/27/2023 10:15:00 PM 11.82 53.276 0.156 7.17 1.68 9.71
4/27/2023 10:30:00 PM 11.7 53.06 0.156 7.17 1.76 9.74
4/27/2023 10:45:00 PM 11.59 52.862 0.156 7.16 1.74 9.75
4/27/2023 11:00:00 PM 11.46 52.628 0.156 7.16 1.67 9.78
4/27/2023 11:15:00 PM 11.35 52.43 0.156 7.15 1.69 9.8
4/27/2023 11:30:00 PM 11.24 52.232 0.156 7.15 1.74 9.83
4/27/2023 11:45:00 PM 11.15 52.07 0.156 7.15 1.64 9.85
4/28/2023 12:00:00 AM 11.05 51.89 0.157 7.14 1.66 9.87
4/28/2023 12:15:00 AM 10.97 51.746 0.157 7.14 1.64 9.9
4/28/2023 12:30:00 AM 10.88 51.584 0.157 7.13 1.6 9.91
4/28/2023 12:45:00 AM 10.79 51.422 0.157 7.13 1.6 9.93
4/28/2023 1:00:00 AM 10.71 51.278 0.157 7.13 1.64 9.94
4/28/2023 1:15:00 AM 10.64 51.152 0.158 7.12 1.72 9.96
4/28/2023 1:30:00 AM 10.58 51.044 0.158 7.12 1.77 9.96
4/28/2023 1:45:00 AM 10.52 50.936 0.158 7.12 1.98 9.99
4/28/2023 2:00:00 AM 10.46 50.828 0.159 7.12 1.68 10.02
4/28/2023 2:15:00 AM 10.41 50.738 0.159 7.12 1.8 10.02
4/28/2023 2:30:00 AM 10.35 50.63 0.159 7.11 1.97 10.04
4/28/2023 2:45:00 AM 10.3 50.54 0.16 7.11 1.91 10.05
4/28/2023 3:00:00 AM 10.24 50.432 0.16 7.1 1.79 10.05
4/28/2023 3:15:00 AM 10.19 50.342 0.16 7.1 1.71 10.08
4/28/2023 3:30:00 AM 10.13 50.234 0.16 7.1 1.61 10.1
4/28/2023 3:45:00 AM 10.08 50.144 0.16 7.1 2 10.1
4/28/2023 4:00:00 AM 10.02 50.036 0.16 7.1 1.71 10.11
4/28/2023 4:15:00 AM 9.97 49.946 0.161 7.1 1.64 10.11
4/28/2023 4:30:00 AM 9.92 49.856 0.161 7.09 1.68 10.13
4/28/2023 4:45:00 AM 9.86 49.748 0.161 7.08 1.65 10.15
4/28/2023 5:00:00 AM 9.81 49.658 0.16 7.09 1.6 10.16
4/28/2023 5:15:00 AM 9.77 49.586 0.16 7.08 1.59 10.17
4/28/2023 5:30:00 AM 9.73 49.514 0.16 7.08 1.57 10.18
4/28/2023 5:45:00 AM 9.69 49.442 0.16 7.08 1.74 10.2
4/28/2023 6:00:00 AM 9.65 49.37 0.16 7.08 1.85 10.17
4/28/2023 6:15:00 AM 9.61 49.298 0.16 7.08 1.6 10.21
4/28/2023 6:30:00 AM 9.59 49.262 0.16 7.09 1.58 10.25
4/28/2023 6:45:00 AM 9.57 49.226 0.16 7.09 1.65 10.32
4/28/2023 7:00:00 AM 9.56 49.208 0.16 7.1 1.55 10.41
4/28/2023 7:15:00 AM 9.57 49.226 0.16 7.11 1.6 10.51
4/28/2023 7:30:00 AM 9.6 49.28 0.16 7.12 1.59 10.61
4/28/2023 7:45:00 AM 9.64 49.352 0.16 7.14 1.51 10.71
4/28/2023 8:00:00 AM 9.7 49.46 0.16 7.16 1.57 10.82
4/28/2023 8:15:00 AM 9.77 49.586 0.159 7.17 1.46 10.9
4/28/2023 8:30:00 AM 9.86 49.748 0.159 7.19 1.54 11.01
4/28/2023 8:45:00 AM 9.98 49.964 0.159 7.21 1.58 11.04
4/28/2023 9:00:00 AM 10.11 50.198 0.159 7.23 1.56 11.09
4/28/2023 9:15:00 AM 10.23 50.414 0.159 7.24 1.42 11.12
4/28/2023 9:30:00 AM 10.38 50.684 0.159 7.25 1.52 11.17
4/28/2023 9:45:00 AM 10.53 50.954 0.159 7.27 1.54 11.15
4/28/2023 10:00:00 AM 10.67 51.206 0.159 7.28 1.53 11.15
4/28/2023 10:15:00 AM 10.82 51.476 0.159 7.29 1.56 11.16
4/28/2023 10:30:00 AM 10.95 51.71 0.159 7.3 1.48 11.15
4/28/2023 10:45:00 AM 11.08 51.944 0.159 7.31 1.52 11.13
4/28/2023 11:00:00 AM 11.23 52.214 0.159 7.32 1.66 11.14
4/28/2023 11:15:00 AM 11.41 52.538 0.159 7.33 1.46 11.13
4/28/2023 11:30:00 AM 11.57 52.826 0.159 7.33 1.54 11.09
4/28/2023 11:45:00 AM 11.69 53.042 0.159 7.34 1.55 11.08
4/28/2023 12:00:00 PM 11.78 53.204 0.159 7.34 1.57 11.03
4/28/2023 12:15:00 PM 11.85 53.33 0.159 7.35 1.53 11.01
4/28/2023 12:30:00 PM 11.9 53.42 0.159 7.35 1.56 10.96
4/28/2023 12:45:00 PM 11.93 53.474 0.159 7.35 1.55 10.94
4/28/2023 1:00:00 PM 11.94 53.492 0.159 7.35 1.5 10.93
4/28/2023 1:15:00 PM 11.94 53.492 0.159 7.35 1.46 10.92
4/28/2023 1:30:00 PM 11.95 53.51 0.159 7.36 1.69 10.92
4/28/2023 1:45:00 PM 11.96 53.528 0.159 7.36 1.48 10.91
4/28/2023 2:00:00 PM 11.98 53.564 0.158 7.36 1.51 10.89
4/28/2023 2:15:00 PM 11.99 53.582 0.159 7.36 1.48 10.89
4/28/2023 2:30:00 PM 11.99 53.582 0.159 7.36 1.49 10.87
4/28/2023 2:45:00 PM 11.98 53.564 0.158 7.36 1.49 10.86
4/28/2023 3:00:00 PM 11.97 53.546 0.158 7.35 2.61 10.82
4/28/2023 3:15:00 PM 11.95 53.51 0.158 7.36 1.51 10.8
4/28/2023 3:30:00 PM 11.92 53.456 0.158 7.35 1.43 10.76
4/28/2023 3:45:00 PM 11.89 53.402 0.158 7.34 1.49 10.73
4/28/2023 4:00:00 PM 11.85 53.33 0.158 7.33 1.52 10.67
4/28/2023 4:15:00 PM 11.8 53.24 0.158 7.33 1.61 10.65
4/28/2023 4:30:00 PM 11.75 53.15 0.158 7.32 1.68 10.62
4/28/2023 4:45:00 PM 11.7 53.06 0.158 7.31 1.62 10.58
4/28/2023 5:00:00 PM 11.65 52.97 0.158 7.31 1.49 10.56
4/28/2023 5:15:00 PM 11.6 52.88 0.158 7.3 1.51 10.55
4/28/2023 5:30:00 PM 11.54 52.772 0.158 7.3 1.64 10.53
4/28/2023 5:45:00 PM 11.49 52.682 0.158 7.28 2.66 10.5
4/28/2023 6:00:00 PM 11.43 52.574 0.158 7.28 1.52 10.48
4/28/2023 6:15:00 PM 11.38 52.484 0.157 7.28 1.59 10.48
4/28/2023 6:30:00 PM 11.34 52.412 0.157 7.28 1.59 10.48
4/28/2023 6:45:00 PM 11.3 52.34 0.157 7.27 1.63 10.46
4/28/2023 7:00:00 PM 11.26 52.268 0.157 7.26 1.79 10.4
4/28/2023 7:15:00 PM 11.21 52.178 0.157 7.26 1.6 10.38
4/28/2023 7:30:00 PM 11.16 52.088 0.157 7.25 1.67 10.33
4/28/2023 7:45:00 PM 11.11 51.998 0.157 7.24 1.72 10.28
4/28/2023 8:00:00 PM 11.04 51.872 0.157 7.23 1.69 10.23
4/28/2023 8:15:00 PM 10.99 51.782 0.157 7.21 2.57 10.18
4/28/2023 8:30:00 PM 10.93 51.674 0.156 7.21 1.46 10.16
4/28/2023 8:45:00 PM 10.88 51.584 0.156 7.2 1.68 10.12
4/28/2023 9:00:00 PM 10.83 51.494 0.157 7.19 1.37 10.08
4/28/2023 9:15:00 PM 10.78 51.404 0.157 7.19 1.4 10.07
4/28/2023 9:30:00 PM 10.73 51.314 0.156 7.18 1.67 10.06
4/28/2023 9:45:00 PM 10.69 51.242 0.156 7.17 1.34 10.04
4/28/2023 10:00:00 PM 10.65 51.17 0.156 7.17 1.39 10.06
4/28/2023 10:15:00 PM 10.61 51.098 0.156 7.17 1.46 10.06
4/28/2023 10:30:00 PM 10.57 51.026 0.156 7.17 1.38 10.06
4/28/2023 10:45:00 PM 10.54 50.972 0.156 7.15 2.58 10.05
4/28/2023 11:00:00 PM 10.5 50.9 0.156 7.16 1.38 10.07
4/28/2023 11:15:00 PM 10.47 50.846 0.156 7.16 1.34 10.07
4/28/2023 11:30:00 PM 10.44 50.792 0.156 7.16 1.39 10.07
4/28/2023 11:45:00 PM 10.4 50.72 0.156 7.16 1.35 10.09
4/29/2023 12:00:00 AM 10.37 50.666 0.156 7.16 1.25 10.09
4/29/2023 12:15:00 AM 10.34 50.612 0.156 7.16 1.36 10.09
4/29/2023 12:30:00 AM 10.32 50.576 0.156 7.15 1.37 10.1
4/29/2023 12:45:00 AM 10.29 50.522 0.156 7.15 1.33 10.09
4/29/2023 1:00:00 AM 10.27 50.486 0.156 7.15 1.3 10.09
4/29/2023 1:15:00 AM 10.24 50.432 0.155 7.15 1.34 10.11
4/29/2023 1:30:00 AM 10.19 50.342 0.155 7.15 1.25 10.13
4/29/2023 1:45:00 AM 10.16 50.288 0.155 7.15 1.26 10.14
4/29/2023 2:00:00 AM 10.12 50.216 0.155 7.15 1.29 10.16
4/29/2023 2:15:00 AM 10.09 50.162 0.155 7.15 1.3 10.16
4/29/2023 2:30:00 AM 10.05 50.09 0.155 7.15 1.38 10.17
4/29/2023 2:45:00 AM 10.02 50.036 0.155 7.15 1.31 10.17
4/29/2023 3:00:00 AM 9.98 49.964 0.155 7.15 1.39 10.17
4/29/2023 3:15:00 AM 9.95 49.91 0.155 7.15 1.36 10.18
4/29/2023 3:30:00 AM 9.92 49.856 0.155 7.14 1.31 10.19
4/29/2023 3:45:00 AM 9.9 49.82 0.155 7.14 1.26 10.19
4/29/2023 4:00:00 AM 9.87 49.766 0.155 7.15 1.32 10.21
4/29/2023 4:15:00 AM 9.85 49.73 0.155 7.14 1.46 10.21
4/29/2023 4:30:00 AM 9.82 49.676 0.155 7.14 1.37 10.21
4/29/2023 4:45:00 AM 9.8 49.64 0.154 7.14 1.33 10.21
4/29/2023 5:00:00 AM 9.77 49.586 0.154 7.14 1.44 10.24
4/29/2023 5:15:00 AM 9.74 49.532 0.154 7.14 1.39 10.24
4/29/2023 5:30:00 AM 9.72 49.496 0.154 7.14 1.58 10.26
4/29/2023 5:45:00 AM 9.7 49.46 0.154 7.14 1.47 10.28
4/29/2023 6:00:00 AM 9.68 49.424 0.153 7.14 1.45 10.29
4/29/2023 6:15:00 AM 9.66 49.388 0.153 7.14 1.59 10.33
4/29/2023 6:30:00 AM 9.64 49.352 0.153 7.14 1.84 10.32
4/29/2023 6:45:00 AM 9.62 49.316 0.152 7.14 2.15 10.36
4/29/2023 7:00:00 AM 9.6 49.28 0.152 7.14 3 10.39
4/29/2023 7:15:00 AM 9.58 49.244 0.152 7.16 1.82 10.44
4/29/2023 7:30:00 AM 9.56 49.208 0.151 7.17 1.93 10.5
4/29/2023 7:45:00 AM 9.55 49.19 0.151 7.18 2.23 10.56
4/29/2023 8:00:00 AM 9.54 49.172 0.15 7.18 2.06 10.62
4/29/2023 8:15:00 AM 9.54 49.172 0.15 7.2 2.3 10.7
4/29/2023 8:30:00 AM 9.54 49.172 0.15 7.21 2.21 10.78
4/29/2023 8:45:00 AM 9.54 49.172 0.149 7.22 2.17 10.83
4/29/2023 9:00:00 AM 9.55 49.19 0.149 7.23 2.36 10.91
4/29/2023 9:15:00 AM 9.57 49.226 0.148 7.25 2.47 10.99
4/29/2023 9:30:00 AM 9.6 49.28 0.148 7.27 2.49 11.04
4/29/2023 9:45:00 AM 9.62 49.316 0.148 7.28 2.74 11.07
4/29/2023 10:00:00 AM 9.66 49.388 0.147 7.29 2.48 11.11
4/29/2023 10:15:00 AM 9.69 49.442 0.147 7.3 2.65 11.14
4/29/2023 10:30:00 AM 9.73 49.514 0.147 7.31 2.66 11.17
4/29/2023 10:45:00 AM 9.78 49.604 0.146 7.33 2.95 11.19
4/29/2023 11:00:00 AM 9.83 49.694 0.146 7.34 3.23 11.2
4/29/2023 11:15:00 AM 9.86 49.748 0.146 7.34 3.19 11.2
4/29/2023 11:30:00 AM 9.9 49.82 0.146 7.35 3.47 11.2
4/29/2023 11:45:00 AM 9.94 49.892 0.146 7.36 3.34 11.2
4/29/2023 12:15:00 PM 10.05 50.09 0.146 7.37 3.82 11.22
4/29/2023 12:30:00 PM 10.16 50.288 0.146 7.39 3.71 11.25
4/29/2023 12:45:00 PM 10.27 50.486 0.146 7.39 3.9 11.26
4/29/2023 1:00:00 PM 10.41 50.738 0.145 7.41 3.48 11.25
4/29/2023 1:15:00 PM 10.5 50.9 0.145 7.41 3.91 11.21
4/29/2023 1:30:00 PM 10.6 51.08 0.145 7.41 3.99 11.2
4/29/2023 1:45:00 PM 10.76 51.368 0.144 7.42 3.75 11.2
4/29/2023 2:00:00 PM 10.93 51.674 0.144 7.43 3.93 11.2
4/29/2023 2:15:00 PM 11.11 51.998 0.143 7.44 3.82 11.17
4/29/2023 2:30:00 PM 11.31 52.358 0.143 7.44 3.83 11.15
4/29/2023 2:45:00 PM 11.54 52.772 0.143 7.45 3.89 11.12
4/29/2023 3:00:00 PM 11.79 53.222 0.143 7.46 3.61 11.08
4/29/2023 3:15:00 PM 11.97 53.546 0.142 7.46 3.37 11.02
4/29/2023 3:30:00 PM 12.07 53.726 0.142 7.45 4.16 10.96
4/29/2023 3:45:00 PM 12.1 53.78 0.142 7.45 4.14 10.91
4/29/2023 4:00:00 PM 12.11 53.798 0.141 7.45 3.61 10.88
4/29/2023 4:15:00 PM 12.1 53.78 0.141 7.45 3.74 10.84
4/29/2023 4:30:00 PM 12.06 53.708 0.141 7.45 4.06 10.77
4/29/2023 4:45:00 PM 12.01 53.618 0.14 7.44 3.78 10.72
4/29/2023 5:00:00 PM 11.96 53.528 0.14 7.41 4.73 10.69
4/29/2023 5:15:00 PM 11.93 53.474 0.14 7.42 3.4 10.69
4/29/2023 5:30:00 PM 11.9 53.42 0.14 7.41 3.35 10.69
4/29/2023 5:45:00 PM 11.86 53.348 0.14 7.41 3.53 10.7
4/29/2023 6:00:00 PM 11.82 53.276 0.14 7.4 3.51 10.69
4/29/2023 6:15:00 PM 11.77 53.186 0.14 7.39 3.8 10.67
4/29/2023 6:30:00 PM 11.73 53.114 0.14 7.39 3.47 10.64
4/29/2023 6:45:00 PM 11.68 53.024 0.14 7.38 3.65 10.63
4/29/2023 7:00:00 PM 11.62 52.916 0.141 7.37 4 10.6
4/29/2023 7:15:00 PM 11.56 52.808 0.141 7.35 4.04 10.54
4/29/2023 7:30:00 PM 11.49 52.682 0.142 7.34 4.21 10.48
4/29/2023 7:45:00 PM 11.42 52.556 0.143 7.33 3.91 10.41
4/29/2023 8:00:00 PM 11.35 52.43 0.143 7.31 4.26 10.36
4/29/2023 8:15:00 PM 11.29 52.322 0.144 7.3 4.3 10.33
4/29/2023 8:30:00 PM 11.22 52.196 0.144 7.29 4 10.3
4/29/2023 8:45:00 PM 11.17 52.106 0.145 7.28 3.86 10.29
4/29/2023 9:00:00 PM 11.11 51.998 0.145 7.27 4.01 10.27
4/29/2023 9:15:00 PM 11.07 51.926 0.145 7.27 3.93 10.27
4/29/2023 9:30:00 PM 11.02 51.836 0.144 7.26 4.14 10.27
4/29/2023 9:45:00 PM 10.98 51.764 0.144 7.25 3.87 10.27
4/29/2023 10:00:00 PM 10.94 51.692 0.144 7.25 3.49 10.27
4/29/2023 10:15:00 PM 10.9 51.62 0.144 7.24 3.12 10.27
4/29/2023 10:30:00 PM 10.85 51.53 0.144 7.24 3.02 10.28
4/29/2023 10:45:00 PM 10.81 51.458 0.144 7.23 3.01 10.28
4/29/2023 11:00:00 PM 10.78 51.404 0.144 7.23 2.71 10.27
4/29/2023 11:15:00 PM 10.75 51.35 0.144 7.22 2.73 10.28
4/29/2023 11:30:00 PM 10.72 51.296 0.143 7.22 2.82 10.27
4/29/2023 11:45:00 PM 10.69 51.242 0.143 7.22 2.68 10.28
4/30/2023 12:00:00 AM 10.66 51.188 0.143 7.22 2.71 10.29
4/30/2023 12:15:00 AM 10.63 51.134 0.143 7.22 2.65 10.29
4/30/2023 12:30:00 AM 10.6 51.08 0.143 7.21 2.57 10.29
4/30/2023 12:45:00 AM 10.57 51.026 0.143 7.21 2.68 10.3
4/30/2023 1:00:00 AM 10.54 50.972 0.143 7.21 2.48 10.31
4/30/2023 1:15:00 AM 10.52 50.936 0.144 7.21 2.52 10.31
4/30/2023 1:30:00 AM 10.49 50.882 0.143 7.2 2.58 10.31
4/30/2023 1:45:00 AM 10.47 50.846 0.144 7.2 2.64 10.31
4/30/2023 2:00:00 AM 10.44 50.792 0.144 7.2 2.56 10.31
4/30/2023 2:15:00 AM 10.42 50.756 0.144 7.2 2.4 10.31
4/30/2023 2:30:00 AM 10.4 50.72 0.144 7.2 2.65 10.32
4/30/2023 2:45:00 AM 10.38 50.684 0.144 7.2 2.34 10.32
4/30/2023 3:00:00 AM 10.36 50.648 0.144 7.2 2.54 10.32
4/30/2023 3:15:00 AM 10.34 50.612 0.144 7.19 2.62 10.33
4/30/2023 3:30:00 AM 10.32 50.576 0.144 7.19 2.49 10.31
4/30/2023 3:45:00 AM 10.3 50.54 0.144 7.19 2.3 10.32
4/30/2023 4:00:00 AM 10.28 50.504 0.144 7.19 2.25 10.33
4/30/2023 4:15:00 AM 10.27 50.486 0.144 7.19 2.3 10.33
4/30/2023 4:30:00 AM 10.25 50.45 0.144 7.18 2.35 10.32
4/30/2023 4:45:00 AM 10.24 50.432 0.144 7.18 2.26 10.33
4/30/2023 5:00:00 AM 10.23 50.414 0.144 7.18 2.19 10.32
4/30/2023 5:15:00 AM 10.22 50.396 0.144 7.18 2.14 10.32
4/30/2023 5:30:00 AM 10.21 50.378 0.144 7.18 2.19 10.32
4/30/2023 5:45:00 AM 10.2 50.36 0.144 7.18 2.25 10.32
4/30/2023 6:00:00 AM 10.19 50.342 0.144 7.18 2.42 10.32
4/30/2023 6:15:00 AM 10.19 50.342 0.144 7.18 2.27 10.32
4/30/2023 6:30:00 AM 10.18 50.324 0.144 7.18 2.24 10.32
4/30/2023 6:45:00 AM 10.17 50.306 0.144 7.18 2.4 10.35
4/30/2023 7:00:00 AM 10.16 50.288 0.143 7.18 3.76 10.37
4/30/2023 7:15:00 AM 10.16 50.288 0.143 7.19 2.14 10.39
4/30/2023 7:30:00 AM 10.15 50.27 0.143 7.19 2.14 10.41
4/30/2023 7:45:00 AM 10.15 50.27 0.142 7.2 2.06 10.45
4/30/2023 8:00:00 AM 10.16 50.288 0.142 7.21 2.06 10.52
4/30/2023 8:15:00 AM 10.18 50.324 0.142 7.22 2.15 10.6
4/30/2023 8:30:00 AM 10.2 50.36 0.141 7.23 2.12 10.67
4/30/2023 8:45:00 AM 10.23 50.414 0.141 7.24 2.09 10.73
4/30/2023 9:00:00 AM 10.27 50.486 0.141 7.25 2.08 10.79
4/30/2023 9:15:00 AM 10.31 50.558 0.141 7.26 2.13 10.81
4/30/2023 9:30:00 AM 10.33 50.594 0.141 7.27 2.03 10.82
4/30/2023 9:45:00 AM 10.35 50.63 0.141 7.27 2.08 10.82
4/30/2023 10:00:00 AM 10.38 50.684 0.141 7.28 2.03 10.84
4/30/2023 10:15:00 AM 10.4 50.72 0.14 7.28 2.2 10.82
4/30/2023 10:30:00 AM 10.41 50.738 0.14 7.29 2.35 10.8
4/30/2023 10:45:00 AM 10.42 50.756 0.139 7.3 2.6 10.81
4/30/2023 11:00:00 AM 10.44 50.792 0.139 7.31 2.57 10.84
4/30/2023 11:15:00 AM 10.45 50.81 0.138 7.31 2.85 10.83
4/30/2023 11:30:00 AM 10.46 50.828 0.137 7.32 3.52 10.84
4/30/2023 11:45:00 AM 10.46 50.828 0.136 7.33 3.92 10.86
4/30/2023 12:00:00 PM 10.47 50.846 0.136 7.34 5.46 10.87
4/30/2023 12:15:00 PM 10.49 50.882 0.135 7.34 5.48 10.91
4/30/2023 12:30:00 PM 10.5 50.9 0.134 7.36 9.02 10.91
4/30/2023 12:45:00 PM 10.52 50.936 0.134 7.37 9.42 10.93
4/30/2023 1:00:00 PM 10.54 50.972 0.133 7.38 13.31 10.94
4/30/2023 1:15:00 PM 10.54 50.972 0.132 7.38 18.41 10.92
4/30/2023 1:30:00 PM 10.53 50.954 0.13 7.37 24.48 10.89
4/30/2023 1:45:00 PM 10.52 50.936 0.129 7.37 37.77 10.87
4/30/2023 2:00:00 PM 10.48 50.864 0.127 7.37 54.57 10.83
4/30/2023 2:15:00 PM 10.43 50.774 0.126 7.35 74.21 10.83
4/30/2023 2:30:00 PM 10.4 50.72 0.123 7.33 102.45 10.83
4/30/2023 2:45:00 PM 10.37 50.666 0.118 7.31 108.81 10.83
4/30/2023 3:00:00 PM 10.34 50.612 0.115 7.28 113.66 10.84
4/30/2023 3:15:00 PM 10.31 50.558 0.113 7.3 124.76 10.84
4/30/2023 3:30:00 PM 10.3 50.54 0.11 7.29 123.54 10.84
4/30/2023 3:45:00 PM 10.3 50.54 0.108 7.28 136.35 10.85
4/30/2023 4:00:00 PM 10.29 50.522 0.105 7.26 139.53 10.84
4/30/2023 4:15:00 PM 10.28 50.504 0.103 7.26 149.26 10.84
4/30/2023 4:30:00 PM 10.28 50.504 0.101 7.16 151.86 10.84
4/30/2023 4:45:00 PM 10.27 50.486 0.1 7.23 159.11 10.83
4/30/2023 5:00:00 PM 10.27 50.486 0.098 7.22 168.26 10.84
4/30/2023 5:15:00 PM 10.26 50.468 0.096 7.2 186.46 10.84
4/30/2023 5:30:00 PM 10.25 50.45 0.094 7.19 197.37 10.84
4/30/2023 5:45:00 PM 10.23 50.414 0.093 7.16 200.15 10.84
4/30/2023 6:00:00 PM 10.22 50.396 0.091 7.14 208.42 10.85
4/30/2023 6:15:00 PM 10.21 50.378 0.089 7.13 207.53 10.86
4/30/2023 6:30:00 PM 10.21 50.378 0.088 7.11 210.53 10.86
4/30/2023 6:45:00 PM 10.22 50.396 0.086 7.1 207.56 10.86
4/30/2023 7:00:00 PM 10.22 50.396 0.085 7.08 210.12 10.86
4/30/2023 7:15:00 PM 10.21 50.378 0.084 7.06 225.03 10.87
4/30/2023 7:30:00 PM 10.21 50.378 0.083 7.05 246.57 10.87
4/30/2023 7:45:00 PM 10.2 50.36 0.082 7.01 305.01 10.87
4/30/2023 8:00:00 PM 10.19 50.342 0.081 7.01 380.26 10.88
4/30/2023 8:15:00 PM 10.18 50.324 0.08 7 445.1 10.88
4/30/2023 8:30:00 PM 10.18 50.324 0.078 6.98 454.37 10.89
4/30/2023 8:45:00 PM 10.17 50.306 0.076 6.97 464.12 10.89
4/30/2023 9:00:00 PM 10.16 50.288 0.075 6.94 471.69 10.9
4/30/2023 9:15:00 PM 10.16 50.288 0.074 6.95 483.7 10.89
4/30/2023 9:30:00 PM 10.15 50.27 0.073 6.95 512.91 10.89
4/30/2023 9:45:00 PM 10.16 50.288 0.071 6.91 552.39 10.89
4/30/2023 10:00:00 PM 10.15 50.27 0.07 6.9 643.67 10.89
4/30/2023 10:15:00 PM 10.14 50.252 0.068 6.91 678 10.89
4/30/2023 10:30:00 PM 10.14 50.252 0.067 6.88 712.02 10.89
4/30/2023 10:45:00 PM 10.11 50.198 0.066 6.84 758.68 10.89
4/30/2023 11:00:00 PM 10.08 50.144 0.065 6.81 769.79 10.9
4/30/2023 11:15:00 PM 10.05 50.09 0.065 6.8 781.23 10.9
4/30/2023 11:30:00 PM 10.02 50.036 0.064 6.79 818.73 10.9
4/30/2023 11:45:00 PM 9.97 49.946 0.064 6.77 930.47 10.89
5/1/2023 12:00:00 AM 9.92 49.856 0.062 6.72 929.22 10.9
5/1/2023 12:15:00 AM 9.86 49.748 0.061 6.64 883.18 10.91
5/1/2023 12:30:00 AM 9.8 49.64 0.06 6.66 838 10.92
5/1/2023 12:45:00 AM 9.74 49.532 0.06 6.64 938.43 10.95
5/1/2023 1:00:00 AM 9.68 49.424 0.059 6.67 2078.86 10.96
5/1/2023 1:15:00 AM 9.63 49.334 0.059 6.73 2102.19 10.98
5/1/2023 1:30:00 AM 9.59 49.262 0.059 6.7 1284.89 10.99
5/1/2023 1:45:00 AM 9.55 49.19 0.06 6.64 635.64 11
5/1/2023 2:00:00 AM 9.5 49.1 0.06 6.63 1885.73 11
5/1/2023 2:15:00 AM 9.46 49.028 0.06 6.72 648.16 11.01
5/1/2023 2:30:00 AM 9.42 48.956 0.061 6.73 589.12 11.02
5/1/2023 2:45:00 AM 9.38 48.884 0.062 6.63 493.05 11.03
5/1/2023 3:00:00 AM 9.34 48.812 0.063 6.73 452.99 11.04
5/1/2023 3:15:00 AM 9.3 48.74 0.064 6.66 420.07 11.05
5/1/2023 3:30:00 AM 9.27 48.686 0.065 6.67 385.28 11.06
5/1/2023 3:45:00 AM 9.24 48.632 0.066 6.76 366.03 11.06
5/1/2023 4:00:00 AM 9.21 48.578 0.066 6.67 335.02 11.06
5/1/2023 4:15:00 AM 9.18 48.524 0.067 6.7 314.26 11.06
5/1/2023 4:30:00 AM 9.15 48.47 0.068 6.7 289.83 11.06
5/1/2023 4:45:00 AM 9.12 48.416 0.069 6.7 274.52 11.07
5/1/2023 5:00:00 AM 9.09 48.362 0.07 6.78 254.66 11.08
5/1/2023 5:15:00 AM 9.06 48.308 0.07 6.69 248.28 11.09
5/1/2023 5:30:00 AM 9.02 48.236 0.071 6.72 228.74 11.1
5/1/2023 5:45:00 AM 8.99 48.182 0.072 6.74 219.08 11.11
5/1/2023 6:00:00 AM 8.96 48.128 0.072 6.74 209.68 11.12
5/1/2023 6:15:00 AM 8.94 48.092 0.073 6.75 203.18 11.12
5/1/2023 6:30:00 AM 8.91 48.038 0.073 6.82 194.37 11.12
5/1/2023 6:45:00 AM 8.89 48.002 0.074 6.75 188.86 11.13
5/1/2023 7:00:00 AM 8.87 47.966 0.074 6.84 175.68 11.14
5/1/2023 7:15:00 AM 8.85 47.93 0.075 6.77 170.02 11.14
5/1/2023 7:30:00 AM 8.84 47.912 0.075 6.79 160.83 11.15
5/1/2023 7:45:00 AM 8.84 47.912 0.076 6.8 154.04 11.16
5/1/2023 8:00:00 AM 8.84 47.912 0.076 6.81 151.13 11.16
5/1/2023 8:15:00 AM 8.85 47.93 0.076 6.83 143.62 11.16
5/1/2023 8:30:00 AM 8.87 47.966 0.076 6.84 134.38 11.17
5/1/2023 8:45:00 AM 8.91 48.038 0.076 6.84 132.89 11.17
5/1/2023 9:00:00 AM 8.96 48.128 0.077 6.85 124.87 11.16
5/1/2023 9:15:00 AM 9.05 48.29 0.077 6.88 125.97 11.15
5/1/2023 9:30:00 AM 9.07 48.326 0.077 6.88 125.27 11.15
5/1/2023 9:45:00 AM 9.07 48.326 0.077 6.97 116.33 11.14
5/1/2023 10:00:00 AM 9.1 48.38 0.077 6.96 129.32 11.13
5/1/2023 10:15:00 AM 9.17 48.506 0.077 6.98 110.14 11.12
5/1/2023 10:30:00 AM 9.29 48.722 0.077 6.95 112.41 11.11
5/1/2023 10:45:00 AM 9.47 49.046 0.077 6.95 103.1 11.09
5/1/2023 11:00:00 AM 9.59 49.262 0.078 7 97.96 11.06
5/1/2023 11:15:00 AM 9.71 49.478 0.078 7.01 99.15 11.04
5/1/2023 11:30:00 AM 9.88 49.784 0.079 7.01 93.4 10.99
5/1/2023 11:45:00 AM 9.94 49.892 0.079 7.03 92.24 10.96
5/1/2023 12:00:00 PM 9.95 49.91 0.079 7.02 88.21 10.94
5/1/2023 12:15:00 PM 10.25 50.45 0.08 7.04 82.84 10.91
5/1/2023 12:30:00 PM 10.52 50.936 0.08 7.04 81.95 10.85
5/1/2023 12:45:00 PM 10.7 51.26 0.08 7.05 76.34 10.81
5/1/2023 1:00:00 PM 10.83 51.494 0.08 6.96 70.69 10.78
5/1/2023 1:15:00 PM 10.73 51.314 0.081 7.06 79.29 10.76
5/1/2023 1:30:00 PM 10.59 51.062 0.081 7.06 75.48 10.76
5/1/2023 1:45:00 PM 10.57 51.026 0.081 7.06 76.16 10.75
5/1/2023 2:00:00 PM 10.63 51.134 0.081 7.08 74.82 10.76
5/1/2023 2:15:00 PM 10.66 51.188 0.082 7.07 75.22 10.75
5/1/2023 2:30:00 PM 10.68 51.224 0.082 7.07 71.64 10.74
5/1/2023 2:45:00 PM 10.76 51.368 0.082 7.01 70.2 10.73
5/1/2023 3:00:00 PM 10.86 51.548 0.082 7.08 65.16 10.71
5/1/2023 3:15:00 PM 10.99 51.782 0.082 7 69.04 10.7
5/1/2023 3:30:00 PM 11.04 51.872 0.082 7.08 69.22 10.68
5/1/2023 3:45:00 PM 11.16 52.088 0.082 7.08 65.78 10.66
5/1/2023 4:00:00 PM 11.27 52.286 0.082 7.08 63.42 10.63
5/1/2023 4:15:00 PM 11.34 52.412 0.082 7.02 60.91 10.61
5/1/2023 4:30:00 PM 11.36 52.448 0.083 7.07 51.64 10.6
5/1/2023 4:45:00 PM 11.37 52.466 0.083 7.09 59.41 10.58
5/1/2023 5:00:00 PM 11.27 52.286 0.083 7.1 53.8 10.59
5/1/2023 5:15:00 PM 11.18 52.124 0.083 7.08 58.19 10.59
5/1/2023 5:30:00 PM 11.11 51.998 0.083 7.1 56.05 10.59
5/1/2023 5:45:00 PM 11.05 51.89 0.083 7.1 52.61 10.6
5/1/2023 6:00:00 PM 11.01 51.818 0.083 7.1 45.1 10.61
5/1/2023 6:15:00 PM 10.94 51.692 0.084 7.11 51.66 10.62
5/1/2023 6:30:00 PM 10.83 51.494 0.084 7.02 51.33 10.64
5/1/2023 6:45:00 PM 10.73 51.314 0.084 7.1 50.9 10.64
5/1/2023 7:00:00 PM 10.64 51.152 0.084 7.11 47.31 10.65
5/1/2023 7:15:00 PM 10.53 50.954 0.084 7.1 48.9 10.68
5/1/2023 7:30:00 PM 10.43 50.774 0.084 7.1 50.57 10.71
5/1/2023 7:45:00 PM 10.34 50.612 0.084 7.02 52.65 10.73
5/1/2023 8:00:00 PM 10.27 50.486 0.084 7.1 52.05 10.73
5/1/2023 8:15:00 PM 10.19 50.342 0.084 7.09 48.28 10.75
5/1/2023 8:30:00 PM 10.13 50.234 0.084 7.09 47.78 10.75
5/1/2023 8:45:00 PM 10.06 50.108 0.085 7.01 41.66 10.77
5/1/2023 9:00:00 PM 9.99 49.982 0.085 7.09 44.53 10.79
5/1/2023 9:15:00 PM 9.91 49.838 0.085 7.08 44.74 10.81
5/1/2023 9:30:00 PM 9.82 49.676 0.085 7.09 41.51 10.83
5/1/2023 9:45:00 PM 9.73 49.514 0.085 7.08 41.96 10.86
5/1/2023 10:00:00 PM 9.65 49.37 0.084 7.08 41.16 10.88
5/1/2023 10:15:00 PM 9.57 49.226 0.084 7.08 47.13 10.91
5/1/2023 10:30:00 PM 9.51 49.118 0.084 7.07 40.27 10.92
5/1/2023 10:45:00 PM 9.44 48.992 0.084 7.07 39.13 10.94
5/1/2023 11:00:00 PM 9.37 48.866 0.084 7.07 38.35 10.95
5/1/2023 11:15:00 PM 9.31 48.758 0.084 7.07 39.44 10.97
5/1/2023 11:30:00 PM 9.25 48.65 0.084 6.96 38.22 10.99
5/1/2023 11:45:00 PM 9.19 48.542 0.084 7.06 39.04 11
5/2/2023 12:00:00 AM 9.13 48.434 0.084 7.06 38.6 11.01
5/2/2023 12:15:00 AM 9.07 48.326 0.084 7.06 37.1 11.03
5/2/2023 12:30:00 AM 9.02 48.236 0.084 7.05 39.08 11.04
5/2/2023 12:45:00 AM 8.98 48.164 0.084 7.04 37.55 11.06
5/2/2023 1:00:00 AM 8.93 48.074 0.084 7.04 35.69 11.07
5/2/2023 1:15:00 AM 8.89 48.002 0.085 7.03 35.31 11.08
5/2/2023 1:30:00 AM 8.86 47.948 0.085 7.03 34.67 11.08
5/2/2023 1:45:00 AM 8.82 47.876 0.085 7.03 35.52 11.09
5/2/2023 2:00:00 AM 8.79 47.822 0.085 7.02 35.58 11.09
5/2/2023 2:15:00 AM 8.76 47.768 0.085 7.02 34.48 11.1
5/2/2023 2:30:00 AM 8.74 47.732 0.085 7.03 35.62 11.1
5/2/2023 2:45:00 AM 8.71 47.678 0.085 6.97 33.16 11.11
5/2/2023 3:00:00 AM 8.68 47.624 0.085 7.03 33.25 11.12
5/2/2023 3:15:00 AM 8.64 47.552 0.085 7.02 32.93 11.12
5/2/2023 3:30:00 AM 8.61 47.498 0.085 7.02 32.66 11.13
5/2/2023 3:45:00 AM 8.57 47.426 0.086 6.99 30.94 11.14
5/2/2023 4:00:00 AM 8.54 47.372 0.086 7.03 34.71 11.15
5/2/2023 4:15:00 AM 8.51 47.318 0.086 7.03 33.42 11.16
5/2/2023 4:30:00 AM 8.48 47.264 0.086 7.02 31.86 11.17
5/2/2023 4:45:00 AM 8.46 47.228 0.086 7.02 31.92 11.18
5/2/2023 5:00:00 AM 8.44 47.192 0.086 7.03 32.21 11.18
5/2/2023 5:15:00 AM 8.41 47.138 0.086 7.03 32.08 11.19
5/2/2023 5:30:00 AM 8.38 47.084 0.086 7.03 31.36 11.2
5/2/2023 5:45:00 AM 8.35 47.03 0.087 7.02 30.49 11.21
5/2/2023 6:00:00 AM 8.32 46.976 0.087 7.02 30.72 11.22
5/2/2023 6:15:00 AM 8.29 46.922 0.087 7.03 30.71 11.22
5/2/2023 6:30:00 AM 8.26 46.868 0.087 7.04 30.49 11.23
5/2/2023 6:45:00 AM 8.23 46.814 0.087 7.03 30.2 11.25
5/2/2023 7:00:00 AM 8.2 46.76 0.087 7.03 30.54 11.26
5/2/2023 7:15:00 AM 8.18 46.724 0.087 7.01 30.14 11.26
5/2/2023 7:30:00 AM 8.19 46.742 0.087 7.04 28.29 11.27
5/2/2023 7:45:00 AM 8.23 46.814 0.087 7.03 27.31 11.29
5/2/2023 8:00:00 AM 8.24 46.832 0.087 7.04 27.32 11.29
5/2/2023 8:15:00 AM 8.25 46.85 0.087 7.04 29.92 11.29
5/2/2023 8:30:00 AM 8.26 46.868 0.088 7.05 27.38 11.3
5/2/2023 8:45:00 AM 8.32 46.976 0.088 7.06 30.39 11.29
5/2/2023 9:00:00 AM 8.38 47.084 0.088 7.05 24.88 11.28
5/2/2023 9:15:00 AM 8.45 47.21 0.088 6.98 26.12 11.27
5/2/2023 9:30:00 AM 8.52 47.336 0.088 6.98 26.86 11.26
5/2/2023 9:45:00 AM 8.61 47.498 0.088 7.05 25.5 11.24
5/2/2023 10:00:00 AM 8.73 47.714 0.088 7.07 25.89 11.22
5/2/2023 10:15:00 AM 8.78 47.804 0.089 7.07 24.44 11.21
5/2/2023 10:30:00 AM 8.86 47.948 0.089 7.08 25.84 11.19
5/2/2023 10:45:00 AM 8.97 48.146 0.089 7.05 25.22 11.18
5/2/2023 11:00:00 AM 9.12 48.416 0.089 7.09 24.63 11.15
5/2/2023 11:15:00 AM 9.2 48.56 0.089 7.09 25.78 11.12
5/2/2023 11:30:00 AM 9.19 48.542 0.089 7.09 24.84 11.11
5/2/2023 11:45:00 AM 9.38 48.884 0.089 7.09 24.08 11.09
5/2/2023 12:00:00 PM 9.49 49.082 0.089 7.1 23.39 11.07
5/2/2023 12:15:00 PM 9.6 49.28 0.089 7.09 24.31 11.05
5/2/2023 12:30:00 PM 9.59 49.262 0.089 7.1 22.81 11.04
5/2/2023 12:45:00 PM 9.79 49.622 0.089 7.11 24.12 11.01
5/2/2023 1:00:00 PM 9.92 49.856 0.089 7.01 23 10.97
5/2/2023 1:15:00 PM 9.99 49.982 0.089 7.03 23.19 10.94
5/2/2023 1:30:00 PM 10 50 0.089 7.12 23.01 10.91
5/2/2023 1:45:00 PM 10.03 50.054 0.089 7.12 24.25 10.89
5/2/2023 2:00:00 PM 10.07 50.126 0.089 7.11 22.45 10.89
5/2/2023 2:15:00 PM 10.1 50.18 0.089 7.12 27.86 10.87
5/2/2023 2:30:00 PM 10.12 50.216 0.089 7.02 21.75 10.87
5/2/2023 2:45:00 PM 10.05 50.09 0.089 7.13 21.48 10.86
5/2/2023 3:00:00 PM 9.98 49.964 0.089 7.12 21.54 10.86
5/2/2023 3:15:00 PM 9.93 49.874 0.089 7.13 21.48 10.87
5/2/2023 3:30:00 PM 9.91 49.838 0.089 7.13 21.77 10.87
5/2/2023 3:45:00 PM 9.91 49.838 0.089 7.12 21.22 10.88
5/2/2023 4:00:00 PM 9.97 49.946 0.089 7.12 20.76 10.87
5/2/2023 4:15:00 PM 9.99 49.982 0.089 7.04 21.28 10.87
5/2/2023 4:30:00 PM 10.02 50.036 0.089 7.13 24.41 10.87
5/2/2023 4:45:00 PM 10.05 50.09 0.09 7.11 21.45 10.86
5/2/2023 5:00:00 PM 10.07 50.126 0.09 7.12 20.56 10.85
5/2/2023 5:15:00 PM 10.08 50.144 0.09 7.12 20.41 10.84
5/2/2023 5:30:00 PM 10.08 50.144 0.09 7.12 20.61 10.84
5/2/2023 5:45:00 PM 10.09 50.162 0.09 7.12 21.11 10.83
5/2/2023 6:00:00 PM 10.1 50.18 0.09 7.12 19.14 10.83
5/2/2023 6:15:00 PM 10.12 50.216 0.09 7.13 20.71 10.82
5/2/2023 6:30:00 PM 10.07 50.126 0.09 7.12 20.93 10.82
5/2/2023 6:45:00 PM 10.03 50.054 0.09 7.13 19.83 10.82
5/2/2023 7:00:00 PM 9.98 49.964 0.09 7.13 18.91 10.83
5/2/2023 7:15:00 PM 9.92 49.856 0.09 7.12 19.79 10.84
5/2/2023 7:30:00 PM 9.84 49.712 0.09 7.12 16.47 10.85
5/2/2023 7:45:00 PM 9.77 49.586 0.091 7.12 18.79 10.87
5/2/2023 8:00:00 PM 9.69 49.442 0.091 7.11 18.19 10.89
5/2/2023 8:15:00 PM 9.62 49.316 0.091 7.11 19.11 10.9
5/2/2023 8:30:00 PM 9.55 49.19 0.091 7.11 19.63 10.92
5/2/2023 8:45:00 PM 9.49 49.082 0.091 7.11 19.62 10.93
5/2/2023 9:00:00 PM 9.44 48.992 0.091 7.11 19.14 10.94
5/2/2023 9:15:00 PM 9.39 48.902 0.091 7.09 20.1 10.95
5/2/2023 9:30:00 PM 9.35 48.83 0.091 7.1 20.27 10.96
5/2/2023 9:45:00 PM 9.31 48.758 0.091 7.11 18.65 10.97
5/2/2023 10:00:00 PM 9.26 48.668 0.091 7.1 17.9 10.99
5/2/2023 10:15:00 PM 9.22 48.596 0.091 7.1 18.33 10.99
5/2/2023 10:30:00 PM 9.18 48.524 0.091 7.1 18.44 11.01
5/2/2023 10:45:00 PM 9.13 48.434 0.091 7.1 17.96 11.02
5/2/2023 11:00:00 PM 9.09 48.362 0.092 7.1 18.74 11.03
5/2/2023 11:15:00 PM 9.04 48.272 0.092 7.1 14.81 11.04
5/2/2023 11:30:00 PM 8.99 48.182 0.092 7.08 16.43 11.06
5/2/2023 11:45:00 PM 8.95 48.11 0.092 7.1 19.8 11.08
5/3/2023 12:00:00 AM 8.9 48.02 0.092 7.1 18.79 11.09
5/3/2023 12:15:00 AM 8.85 47.93 0.092 7.09 18.53 11.1
5/3/2023 12:30:00 AM 8.8 47.84 0.092 7.09 17.51 11.11
5/3/2023 12:45:00 AM 8.76 47.768 0.092 7.09 17.86 11.12
5/3/2023 1:00:00 AM 8.72 47.696 0.092 7.09 16.94 11.13
5/3/2023 1:15:00 AM 8.68 47.624 0.092 7.09 22.73 11.14
5/3/2023 1:30:00 AM 8.65 47.57 0.092 6.97 14.68 11.15
5/3/2023 1:45:00 AM 8.62 47.516 0.092 6.99 17.37 11.16
5/3/2023 2:00:00 AM 8.58 47.444 0.092 7.09 17.77 11.17
5/3/2023 2:15:00 AM 8.55 47.39 0.093 7.09 14.16 11.18
5/3/2023 2:30:00 AM 8.51 47.318 0.093 7.08 16.06 11.19
5/3/2023 2:45:00 AM 8.48 47.264 0.093 7.08 16.51 11.2
5/3/2023 3:00:00 AM 8.45 47.21 0.093 7.08 15.83 11.2
5/3/2023 3:15:00 AM 8.42 47.156 0.093 7.07 16.12 11.21
5/3/2023 3:30:00 AM 8.39 47.102 0.093 7.08 16 11.22
5/3/2023 3:45:00 AM 8.36 47.048 0.093 7.08 16.1 11.23
5/3/2023 4:00:00 AM 8.33 46.994 0.093 7.08 15.57 11.24
5/3/2023 4:15:00 AM 8.3 46.94 0.094 7.08 15.81 11.24
5/3/2023 4:30:00 AM 8.28 46.904 0.094 7.07 14.73 11.25
5/3/2023 4:45:00 AM 8.26 46.868 0.094 7.08 15.82 11.26
5/3/2023 5:00:00 AM 8.23 46.814 0.094 6.98 14.08 11.26
5/3/2023 5:15:00 AM 8.21 46.778 0.094 7.07 14.84 11.26
5/3/2023 5:30:00 AM 8.19 46.742 0.094 7.08 15.42 11.26
5/3/2023 5:45:00 AM 8.16 46.688 0.094 7.07 14.86 11.27
5/3/2023 6:00:00 AM 8.14 46.652 0.094 7.07 14.55 11.28
5/3/2023 6:15:00 AM 8.11 46.598 0.095 7 13.94 11.29
5/3/2023 6:30:00 AM 8.09 46.562 0.095 7.07 14.51 11.3
5/3/2023 6:45:00 AM 8.08 46.544 0.095 7.07 14.4 11.31
5/3/2023 7:00:00 AM 8.07 46.526 0.095 7.07 13.76 11.31
5/3/2023 7:15:00 AM 8.08 46.544 0.095 7.08 13.66 11.32
5/3/2023 7:30:00 AM 8.08 46.544 0.095 7.06 13.45 11.33
5/3/2023 7:45:00 AM 8.09 46.562 0.095 7 14.1 11.33
5/3/2023 8:00:00 AM 8.09 46.562 0.095 7.07 13.73 11.34
5/3/2023 8:15:00 AM 8.1 46.58 0.095 7.07 14.08 11.34
5/3/2023 8:30:00 AM 8.1 46.58 0.095 6.99 13.57 11.35
5/3/2023 8:45:00 AM 8.12 46.616 0.095 7.08 13.49 11.35
5/3/2023 9:00:00 AM 8.18 46.724 0.095 7.09 13.6 11.36
5/3/2023 9:15:00 AM 8.26 46.868 0.095 7.1 13.79 11.36
5/3/2023 9:30:00 AM 8.32 46.976 0.095 7.1 13.32 11.36
5/3/2023 9:45:00 AM 8.37 47.066 0.095 7.1 12.84 11.35
5/3/2023 10:00:00 AM 8.42 47.156 0.095 7.11 13.07 11.34
5/3/2023 10:15:00 AM 8.49 47.282 0.096 7.11 12.39 11.33
5/3/2023 10:30:00 AM 8.57 47.426 0.096 7.1 12.91 11.31
5/3/2023 10:45:00 AM 8.65 47.57 0.096 7.12 12.58 11.3
5/3/2023 11:00:00 AM 8.75 47.75 0.095 7.12 13.3 11.3
5/3/2023 11:15:00 AM 8.86 47.948 0.095 7.13 13.15 11.29
5/3/2023 11:30:00 AM 9.03 48.254 0.096 7.13 13.97 11.27
5/3/2023 11:45:00 AM 9.25 48.65 0.097 7.14 15.73 11.23
5/3/2023 12:00:00 PM 9.26 48.668 0.097 7.04 17.16 11.2
5/3/2023 12:15:00 PM 9.34 48.812 0.096 7.14 18.05 11.18
5/3/2023 12:30:00 PM 9.67 49.406 0.096 7.14 16.77 11.14
5/3/2023 12:45:00 PM 10.02 50.036 0.095 7.14 17.19 11.06
5/3/2023 1:00:00 PM 10.19 50.342 0.095 7.14 15.95 11.01
5/3/2023 1:15:00 PM 10.43 50.774 0.095 7.17 16.09 10.95
5/3/2023 1:30:00 PM 10.61 51.098 0.095 7.17 14.54 10.9
5/3/2023 1:45:00 PM 10.69 51.242 0.095 7.19 15.27 10.86
5/3/2023 2:00:00 PM 10.84 51.512 0.095 7.12 14.55 10.82
5/3/2023 2:15:00 PM 10.87 51.566 0.095 7.1 14.04 10.79
5/3/2023 2:30:00 PM 10.98 51.764 0.095 7.19 13.53 10.76
5/3/2023 2:45:00 PM 10.99 51.782 0.095 7.19 14.37 10.73
5/3/2023 3:00:00 PM 10.92 51.656 0.096 7.19 14.73 10.73
5/3/2023 3:15:00 PM 10.87 51.566 0.096 7.19 14.08 10.73
5/3/2023 3:30:00 PM 10.78 51.404 0.096 7.2 13.01 10.74
5/3/2023 3:45:00 PM 10.81 51.458 0.096 7.2 13.59 10.74
5/3/2023 4:00:00 PM 10.83 51.494 0.096 7.2 14.43 10.74
5/3/2023 4:15:00 PM 10.99 51.782 0.096 7.2 12.86 10.73
5/3/2023 4:30:00 PM 11.11 51.998 0.096 7.2 13.02 10.71
5/3/2023 4:45:00 PM 11.2 52.16 0.096 7.2 13.11 10.68
5/3/2023 5:00:00 PM 11.13 52.034 0.096 7.19 12.93 10.67
5/3/2023 5:15:00 PM 11.08 51.944 0.096 7.11 13.04 10.67
5/3/2023 5:30:00 PM 11.09 51.962 0.096 7.19 12.71 10.67
5/3/2023 5:45:00 PM 11.05 51.89 0.096 7.19 12.48 10.66
5/3/2023 6:00:00 PM 10.96 51.728 0.096 7.18 12.54 10.68
5/3/2023 6:15:00 PM 10.91 51.638 0.096 7.19 12.5 10.68
5/3/2023 6:30:00 PM 10.81 51.458 0.096 7.17 13.27 10.68
5/3/2023 6:45:00 PM 10.7 51.26 0.096 7.18 13.02 10.69
5/3/2023 7:00:00 PM 10.62 51.116 0.096 7.07 12.57 10.7
5/3/2023 7:15:00 PM 10.54 50.972 0.096 7.18 11.95 10.72
5/3/2023 7:30:00 PM 10.45 50.81 0.096 7.17 11.93 10.74
5/3/2023 7:45:00 PM 10.38 50.684 0.096 7.16 12.36 10.75
5/3/2023 8:00:00 PM 10.29 50.522 0.096 7.17 12.6 10.77
5/3/2023 8:15:00 PM 10.2 50.36 0.096 7.17 12.43 10.79
5/3/2023 8:30:00 PM 10.1 50.18 0.096 7.16 12.36 10.8
5/3/2023 8:45:00 PM 10 50 0.096 7.16 13.12 10.82
5/3/2023 9:00:00 PM 9.91 49.838 0.095 7.15 12.31 10.85
5/3/2023 9:15:00 PM 9.82 49.676 0.095 7.15 12.61 10.87
5/3/2023 9:30:00 PM 9.74 49.532 0.095 7.13 12.13 10.9
5/3/2023 9:45:00 PM 9.65 49.37 0.095 7.15 12.01 10.93
5/3/2023 10:00:00 PM 9.56 49.208 0.095 7.15 13.11 10.95
5/3/2023 10:15:00 PM 9.47 49.046 0.095 7.14 12.76 10.98
5/3/2023 10:30:00 PM 9.39 48.902 0.095 7.03 13.05 11
5/3/2023 10:45:00 PM 9.31 48.758 0.095 7.12 13.12 11.03
5/3/2023 11:00:00 PM 9.23 48.614 0.095 7.12 12.72 11.05
5/3/2023 11:15:00 PM 9.16 48.488 0.095 7.12 12.37 11.07
5/3/2023 11:30:00 PM 9.1 48.38 0.095 7.11 12.61 11.09
5/3/2023 11:45:00 PM 9.04 48.272 0.095 7.11 13.33 11.12
5/4/2023 12:00:00 AM 8.98 48.164 0.094 7.11 13.27 11.13
5/4/2023 12:15:00 AM 8.93 48.074 0.094 7.11 13.01 11.16
5/4/2023 12:30:00 AM 8.87 47.966 0.094 7.1 13.09 11.17
5/4/2023 12:45:00 AM 8.83 47.894 0.094 7.1 13.05 11.18
5/4/2023 1:00:00 AM 8.79 47.822 0.094 7.08 13.53 11.19
5/4/2023 1:15:00 AM 8.75 47.75 0.094 7.09 13.66 11.2
5/4/2023 1:30:00 AM 8.72 47.696 0.094 7.08 12.82 11.21
5/4/2023 1:45:00 AM 8.69 47.642 0.094 7.09 12.85 11.22
5/4/2023 2:00:00 AM 8.66 47.588 0.094 7.09 12.65 11.23
5/4/2023 2:15:00 AM 8.62 47.516 0.094 7.08 12.97 11.24
5/4/2023 2:30:00 AM 8.59 47.462 0.094 7.08 13.48 11.25
5/4/2023 2:45:00 AM 8.55 47.39 0.094 7.08 13.08 11.25
5/4/2023 3:00:00 AM 8.52 47.336 0.094 7.08 13.82 11.27
5/4/2023 3:15:00 AM 8.48 47.264 0.094 7.08 13.28 11.28
5/4/2023 3:30:00 AM 8.45 47.21 0.094 7.07 12.65 11.29
5/4/2023 3:45:00 AM 8.42 47.156 0.094 6.97 12.27 11.3
5/4/2023 4:00:00 AM 8.39 47.102 0.094 7.07 12.52 11.31
5/4/2023 4:15:00 AM 8.37 47.066 0.095 7.08 12.18 11.32
5/4/2023 4:30:00 AM 8.36 47.048 0.095 7.07 13.07 11.32
5/4/2023 4:45:00 AM 8.33 46.994 0.095 7.08 11.87 11.33
5/4/2023 5:00:00 AM 8.31 46.958 0.095 6.99 12.05 11.33
5/4/2023 5:15:00 AM 8.28 46.904 0.095 7.08 11.93 11.34
5/4/2023 5:30:00 AM 8.27 46.886 0.095 7.07 11.08 11.35
5/4/2023 5:45:00 AM 8.25 46.85 0.095 7.08 10.89 11.35
5/4/2023 6:00:00 AM 8.24 46.832 0.095 7.07 11.05 11.36
5/4/2023 6:15:00 AM 8.23 46.814 0.096 7.08 11.17 11.37
5/4/2023 6:30:00 AM 8.22 46.796 0.096 7.07 11.38 11.37
5/4/2023 6:45:00 AM 8.21 46.778 0.096 7.09 10.89 11.38
5/4/2023 7:00:00 AM 8.22 46.796 0.096 7 10.36 11.38
5/4/2023 7:15:00 AM 8.23 46.814 0.096 7.09 10.87 11.39
5/4/2023 7:30:00 AM 8.24 46.832 0.096 7.09 11.74 11.4
5/4/2023 7:45:00 AM 8.25 46.85 0.096 7.09 10.38 11.4
5/4/2023 8:00:00 AM 8.26 46.868 0.096 7 10.44 11.41
5/4/2023 8:15:00 AM 8.28 46.904 0.096 7.03 10.05 11.41
5/4/2023 8:30:00 AM 8.3 46.94 0.097 7.1 10.22 11.41
5/4/2023 8:45:00 AM 8.33 46.994 0.097 7.11 11.41 11.41
5/4/2023 9:00:00 AM 8.37 47.066 0.097 7.11 10.17 11.41
5/4/2023 9:15:00 AM 8.43 47.174 0.097 7.11 10.54 11.41
5/4/2023 9:30:00 AM 8.49 47.282 0.097 7.11 9.89 11.4
5/4/2023 9:45:00 AM 8.58 47.444 0.097 7.02 9.87 11.39
5/4/2023 10:00:00 AM 8.68 47.624 0.097 7.13 10.16 11.38
5/4/2023 10:15:00 AM 8.78 47.804 0.097 7.12 10.14 11.37
5/4/2023 10:30:00 AM 8.9 48.02 0.097 7.13 9.24 11.35
5/4/2023 10:45:00 AM 8.99 48.182 0.098 7.13 9.74 11.33
5/4/2023 11:00:00 AM 9.09 48.362 0.098 7.14 9.21 11.31
5/4/2023 11:15:00 AM 9.17 48.506 0.098 7.13 9.23 11.29
5/4/2023 11:30:00 AM 9.25 48.65 0.098 7.14 9.1 11.27
5/4/2023 11:45:00 AM 9.34 48.812 0.098 7.14 8.95 11.25
5/4/2023 12:00:00 PM 9.42 48.956 0.098 7.15 9.25 11.23
5/4/2023 12:15:00 PM 9.54 49.172 0.098 7.15 8.71 11.21
5/4/2023 12:30:00 PM 9.67 49.406 0.098 7.15 9.19 11.19
5/4/2023 12:45:00 PM 9.85 49.73 0.098 7.15 9.22 11.15
5/4/2023 1:00:00 PM 10.09 50.162 0.098 7.16 8.87 11.1
5/4/2023 1:15:00 PM 10.08 50.144 0.098 7.16 9.17 11.07
5/4/2023 1:30:00 PM 10.09 50.162 0.099 7.16 9.32 11.06
5/4/2023 1:45:00 PM 10.14 50.252 0.099 7.17 8.84 11.05
5/4/2023 2:00:00 PM 10.39 50.702 0.099 7.16 8.81 11.04
5/4/2023 2:15:00 PM 10.68 51.224 0.099 7.16 9.16 10.98
5/4/2023 2:30:00 PM 10.91 51.638 0.099 7.17 8.61 10.93
5/4/2023 2:45:00 PM 11.11 51.998 0.099 7.17 9.03 10.89
5/4/2023 3:00:00 PM 11.24 52.232 0.099 7.17 8.37 10.84
5/4/2023 3:15:00 PM 11.38 52.484 0.099 7.08 9.02 10.8
5/4/2023 3:30:00 PM 11.38 52.484 0.099 7.19 8.73 10.78
5/4/2023 3:45:00 PM 11.37 52.466 0.099 7.11 8.33 10.76
5/4/2023 4:00:00 PM 11.67 53.006 0.099 7.19 8.9 10.74
5/4/2023 4:15:00 PM 11.93 53.474 0.1 7.18 8.52 10.67
5/4/2023 4:30:00 PM 12.13 53.834 0.1 7.2 8.74 10.63
5/4/2023 4:45:00 PM 12.19 53.942 0.1 7.2 8.05 10.59
5/4/2023 5:00:00 PM 12.09 53.762 0.1 7.2 8.16 10.56
5/4/2023 5:15:00 PM 11.91 53.438 0.1 7.2 8.67 10.56
5/4/2023 5:30:00 PM 11.79 53.222 0.099 7.21 8.64 10.56
5/4/2023 5:45:00 PM 11.7 53.06 0.099 7.21 8.67 10.56
5/4/2023 6:00:00 PM 11.65 52.97 0.1 7.2 8.81 10.57
5/4/2023 6:15:00 PM 11.57 52.826 0.1 7.2 8.45 10.57
5/4/2023 6:30:00 PM 11.51 52.718 0.1 7.16 8.85 10.57
5/4/2023 6:45:00 PM 11.45 52.61 0.1 7.19 8.53 10.57
5/4/2023 7:00:00 PM 11.38 52.484 0.1 7.19 8.75 10.58
5/4/2023 7:15:00 PM 11.31 52.358 0.1 7.19 8.3 10.59
5/4/2023 7:30:00 PM 11.23 52.214 0.101 7.18 8 10.61
5/4/2023 7:45:00 PM 11.16 52.088 0.101 7.17 8.33 10.62
5/4/2023 8:00:00 PM 11.07 51.926 0.101 7.18 8.37 10.63
5/4/2023 8:15:00 PM 10.98 51.764 0.101 7.17 8.2 10.65
5/4/2023 8:30:00 PM 10.89 51.602 0.101 7.17 8.26 10.67
5/4/2023 8:45:00 PM 10.8 51.44 0.101 7.17 8.13 10.68
5/4/2023 9:00:00 PM 10.69 51.242 0.101 7.17 8.31 10.7
5/4/2023 9:15:00 PM 10.6 51.08 0.101 7.15 8.25 10.72
5/4/2023 9:30:00 PM 10.51 50.918 0.101 7.16 7.91 10.75
5/4/2023 9:45:00 PM 10.42 50.756 0.101 7.15 8.5 10.77
5/4/2023 10:00:00 PM 10.33 50.594 0.101 7.15 8.24 10.79
5/4/2023 10:15:00 PM 10.23 50.414 0.101 7.15 8.58 10.81
5/4/2023 10:30:00 PM 10.14 50.252 0.101 7.14 8.71 10.83
5/4/2023 10:45:00 PM 10.06 50.108 0.101 7.13 9.07 10.85
5/4/2023 11:00:00 PM 10 50 0.101 7.13 8.77 10.87
5/4/2023 11:15:00 PM 9.96 49.928 0.101 7.13 8.38 10.88
5/4/2023 11:30:00 PM 9.92 49.856 0.101 7.13 8.48 10.9
5/4/2023 11:45:00 PM 9.87 49.766 0.101 7.08 8.28 10.92
5/5/2023 12:00:00 AM 9.79 49.622 0.101 7.11 8.88 10.93
5/5/2023 12:15:00 AM 9.72 49.496 0.101 7.11 8.55 10.96
5/5/2023 12:30:00 AM 9.64 49.352 0.101 7.07 8.83 10.98
5/5/2023 12:45:00 AM 9.57 49.226 0.101 7.1 8.28 11
5/5/2023 1:00:00 AM 9.52 49.136 0.101 7.1 8.43 11.02
5/5/2023 1:15:00 AM 9.47 49.046 0.101 7.1 8.24 11.03
5/5/2023 1:30:00 AM 9.42 48.956 0.101 7.1 8.32 11.05
5/5/2023 1:45:00 AM 9.37 48.866 0.101 7.1 9.06 11.07
5/5/2023 2:00:00 AM 9.32 48.776 0.102 7.06 8.72 11.08
5/5/2023 2:15:00 AM 9.27 48.686 0.102 7.09 8.02 11.1
5/5/2023 2:30:00 AM 9.22 48.596 0.102 7.08 8.05 11.11
5/5/2023 2:45:00 AM 9.18 48.524 0.102 7.08 7.97 11.13
5/5/2023 3:00:00 AM 9.14 48.452 0.102 6.98 8.07 11.14
5/5/2023 3:15:00 AM 9.1 48.38 0.102 7 7.43 11.15
5/5/2023 3:30:00 AM 9.06 48.308 0.102 7.08 7.75 11.17
5/5/2023 3:45:00 AM 9.01 48.218 0.102 7.08 7.53 11.18
5/5/2023 4:00:00 AM 8.96 48.128 0.102 7.06 7.65 11.19
5/5/2023 4:15:00 AM 8.92 48.056 0.102 7.07 8.11 11.21
5/5/2023 4:30:00 AM 8.88 47.984 0.102 7.08 7.78 11.22
5/5/2023 4:45:00 AM 8.84 47.912 0.102 7.07 8.05 11.23
5/5/2023 5:00:00 AM 8.81 47.858 0.103 7.07 7.97 11.25
5/5/2023 5:15:00 AM 8.77 47.786 0.103 7.07 7.71 11.26
5/5/2023 5:30:00 AM 8.74 47.732 0.103 7.07 7.77 11.26
5/5/2023 5:45:00 AM 8.72 47.696 0.103 7.06 7.57 11.27
5/5/2023 6:00:00 AM 8.69 47.642 0.103 7.07 7.37 11.28
5/5/2023 6:15:00 AM 8.66 47.588 0.103 7.07 7.68 11.29
5/5/2023 6:30:00 AM 8.64 47.552 0.103 7.07 7.23 11.3
5/5/2023 6:45:00 AM 8.62 47.516 0.103 7.07 7.2 11.31
5/5/2023 7:00:00 AM 8.62 47.516 0.103 7.08 7.24 11.33
5/5/2023 7:15:00 AM 8.62 47.516 0.103 7.08 7.25 11.34
5/5/2023 7:30:00 AM 8.64 47.552 0.103 7.08 7.34 11.35
5/5/2023 7:45:00 AM 8.67 47.606 0.103 7.09 7.21 11.36
5/5/2023 8:00:00 AM 8.68 47.624 0.103 7.09 6.92 11.36
5/5/2023 8:15:00 AM 8.71 47.678 0.103 7.08 7.2 11.36
5/5/2023 8:30:00 AM 8.72 47.696 0.103 7.1 7.15 11.37
5/5/2023 8:45:00 AM 8.76 47.768 0.103 7.1 6.73 11.38
5/5/2023 9:00:00 AM 8.84 47.912 0.103 7.09 6.88 11.38
5/5/2023 9:15:00 AM 8.95 48.11 0.103 7.11 6.84 11.38
5/5/2023 9:30:00 AM 9.12 48.416 0.103 7.11 6.32 11.36
5/5/2023 9:45:00 AM 9.3 48.74 0.103 7.12 6.63 11.32
5/5/2023 10:00:00 AM 9.39 48.902 0.103 7.13 6.35 11.3
5/5/2023 10:15:00 AM 9.41 48.938 0.103 7.13 6.38 11.29
5/5/2023 10:30:00 AM 9.42 48.956 0.103 7.14 6.31 11.28
5/5/2023 10:45:00 AM 9.43 48.974 0.103 7.14 6.62 11.27
5/5/2023 11:00:00 AM 9.47 49.046 0.103 7.14 6.24 11.26
5/5/2023 11:15:00 AM 9.53 49.154 0.103 7.15 6.16 11.26
5/5/2023 11:30:00 AM 9.59 49.262 0.103 7.1 6.46 11.25
5/5/2023 11:45:00 AM 9.69 49.442 0.103 7.14 6.24 11.23
5/5/2023 12:00:00 PM 9.78 49.604 0.103 7.15 6.35 11.21
5/5/2023 12:15:00 PM 9.86 49.748 0.103 7.16 6.4 11.2
5/5/2023 12:30:00 PM 9.92 49.856 0.103 7.16 6.28 11.18
5/5/2023 12:45:00 PM 10.01 50.018 0.103 7.16 6.48 11.15
5/5/2023 1:00:00 PM 10.1 50.18 0.103 7.16 6.38 11.13
5/5/2023 1:15:00 PM 10.17 50.306 0.103 7.16 7.03 11.1
5/5/2023 1:30:00 PM 10.25 50.45 0.104 7.17 7.11 11.08
5/5/2023 1:45:00 PM 10.39 50.702 0.105 7.16 6.91 11.05
5/5/2023 2:00:00 PM 10.58 51.044 0.106 7.13 6.7 11.01
5/5/2023 2:15:00 PM 10.71 51.278 0.107 7.17 6.85 10.97
5/5/2023 2:30:00 PM 10.77 51.386 0.107 7.18 7.03 10.94
5/5/2023 2:45:00 PM 10.81 51.458 0.107 7.18 6.45 10.92
5/5/2023 3:00:00 PM 10.94 51.692 0.107 7.18 6.55 10.91
5/5/2023 3:15:00 PM 11.1 51.98 0.107 7.18 6.21 10.87
5/5/2023 3:30:00 PM 11.3 52.34 0.107 7.18 5.82 10.84
5/5/2023 3:45:00 PM 11.48 52.664 0.107 7.18 5.96 10.81
5/5/2023 4:00:00 PM 11.62 52.916 0.107 7.18 5.75 10.77
5/5/2023 4:15:00 PM 11.82 53.276 0.106 7.19 6.06 10.73
5/5/2023 4:30:00 PM 12.09 53.762 0.106 7.17 6.19 10.68
5/5/2023 4:45:00 PM 12.26 54.068 0.106 7.18 6.06 10.63
5/5/2023 5:00:00 PM 12.35 54.23 0.106 7.16 5.93 10.59
5/5/2023 5:15:00 PM 12.55 54.59 0.106 7.19 5.82 10.54
5/5/2023 5:30:00 PM 12.63 54.734 0.106 7.2 5.7 10.5
5/5/2023 5:45:00 PM 12.63 54.734 0.106 7.2 5.77 10.48
5/5/2023 6:00:00 PM 12.57 54.626 0.106 7.2 6.01 10.46
5/5/2023 6:15:00 PM 12.49 54.482 0.106 7.19 5.75 10.46
5/5/2023 6:30:00 PM 12.41 54.338 0.106 7.19 5.89 10.46
5/5/2023 6:45:00 PM 12.33 54.194 0.106 7.13 6.67 10.46
5/5/2023 7:00:00 PM 12.23 54.014 0.106 7.19 5.89 10.46
5/5/2023 7:15:00 PM 12.11 53.798 0.106 7.19 6.03 10.47
5/5/2023 7:30:00 PM 11.98 53.564 0.106 7.18 7.48 10.47
5/5/2023 7:45:00 PM 11.86 53.348 0.106 7.18 6.04 10.48
5/5/2023 8:00:00 PM 11.75 53.15 0.106 7.17 5.97 10.5
5/5/2023 8:15:00 PM 11.66 52.988 0.106 7.18 6.03 10.51
5/5/2023 8:30:00 PM 11.57 52.826 0.106 7.17 5.82 10.52
5/5/2023 8:45:00 PM 11.5 52.7 0.106 7.15 5.73 10.53
5/5/2023 9:00:00 PM 11.43 52.574 0.107 7.14 5.8 10.54
5/5/2023 9:15:00 PM 11.35 52.43 0.107 7.16 5.99 10.55
5/5/2023 9:30:00 PM 11.28 52.304 0.107 7.15 5.81 10.57
5/5/2023 9:45:00 PM 11.2 52.16 0.107 7.14 5.99 10.58
5/5/2023 10:00:00 PM 11.12 52.016 0.107 7.14 6.54 10.6
5/5/2023 10:15:00 PM 11.03 51.854 0.107 7.13 5.92 10.62
5/5/2023 10:30:00 PM 10.93 51.674 0.107 7.06 6.14 10.64
5/5/2023 10:45:00 PM 10.84 51.512 0.107 7.11 5.7 10.66
5/5/2023 11:00:00 PM 10.73 51.314 0.107 7.14 5.71 10.68
5/5/2023 11:15:00 PM 10.64 51.152 0.107 7.13 5.57 10.7
5/5/2023 11:30:00 PM 10.54 50.972 0.107 7.13 5.71 10.72
5/5/2023 11:45:00 PM 10.44 50.792 0.107 7.12 5.61 10.75
5/6/2023 12:00:00 AM 10.34 50.612 0.108 7.12 5.67 10.77
5/6/2023 12:15:00 AM 10.26 50.468 0.108 7.11 5.59 10.8
5/6/2023 12:30:00 AM 10.17 50.306 0.108 7.12 5.49 10.82
5/6/2023 12:45:00 AM 10.09 50.162 0.108 7.12 5.59 10.84
5/6/2023 1:00:00 AM 10.01 50.018 0.108 7.08 5.81 10.85
5/6/2023 1:15:00 AM 9.93 49.874 0.108 7.04 5.52 10.87
5/6/2023 1:30:00 AM 9.85 49.73 0.108 7.11 5.61 10.9
5/6/2023 1:45:00 AM 9.78 49.604 0.108 7.1 5.97 10.91
5/6/2023 2:00:00 AM 9.71 49.478 0.108 7.1 5.85 10.94
5/6/2023 2:15:00 AM 9.63 49.334 0.108 7.09 5.68 10.96
5/6/2023 2:30:00 AM 9.56 49.208 0.108 7.1 5.75 10.98
5/6/2023 2:45:00 AM 9.49 49.082 0.108 7.09 5.7 11
5/6/2023 3:00:00 AM 9.41 48.938 0.108 7.08 5.5 11.01
5/6/2023 3:15:00 AM 9.34 48.812 0.108 7.08 5.5 11.03
5/6/2023 3:30:00 AM 9.26 48.668 0.108 7.07 5.62 11.06
5/6/2023 3:45:00 AM 9.19 48.542 0.108 7.07 5.4 11.08
5/6/2023 4:00:00 AM 9.11 48.398 0.109 7.06 5.38 11.1
5/6/2023 4:15:00 AM 9.04 48.272 0.109 7.06 5.45 11.12
5/6/2023 4:30:00 AM 8.98 48.164 0.103 7 6.29 11.15
5/6/2023 4:45:00 AM 8.9 48.02 0.109 7.06 5.36 11.17
5/6/2023 5:00:00 AM 8.82 47.876 0.109 7.06 5.04 11.19
5/6/2023 5:15:00 AM 8.74 47.732 0.109 7.06 5.24 11.2
5/6/2023 5:30:00 AM 8.67 47.606 0.109 7.06 5.26 11.23
5/6/2023 5:45:00 AM 8.59 47.462 0.109 7.05 5.27 11.25
5/6/2023 6:00:00 AM 8.54 47.372 0.109 7.05 5.31 11.27
5/6/2023 6:15:00 AM 8.48 47.264 0.109 7.04 5.2 11.3
5/6/2023 6:30:00 AM 8.41 47.138 0.109 7.05 5.07 11.32
5/6/2023 6:45:00 AM 8.38 47.084 0.109 7.05 5.55 11.35
5/6/2023 7:00:00 AM 8.36 47.048 0.109 7.06 5.07 11.38
5/6/2023 7:15:00 AM 8.34 47.012 0.109 7.06 5.17 11.4
5/6/2023 7:30:00 AM 8.33 46.994 0.109 7.03 5.28 11.42
5/6/2023 7:45:00 AM 8.35 47.03 0.11 7.06 4.72 11.44
5/6/2023 8:00:00 AM 8.37 47.066 0.109 7.08 4.91 11.45
5/6/2023 8:15:00 AM 8.41 47.138 0.11 7.08 4.83 11.46
5/6/2023 8:30:00 AM 8.48 47.264 0.11 7.09 4.67 11.46
5/6/2023 8:45:00 AM 8.58 47.444 0.11 7.1 4.58 11.46
5/6/2023 9:00:00 AM 8.69 47.642 0.11 7.1 4.86 11.45
5/6/2023 9:15:00 AM 8.85 47.93 0.11 7.11 4.86 11.44
5/6/2023 9:30:00 AM 9.03 48.254 0.11 7.02 4.79 11.42
5/6/2023 9:45:00 AM 9.21 48.578 0.11 7.12 4.87 11.39
5/6/2023 10:00:00 AM 9.42 48.956 0.11 7.13 4.77 11.36
5/6/2023 10:15:00 AM 9.65 49.37 0.11 7.13 4.74 11.32
5/6/2023 10:30:00 AM 9.89 49.802 0.11 7.14 4.66 11.27
5/6/2023 10:45:00 AM 10.17 50.306 0.11 7.14 4.39 11.21
5/6/2023 11:00:00 AM 10.45 50.81 0.11 7.15 5.01 11.16
5/6/2023 11:15:00 AM 10.77 51.386 0.11 7.16 4.83 11.08
5/6/2023 11:30:00 AM 11.1 51.98 0.11 7.15 4.96 11.02
5/6/2023 11:45:00 AM 11.38 52.484 0.11 7.16 4.8 10.93
5/6/2023 12:00:00 PM 11.74 53.132 0.11 7.16 4.66 10.87
5/6/2023 12:15:00 PM 11.91 53.438 0.11 7.17 5.05 10.8
5/6/2023 12:30:00 PM 12.13 53.834 0.11 7.18 4.83 10.73
5/6/2023 12:45:00 PM 12.53 54.554 0.11 7.17 5.85 10.66
5/6/2023 1:00:00 PM 12.79 55.022 0.11 7.19 4.77 10.57
5/6/2023 1:15:00 PM 12.87 55.166 0.11 7.2 4.75 10.52
5/6/2023 1:30:00 PM 12.97 55.346 0.11 7.21 4.86 10.5
5/6/2023 1:45:00 PM 13.23 55.814 0.11 7.21 4.38 10.42
5/6/2023 2:00:00 PM 13.46 56.228 0.11 7.21 4.52 10.38
5/6/2023 2:15:00 PM 13.52 56.336 0.11 7.19 5.83 10.32
5/6/2023 2:30:00 PM 13.75 56.75 0.11 7.22 4.82 10.28
5/6/2023 2:45:00 PM 13.93 57.074 0.11 7.22 4.77 10.25
5/6/2023 3:00:00 PM 13.98 57.164 0.111 7.22 4.9 10.2
5/6/2023 3:15:00 PM 14.33 57.794 0.111 7.15 4.56 10.15
5/6/2023 3:30:00 PM 14.55 58.19 0.111 7.24 4.45 10.1
5/6/2023 3:45:00 PM 14.7 58.46 0.111 7.23 4.53 10.04
5/6/2023 4:00:00 PM 14.65 58.37 0.111 7.18 6.08 10.02
5/6/2023 4:15:00 PM 14.62 58.316 0.111 7.23 4.47 10.02
5/6/2023 4:30:00 PM 14.59 58.262 0.111 7.23 4.06 10.02
5/6/2023 4:45:00 PM 14.67 58.406 0.111 7.18 5.35 10
5/6/2023 5:00:00 PM 14.7 58.46 0.111 7.23 4.34 9.97
5/6/2023 5:15:00 PM 14.65 58.37 0.111 7.23 4.41 9.96
5/6/2023 5:30:00 PM 14.6 58.28 0.111 7.24 4.36 9.96
5/6/2023 5:45:00 PM 14.52 58.136 0.111 7.24 4.12 9.96
5/6/2023 6:00:00 PM 14.4 57.92 0.111 7.23 4.37 9.96
5/6/2023 6:15:00 PM 14.26 57.668 0.111 7.22 4.28 9.98
5/6/2023 6:30:00 PM 14.12 57.416 0.112 7.23 4.39 9.98
5/6/2023 6:45:00 PM 13.96 57.128 0.112 7.18 5.29 9.99
5/6/2023 7:00:00 PM 13.81 56.858 0.112 7.22 4.21 10
5/6/2023 7:15:00 PM 13.67 56.606 0.112 7.22 4.27 10.02
5/6/2023 7:30:00 PM 13.53 56.354 0.112 7.21 4.32 10.03
5/6/2023 7:45:00 PM 13.39 56.102 0.112 7.15 5.18 10.04
5/6/2023 8:00:00 PM 13.26 55.868 0.112 7.2 4.3 10.05
5/6/2023 8:15:00 PM 13.13 55.634 0.112 7.16 5.82 10.06
5/6/2023 8:30:00 PM 13 55.4 0.112 7.16 6.24 10.08
5/6/2023 8:45:00 PM 12.88 55.184 0.112 7.18 5.63 10.09
5/6/2023 9:00:00 PM 12.76 54.968 0.112 7.17 5.63 10.1
5/6/2023 9:15:00 PM 12.65 54.77 0.112 7.09 5.68 10.12
5/6/2023 9:30:00 PM 12.54 54.572 0.112 7.17 5.32 10.14
5/6/2023 9:45:00 PM 12.43 54.374 0.113 7.16 5.1 10.16
5/6/2023 10:00:00 PM 12.33 54.194 0.113 7.15 5.12 10.18
5/6/2023 10:15:00 PM 12.22 53.996 0.113 7.15 4.9 10.2
5/6/2023 10:30:00 PM 12.12 53.816 0.113 7.15 4.79 10.22
5/6/2023 10:45:00 PM 12.02 53.636 0.113 7.15 4.9 10.24
5/6/2023 11:00:00 PM 11.92 53.456 0.113 7.14 4.94 10.26
5/6/2023 11:15:00 PM 11.82 53.276 0.113 7.13 4.6 10.28
5/6/2023 11:30:00 PM 11.72 53.096 0.113 7.14 4.58 10.31
5/6/2023 11:45:00 PM 11.62 52.916 0.113 7.14 4.48 10.34
5/7/2023 12:00:00 AM 11.53 52.754 0.113 7.14 4.68 10.36
5/7/2023 12:15:00 AM 11.43 52.574 0.113 7.13 4.67 10.38
5/7/2023 12:30:00 AM 11.34 52.412 0.114 7.13 4.36 10.39
5/7/2023 12:45:00 AM 11.25 52.25 0.114 7.12 4.49 10.42
5/7/2023 1:00:00 AM 11.16 52.088 0.114 7.11 4.48 10.44
5/7/2023 1:15:00 AM 11.07 51.926 0.114 7.12 4.32 10.46
5/7/2023 1:30:00 AM 10.99 51.782 0.114 7.05 4.54 10.49
5/7/2023 1:45:00 AM 10.91 51.638 0.114 7.11 4.37 10.51
5/7/2023 2:00:00 AM 10.83 51.494 0.114 7.11 4.4 10.52
5/7/2023 2:15:00 AM 10.74 51.332 0.114 7.1 4.45 10.55
5/7/2023 2:30:00 AM 10.66 51.188 0.114 7.08 4.17 10.56
5/7/2023 2:45:00 AM 10.58 51.044 0.114 7.1 4.13 10.58
5/7/2023 3:00:00 AM 10.5 50.9 0.114 7.1 4.3 10.61
5/7/2023 3:15:00 AM 10.42 50.756 0.114 7.09 4.27 10.63
5/7/2023 3:30:00 AM 10.34 50.612 0.114 7.09 4.23 10.66
5/7/2023 3:45:00 AM 10.25 50.45 0.114 7.08 4.3 10.68
5/7/2023 4:00:00 AM 10.17 50.306 0.114 7.08 4.18 10.7
5/7/2023 4:15:00 AM 10.09 50.162 0.114 7.07 3.93 10.71
5/7/2023 4:30:00 AM 10 50 0.115 7.01 4.07 10.73
5/7/2023 4:45:00 AM 9.92 49.856 0.115 7.08 4.05 10.75
5/7/2023 5:00:00 AM 9.84 49.712 0.115 7.07 4.31 10.77
5/7/2023 5:15:00 AM 9.76 49.568 0.115 7.07 3.95 10.79
5/7/2023 5:30:00 AM 9.68 49.424 0.115 7.07 3.85 10.82
5/7/2023 5:45:00 AM 9.61 49.298 0.115 7.06 3.82 10.85
5/7/2023 6:00:00 AM 9.53 49.154 0.115 7.06 3.72 10.86
5/7/2023 6:15:00 AM 9.46 49.028 0.115 7.06 4.34 10.88
5/7/2023 6:30:00 AM 9.4 48.92 0.115 7.06 3.64 10.91
5/7/2023 6:45:00 AM 9.34 48.812 0.115 7.07 3.75 10.94
5/7/2023 7:00:00 AM 9.31 48.758 0.115 7.07 3.91 10.96
5/7/2023 7:15:00 AM 9.29 48.722 0.115 7.07 3.94 10.99
5/7/2023 7:30:00 AM 9.29 48.722 0.115 7.07 3.92 11.01
5/7/2023 7:45:00 AM 9.31 48.758 0.115 7.08 3.84 11.03
5/7/2023 8:00:00 AM 9.34 48.812 0.115 7.08 3.73 11.04
5/7/2023 8:15:00 AM 9.39 48.902 0.115 7.09 3.88 11.05
5/7/2023 8:30:00 AM 9.46 49.028 0.115 7.1 3.95 11.06
5/7/2023 8:45:00 AM 9.55 49.19 0.115 7.1 3.78 11.07
5/7/2023 9:00:00 AM 9.68 49.424 0.115 7.11 3.94 11.06
5/7/2023 9:15:00 AM 9.83 49.694 0.115 7.11 3.45 11.05
5/7/2023 9:30:00 AM 10 50 0.116 7.12 3.5 11.03
5/7/2023 9:45:00 AM 10.19 50.342 0.116 7.13 3.62 11.01
5/7/2023 10:00:00 AM 10.36 50.648 0.116 7.14 3.52 10.98
5/7/2023 10:15:00 AM 10.56 51.008 0.116 7.14 3.53 10.95
5/7/2023 10:30:00 AM 10.77 51.386 0.116 7.14 3.36 10.92
5/7/2023 10:45:00 AM 10.99 51.782 0.116 7.15 3.52 10.88
5/7/2023 11:00:00 AM 11.23 52.214 0.116 7.15 3.58 10.83
5/7/2023 11:15:00 AM 11.47 52.646 0.116 7.17 3.27 10.79
5/7/2023 11:30:00 AM 11.78 53.204 0.116 7.16 3.56 10.72
5/7/2023 11:45:00 AM 12.08 53.744 0.116 7.16 4.48 10.66
5/7/2023 12:00:00 PM 12.41 54.338 0.116 7.18 3.14 10.59
5/7/2023 12:15:00 PM 12.75 54.95 0.116 7.18 3.39 10.51
5/7/2023 12:30:00 PM 13.09 55.562 0.116 7.17 4.61 10.45
5/7/2023 12:45:00 PM 13.43 56.174 0.116 7.2 3.33 10.35
5/7/2023 1:00:00 PM 13.76 56.768 0.116 7.21 3.2 10.29
5/7/2023 1:15:00 PM 14.07 57.326 0.116 7.22 3.12 10.21
5/7/2023 1:30:00 PM 14.37 57.866 0.116 7.22 3.55 10.14
5/7/2023 1:45:00 PM 14.59 58.262 0.116 7.21 3.38 10.07
5/7/2023 2:00:00 PM 14.86 58.748 0.116 7.22 3.53 10.02
5/7/2023 2:15:00 PM 15.11 59.198 0.116 7.23 3.42 9.95
5/7/2023 2:30:00 PM 15.19 59.342 0.116 7.23 3.19 9.89
5/7/2023 2:45:00 PM 15.24 59.432 0.116 7.22 3.47 9.85
5/7/2023 3:00:00 PM 15.21 59.378 0.116 7.23 3.35 9.82
5/7/2023 3:15:00 PM 15.12 59.216 0.116 7.18 3.49 9.81
5/7/2023 3:30:00 PM 15.07 59.126 0.116 7.2 4.21 9.81
5/7/2023 3:45:00 PM 15 59 0.116 7.24 3.51 9.81
5/7/2023 4:00:00 PM 14.91 58.838 0.116 7.23 3.4 9.8
5/7/2023 4:15:00 PM 14.82 58.676 0.116 7.23 3.51 9.8
5/7/2023 4:30:00 PM 14.69 58.442 0.116 7.23 3.34 9.78
5/7/2023 4:45:00 PM 14.57 58.226 0.116 7.22 3.3 9.78
5/7/2023 5:00:00 PM 14.45 58.01 0.116 7.22 3.31 9.78
5/7/2023 5:15:00 PM 14.33 57.794 0.116 7.21 3.41 9.79
5/7/2023 5:30:00 PM 14.21 57.578 0.116 7.21 3.09 9.8
5/7/2023 5:45:00 PM 14.1 57.38 0.116 7.15 4.49 9.82
5/7/2023 6:00:00 PM 14 57.2 0.116 7.21 3.48 9.82
5/7/2023 6:15:00 PM 13.9 57.02 0.116 7.2 3.18 9.83
5/7/2023 6:30:00 PM 13.82 56.876 0.116 7.19 4.69 9.84
5/7/2023 6:45:00 PM 13.75 56.75 0.116 7.2 3.29 9.85
5/7/2023 7:00:00 PM 13.67 56.606 0.117 7.19 3.24 9.85
5/7/2023 7:15:00 PM 13.6 56.48 0.117 7.19 3.44 9.86
5/7/2023 7:30:00 PM 13.52 56.336 0.117 7.18 3.19 9.85
5/7/2023 7:45:00 PM 13.45 56.21 0.117 7.18 3.26 9.86
5/7/2023 8:00:00 PM 13.38 56.084 0.117 7.17 3.22 9.86
5/7/2023 8:15:00 PM 13.32 55.976 0.116 7.18 3.32 9.86
5/7/2023 8:30:00 PM 13.25 55.85 0.116 7.17 3.39 9.87
5/7/2023 8:45:00 PM 13.19 55.742 0.116 7.16 3.64 9.88
5/7/2023 9:00:00 PM 13.13 55.634 0.116 7.16 3.53 9.87
5/7/2023 9:15:00 PM 13.08 55.544 0.116 7.16 3.21 9.89
5/7/2023 9:30:00 PM 13.03 55.454 0.116 7.16 3.42 9.9
5/7/2023 9:45:00 PM 12.97 55.346 0.117 7.15 3.52 9.91
5/7/2023 10:00:00 PM 12.92 55.256 0.117 7.13 4.44 9.92
5/7/2023 10:15:00 PM 12.87 55.166 0.117 7.15 3.53 9.93
5/7/2023 10:30:00 PM 12.82 55.076 0.117 7.15 3.6 9.94
5/7/2023 10:45:00 PM 12.77 54.986 0.117 7.15 3.92 9.95
5/7/2023 11:00:00 PM 12.72 54.896 0.116 7.15 4.74 9.97
5/7/2023 11:15:00 PM 12.68 54.824 0.116 7.15 4.95 9.98
5/7/2023 11:30:00 PM 12.64 54.752 0.116 7.15 4.79 9.98
5/7/2023 11:45:00 PM 12.61 54.698 0.116 7.14 4.88 9.99
5/8/2023 12:00:00 AM 12.57 54.626 0.117 7.14 4.72 10
5/8/2023 12:15:00 AM 12.55 54.59 0.116 7.14 4.78 10
5/8/2023 12:30:00 AM 12.52 54.536 0.116 7.14 4.51 10.01
5/8/2023 12:45:00 AM 12.5 54.5 0.117 7.14 4.59 10.01
5/8/2023 1:00:00 AM 12.48 54.464 0.117 7.14 4.98 10.01
5/8/2023 1:15:00 AM 12.47 54.446 0.117 7.12 5.55 10.02
5/8/2023 1:30:00 AM 12.45 54.41 0.117 7.13 5.12 10.03
5/8/2023 1:45:00 AM 12.42 54.356 0.118 7.13 5.74 10.04
5/8/2023 2:00:00 AM 12.4 54.32 0.118 7.12 7.27 10.05
5/8/2023 2:15:00 AM 12.38 54.284 0.118 7.14 6.64 10.07
5/8/2023 2:30:00 AM 12.35 54.23 0.118 7.15 6.96 10.08
5/8/2023 2:45:00 AM 12.32 54.176 0.117 7.15 7.22 10.1
5/8/2023 3:00:00 AM 12.29 54.122 0.117 7.16 6.99 10.12
5/8/2023 3:15:00 AM 12.24 54.032 0.117 7.16 6.49 10.14
5/8/2023 3:30:00 AM 12.2 53.96 0.117 7.16 6.51 10.15
5/8/2023 3:45:00 AM 12.15 53.87 0.117 7.16 6.64 10.17
5/8/2023 4:00:00 AM 12.1 53.78 0.117 7.15 7.11 10.18
5/8/2023 4:15:00 AM 12.04 53.672 0.117 7.17 6.72 10.19
5/8/2023 4:30:00 AM 11.99 53.582 0.117 7.16 7.49 10.2
5/8/2023 4:45:00 AM 11.95 53.51 0.116 7.16 7.33 10.22
5/8/2023 5:00:00 AM 11.9 53.42 0.116 7.15 7.67 10.23
5/8/2023 5:15:00 AM 11.84 53.312 0.116 7.17 7.38 10.25
5/8/2023 5:30:00 AM 11.77 53.186 0.115 7.15 7.5 10.26
5/8/2023 5:45:00 AM 11.7 53.06 0.115 7.16 7.1 10.28
5/8/2023 6:00:00 AM 11.63 52.934 0.115 7.15 7.05 10.3
5/8/2023 6:15:00 AM 11.56 52.808 0.114 7.14 6.69 10.32
5/8/2023 6:30:00 AM 11.51 52.718 0.114 7.15 6.11 10.35
5/8/2023 6:45:00 AM 11.48 52.664 0.114 7.15 6.72 10.37
5/8/2023 7:00:00 AM 11.46 52.628 0.114 7.15 6.13 10.4
5/8/2023 7:15:00 AM 11.46 52.628 0.114 7.16 6.09 10.42
5/8/2023 7:30:00 AM 11.47 52.646 0.114 7.16 6.16 10.44
5/8/2023 7:45:00 AM 11.49 52.682 0.114 7.16 6.24 10.47
5/8/2023 8:00:00 AM 11.5 52.7 0.114 7.17 5.65 10.48
5/8/2023 8:15:00 AM 11.52 52.736 0.114 7.16 5.7 10.5
5/8/2023 8:30:00 AM 11.58 52.844 0.114 7.17 5.85 10.51
5/8/2023 8:45:00 AM 11.67 53.006 0.114 7.18 5.55 10.51
5/8/2023 9:00:00 AM 11.8 53.24 0.114 7.18 5.55 10.5
5/8/2023 9:15:00 AM 11.94 53.492 0.114 7.18 5.14 10.5
5/8/2023 9:30:00 AM 12.04 53.672 0.114 7.19 5.08 10.49
5/8/2023 9:45:00 AM 12.06 53.708 0.113 7.19 5.11 10.48
5/8/2023 10:00:00 AM 12.22 53.996 0.114 7.2 4.91 10.48
5/8/2023 10:15:00 AM 12.51 54.518 0.113 7.15 5.95 10.44
5/8/2023 10:30:00 AM 12.73 54.914 0.113 7.15 5.77 10.4
5/8/2023 10:45:00 AM 13 55.4 0.114 7.21 4.69 10.38
5/8/2023 11:00:00 AM 13.25 55.85 0.114 7.18 5.64 10.33
5/8/2023 11:15:00 AM 13.52 56.336 0.114 7.21 4.75 10.29
5/8/2023 11:30:00 AM 13.77 56.786 0.114 7.21 4.68 10.24
5/8/2023 11:45:00 AM 14.02 57.236 0.114 7.22 4.4 10.18
5/8/2023 12:00:00 PM 14.25 57.65 0.114 7.18 5.62 10.15
5/8/2023 12:15:00 PM 14.51 58.118 0.114 7.22 4.55 10.09
5/8/2023 12:30:00 PM 14.76 58.568 0.114 7.23 4.62 10.04
5/8/2023 12:45:00 PM 15.05 59.09 0.114 7.23 4.17 9.98
5/8/2023 1:00:00 PM 15.32 59.576 0.114 7.24 4.4 9.92
5/8/2023 1:15:00 PM 15.52 59.936 0.114 7.24 4.32 9.87
5/8/2023 1:30:00 PM 15.74 60.332 0.114 7.21 5.1 9.83
5/8/2023 1:45:00 PM 15.92 60.656 0.115 7.25 4.02 9.78
5/8/2023 2:00:00 PM 16.12 61.016 0.115 7.25 4.19 9.74
5/8/2023 2:15:00 PM 16.29 61.322 0.115 7.23 4.95 9.7
5/8/2023 2:30:00 PM 16.43 61.574 0.115 7.25 3.91 9.67
5/8/2023 2:45:00 PM 16.54 61.772 0.115 7.25 4.05 9.62
5/8/2023 3:00:00 PM 16.57 61.826 0.115 7.25 4.06 9.59
5/8/2023 3:15:00 PM 16.66 61.988 0.115 7.25 3.85 9.57
5/8/2023 3:30:00 PM 16.75 62.15 0.115 7.23 4.95 9.55
5/8/2023 3:45:00 PM 16.79 62.222 0.115 7.25 3.89 9.52
5/8/2023 4:00:00 PM 16.84 62.312 0.115 7.24 6.11 9.52
5/8/2023 4:15:00 PM 16.87 62.366 0.115 7.26 4.79 9.49
5/8/2023 4:30:00 PM 16.89 62.402 0.115 7.26 4.28 9.48
5/8/2023 4:45:00 PM 16.85 62.33 0.115 7.25 4.21 9.47
5/8/2023 5:00:00 PM 16.8 62.24 0.115 7.22 4.41 9.45
5/8/2023 5:15:00 PM 16.73 62.114 0.115 7.23 5.05 9.45
5/8/2023 5:30:00 PM 16.64 61.952 0.116 7.19 4.94 9.45
5/8/2023 5:45:00 PM 16.51 61.718 0.116 7.26 4.42 9.45
5/8/2023 6:00:00 PM 16.36 61.448 0.116 7.25 4.21 9.46
5/8/2023 6:15:00 PM 16.21 61.178 0.116 7.2 3.98 9.46
5/8/2023 6:30:00 PM 16.02 60.836 0.116 7.24 3.78 9.45
5/8/2023 6:45:00 PM 15.86 60.548 0.116 7.24 3.82 9.46
5/8/2023 7:00:00 PM 15.68 60.224 0.116 7.24 3.81 9.49
5/8/2023 7:15:00 PM 15.49 59.882 0.116 7.2 4.95 9.5
5/8/2023 7:30:00 PM 15.31 59.558 0.116 7.19 4.85 9.5
5/8/2023 7:45:00 PM 15.14 59.252 0.116 7.22 4.09 9.52
5/8/2023 8:00:00 PM 14.97 58.946 0.116 7.21 3.6 9.54
5/8/2023 8:15:00 PM 14.81 58.658 0.117 7.2 3.77 9.54
5/8/2023 8:30:00 PM 14.66 58.388 0.117 7.18 4.64 9.54
5/8/2023 8:45:00 PM 14.52 58.136 0.117 7.19 3.66 9.55
5/8/2023 9:00:00 PM 14.38 57.884 0.117 7.15 5.06 9.57
5/8/2023 9:15:00 PM 14.25 57.65 0.117 7.17 4.1 9.59
5/8/2023 9:30:00 PM 14.14 57.452 0.117 7.16 3.49 9.61
5/8/2023 9:45:00 PM 14.03 57.254 0.117 7.16 3.48 9.62
5/8/2023 10:00:00 PM 13.92 57.056 0.117 7.14 4.92 9.64
5/8/2023 10:15:00 PM 13.81 56.858 0.118 7.16 3.7 9.66
5/8/2023 10:30:00 PM 13.69 56.642 0.118 7.15 3.66 9.69
5/8/2023 10:45:00 PM 13.58 56.444 0.118 7.15 3.66 9.71
5/8/2023 11:00:00 PM 13.47 56.246 0.118 7.13 5.47 9.73
5/8/2023 11:15:00 PM 13.35 56.03 0.118 7.13 4.7 9.75
5/8/2023 11:30:00 PM 13.23 55.814 0.118 7.13 3.51 9.77
5/8/2023 11:45:00 PM 13.12 55.616 0.118 7.13 3.64 9.8
5/9/2023 12:00:00 AM 13.01 55.418 0.118 7.13 3.62 9.83
5/9/2023 12:15:00 AM 12.92 55.256 0.119 7.13 3.62 9.86
5/9/2023 12:30:00 AM 12.82 55.076 0.119 7.13 3.43 9.87
5/9/2023 12:45:00 AM 12.72 54.896 0.119 7.13 3.48 9.9
5/9/2023 1:00:00 AM 12.62 54.716 0.119 7.12 3.53 9.91
5/9/2023 1:15:00 AM 12.51 54.518 0.119 7.11 3.87 9.93
5/9/2023 1:30:00 AM 12.41 54.338 0.119 7.1 3.69 9.96
5/9/2023 1:45:00 AM 12.31 54.158 0.119 7.11 3.81 9.99
5/9/2023 2:00:00 AM 12.21 53.978 0.119 7.1 3.5 10.01
5/9/2023 2:15:00 AM 12.11 53.798 0.119 7.09 3.35 10.03
5/9/2023 2:30:00 AM 12.02 53.636 0.119 7.08 3.26 10.05
5/9/2023 2:45:00 AM 11.93 53.474 0.119 7.08 3.55 10.07
5/9/2023 3:00:00 AM 11.85 53.33 0.119 7.08 3.39 10.09
5/9/2023 3:15:00 AM 11.78 53.204 0.12 7.08 3.49 10.11
5/9/2023 3:30:00 AM 11.71 53.078 0.12 7.08 3.47 10.13
5/9/2023 3:45:00 AM 11.64 52.952 0.12 7.08 3.18 10.15
5/9/2023 4:00:00 AM 11.57 52.826 0.12 7.08 3.09 10.17
5/9/2023 4:15:00 AM 11.51 52.718 0.12 7.08 3.07 10.18
5/9/2023 4:30:00 AM 11.45 52.61 0.12 7.07 3.12 10.2
5/9/2023 4:45:00 AM 11.39 52.502 0.12 7.07 3.1 10.21
5/9/2023 5:00:00 AM 11.33 52.394 0.12 7.07 3.1 10.23
5/9/2023 5:15:00 AM 11.27 52.286 0.12 7.07 2.93 10.25
5/9/2023 5:30:00 AM 11.21 52.178 0.12 7.07 3.08 10.26
5/9/2023 5:45:00 AM 11.16 52.088 0.12 7.07 2.99 10.28
5/9/2023 6:00:00 AM 11.11 51.998 0.12 7.07 3 10.29
5/9/2023 6:15:00 AM 11.06 51.908 0.121 7.07 3.03 10.32
5/9/2023 6:30:00 AM 11.02 51.836 0.121 7.07 3.31 10.34
5/9/2023 6:45:00 AM 10.99 51.782 0.121 7.08 3.16 10.37
5/9/2023 7:00:00 AM 10.97 51.746 0.121 7.08 3.04 10.41
5/9/2023 7:15:00 AM 10.96 51.728 0.121 7.08 2.83 10.45
5/9/2023 7:30:00 AM 10.97 51.746 0.121 7.09 3.04 10.49
5/9/2023 7:45:00 AM 11 51.8 0.121 7.1 3.1 10.52
5/9/2023 8:00:00 AM 11.01 51.818 0.121 7.11 2.84 10.55
5/9/2023 8:15:00 AM 11.06 51.908 0.121 7.12 2.81 10.57
5/9/2023 8:30:00 AM 11.13 52.034 0.121 7.12 2.78 10.59
5/9/2023 8:45:00 AM 11.2 52.16 0.121 7.13 2.8 10.59
5/9/2023 9:00:00 AM 11.31 52.358 0.121 7.14 2.68 10.6
5/9/2023 9:15:00 AM 11.44 52.592 0.121 7.15 2.78 10.61
5/9/2023 9:30:00 AM 11.61 52.898 0.121 7.17 2.73 10.6
5/9/2023 9:45:00 AM 11.79 53.222 0.121 7.17 2.75 10.58
5/9/2023 10:00:00 AM 12.01 53.618 0.121 7.17 2.72 10.55
5/9/2023 10:15:00 AM 12.22 53.996 0.121 7.18 2.59 10.53
5/9/2023 10:30:00 AM 12.45 54.41 0.121 7.19 2.64 10.49
5/9/2023 10:45:00 AM 12.68 54.824 0.121 7.19 2.67 10.45
5/9/2023 11:00:00 AM 12.9 55.22 0.121 7.21 2.73 10.43
5/9/2023 11:15:00 AM 13.13 55.634 0.122 7.21 2.54 10.39
5/9/2023 11:30:00 AM 13.36 56.048 0.122 7.2 3.73 10.34
5/9/2023 11:45:00 AM 13.59 56.462 0.122 7.23 2.69 10.3
5/9/2023 12:00:00 PM 13.8 56.84 0.122 7.23 2.64 10.25
5/9/2023 12:15:00 PM 13.98 57.164 0.122 7.24 2.82 10.22
5/9/2023 12:30:00 PM 14.21 57.578 0.122 7.24 2.55 10.17
5/9/2023 12:45:00 PM 14.47 58.046 0.122 7.24 2.69 10.12
5/9/2023 1:00:00 PM 14.76 58.568 0.122 7.25 2.7 10.07
5/9/2023 1:15:00 PM 15.04 59.072 0.122 7.25 2.87 10.01
5/9/2023 1:30:00 PM 15.28 59.504 0.122 7.26 2.71 9.96
5/9/2023 1:45:00 PM 15.5 59.9 0.122 7.25 2.74 9.9
5/9/2023 2:00:00 PM 15.72 60.296 0.122 7.24 3.93 9.86
5/9/2023 2:15:00 PM 15.88 60.584 0.122 7.27 2.63 9.81
5/9/2023 2:30:00 PM 16.02 60.836 0.122 7.26 2.67 9.77
5/9/2023 2:45:00 PM 16.11 60.998 0.122 7.25 4.12 9.74
5/9/2023 3:00:00 PM 16.19 61.142 0.122 7.25 3.89 9.72
5/9/2023 3:15:00 PM 16.24 61.232 0.122 7.27 2.77 9.7
5/9/2023 3:30:00 PM 16.28 61.304 0.123 7.26 3.75 9.69
5/9/2023 3:45:00 PM 16.28 61.304 0.123 7.27 2.6 9.66
5/9/2023 4:00:00 PM 16.3 61.34 0.123 7.25 3.63 9.66
5/9/2023 4:15:00 PM 16.27 61.286 0.123 7.27 2.63 9.65
5/9/2023 4:30:00 PM 16.24 61.232 0.123 7.28 2.64 9.63
5/9/2023 4:45:00 PM 16.19 61.142 0.123 7.28 2.72 9.63
5/9/2023 5:00:00 PM 16.1 60.98 0.123 7.27 2.45 9.63
5/9/2023 5:15:00 PM 16.01 60.818 0.123 7.27 2.45 9.63
5/9/2023 5:30:00 PM 15.91 60.638 0.123 7.27 2.62 9.63
5/9/2023 5:45:00 PM 15.78 60.404 0.123 7.27 2.44 9.65
5/9/2023 6:00:00 PM 15.67 60.206 0.123 7.25 3.66 9.66
5/9/2023 6:15:00 PM 15.51 59.918 0.123 7.23 2.54 9.67
5/9/2023 6:30:00 PM 15.35 59.63 0.123 7.27 2.24 9.67
5/9/2023 6:45:00 PM 15.17 59.306 0.123 7.26 2.57 9.68
5/9/2023 7:00:00 PM 14.99 58.982 0.123 7.24 3.6 9.7
5/9/2023 7:15:00 PM 14.81 58.658 0.123 7.24 2.41 9.71
5/9/2023 7:30:00 PM 14.64 58.352 0.124 7.24 2.49 9.7
5/9/2023 7:45:00 PM 14.48 58.064 0.124 7.19 2.6 9.7
5/9/2023 8:00:00 PM 14.3 57.74 0.124 7.22 2.65 9.71
5/9/2023 8:15:00 PM 14.14 57.452 0.124 7.22 2.6 9.71
5/9/2023 8:30:00 PM 13.96 57.128 0.124 7.21 2.73 9.71
5/9/2023 8:45:00 PM 13.79 56.822 0.124 7.19 3.89 9.72
5/9/2023 9:00:00 PM 13.65 56.57 0.124 7.19 2.72 9.74
5/9/2023 9:15:00 PM 13.51 56.318 0.124 7.18 3.1 9.75
5/9/2023 9:30:00 PM 13.37 56.066 0.124 7.18 2.97 9.76
5/9/2023 9:45:00 PM 13.25 55.85 0.125 7.17 2.99 9.78
5/9/2023 10:00:00 PM 13.12 55.616 0.125 7.17 3.06 9.81
5/9/2023 10:15:00 PM 13 55.4 0.125 7.16 2.91 9.82
5/9/2023 10:30:00 PM 12.88 55.184 0.125 7.15 4.07 9.86
5/9/2023 10:45:00 PM 12.76 54.968 0.125 7.14 2.58 9.88
5/9/2023 11:00:00 PM 12.64 54.752 0.125 7.14 2.76 9.9
5/9/2023 11:15:00 PM 12.53 54.554 0.125 7.14 2.62 9.92
5/9/2023 11:30:00 PM 12.42 54.356 0.126 7.13 2.8 9.95
5/9/2023 11:45:00 PM 12.32 54.176 0.126 7.12 2.68 9.97
5/10/2023 12:00:00 AM 12.21 53.978 0.126 7.12 2.53 10
5/10/2023 12:15:00 AM 12.11 53.798 0.126 7.12 2.59 10.02
5/10/2023 12:30:00 AM 12.01 53.618 0.126 7.11 2.48 10.04
5/10/2023 12:45:00 AM 11.92 53.456 0.126 7.11 2.56 10.07
5/10/2023 1:00:00 AM 11.81 53.258 0.126 7.11 2.57 10.09
5/10/2023 1:15:00 AM 11.72 53.096 0.126 7.1 2.7 10.11
5/10/2023 1:30:00 AM 11.62 52.916 0.126 7.1 2.7 10.14
5/10/2023 1:45:00 AM 11.53 52.754 0.126 7.09 2.57 10.17
5/10/2023 2:00:00 AM 11.44 52.592 0.126 7.09 2.44 10.19
5/10/2023 2:15:00 AM 11.35 52.43 0.126 7.09 2.6 10.2
5/10/2023 2:30:00 AM 11.26 52.268 0.126 7.09 2.35 10.23
5/10/2023 2:45:00 AM 11.17 52.106 0.126 7.09 2.58 10.25
5/10/2023 3:00:00 AM 11.09 51.962 0.127 7.08 2.46 10.27
5/10/2023 3:15:00 AM 11 51.8 0.127 7.08 2.45 10.3
5/10/2023 3:30:00 AM 10.92 51.656 0.127 7.08 2.54 10.32
5/10/2023 3:45:00 AM 10.85 51.53 0.127 7.08 2.39 10.34
5/10/2023 4:00:00 AM 10.77 51.386 0.127 7.08 2.53 10.36
5/10/2023 4:15:00 AM 10.69 51.242 0.127 7.08 2.24 10.38
5/10/2023 4:30:00 AM 10.62 51.116 0.127 7.08 2.4 10.39
5/10/2023 4:45:00 AM 10.55 50.99 0.127 7.07 2.33 10.42
5/10/2023 5:00:00 AM 10.48 50.864 0.127 7.06 3.72 10.44
5/10/2023 5:15:00 AM 10.41 50.738 0.127 7.07 2.51 10.46
5/10/2023 5:30:00 AM 10.34 50.612 0.127 7.06 3.61 10.47
5/10/2023 5:45:00 AM 10.27 50.486 0.127 7.07 2.42 10.5
5/10/2023 6:00:00 AM 10.21 50.378 0.127 7.07 2.38 10.52
5/10/2023 6:15:00 AM 10.15 50.27 0.127 7.08 2.43 10.54
5/10/2023 6:30:00 AM 10.1 50.18 0.127 7.08 2.42 10.57
5/10/2023 6:45:00 AM 10.06 50.108 0.127 7.08 2.35 10.6
5/10/2023 7:00:00 AM 10.04 50.072 0.127 7.09 2.32 10.65
5/10/2023 7:15:00 AM 10.04 50.072 0.128 7.1 2.22 10.69
5/10/2023 7:30:00 AM 10.04 50.072 0.128 7.11 2.31 10.74
5/10/2023 7:45:00 AM 10.07 50.126 0.128 7.11 2.4 10.78
5/10/2023 8:00:00 AM 10.12 50.216 0.128 7.11 2.22 10.8
5/10/2023 8:15:00 AM 10.17 50.306 0.128 7.13 2.22 10.83
5/10/2023 8:30:00 AM 10.26 50.468 0.128 7.13 2.34 10.86
5/10/2023 8:45:00 AM 10.36 50.648 0.128 7.14 2.26 10.86
5/10/2023 9:00:00 AM 10.5 50.9 0.128 7.16 2.34 10.86
5/10/2023 9:15:00 AM 10.67 51.206 0.128 7.16 2.3 10.85
5/10/2023 9:30:00 AM 10.86 51.548 0.128 7.18 2.32 10.84
5/10/2023 9:45:00 AM 11.06 51.908 0.128 7.18 2.14 10.83
5/10/2023 10:00:00 AM 11.28 52.304 0.128 7.19 2.12 10.79
5/10/2023 10:15:00 AM 11.51 52.718 0.128 7.19 2.06 10.77
5/10/2023 10:30:00 AM 11.75 53.15 0.128 7.2 2.06 10.73
5/10/2023 10:45:00 AM 12 53.6 0.128 7.21 2.25 10.7
5/10/2023 11:00:00 AM 12.26 54.068 0.128 7.22 2.33 10.67
5/10/2023 11:15:00 AM 12.54 54.572 0.128 7.22 2.07 10.61
5/10/2023 11:30:00 AM 12.81 55.058 0.128 7.23 2.07 10.56
5/10/2023 11:45:00 AM 13.1 55.58 0.128 7.24 2.29 10.52
5/10/2023 12:00:00 PM 13.39 56.102 0.128 7.24 2 10.45
5/10/2023 12:15:00 PM 13.67 56.606 0.128 7.24 2.51 10.4
5/10/2023 12:30:00 PM 13.97 57.146 0.128 7.25 2.31 10.34
5/10/2023 12:45:00 PM 14.27 57.686 0.128 7.26 2.28 10.28
5/10/2023 1:00:00 PM 14.57 58.226 0.128 7.26 2.39 10.21
5/10/2023 1:15:00 PM 14.86 58.748 0.128 7.26 2.32 10.14
5/10/2023 1:30:00 PM 15.15 59.27 0.129 7.26 2.2 10.07
5/10/2023 1:45:00 PM 15.43 59.774 0.129 7.28 2.16 10
5/10/2023 2:00:00 PM 15.69 60.242 0.129 7.28 1.93 9.95
5/10/2023 2:15:00 PM 15.93 60.674 0.129 7.28 2.2 9.88
5/10/2023 2:30:00 PM 16.15 61.07 0.129 7.28 2.08 9.83
5/10/2023 2:45:00 PM 16.33 61.394 0.129 7.29 2.1 9.8
5/10/2023 3:00:00 PM 16.52 61.736 0.128 7.29 2.04 9.73
5/10/2023 3:15:00 PM 16.71 62.078 0.128 7.3 2.11 9.71
5/10/2023 3:30:00 PM 16.86 62.348 0.127 7.31 2.31 9.69
5/10/2023 3:45:00 PM 16.97 62.546 0.127 7.27 3.65 9.65
5/10/2023 4:00:00 PM 17.03 62.654 0.127 7.3 2.23 9.64
5/10/2023 4:15:00 PM 17.04 62.672 0.127 7.31 2.38 9.61
5/10/2023 4:30:00 PM 17.03 62.654 0.126 7.31 2.27 9.59
5/10/2023 4:45:00 PM 16.97 62.546 0.127 7.31 2.23 9.57
5/10/2023 5:00:00 PM 16.9 62.42 0.127 7.31 2.18 9.56
5/10/2023 5:15:00 PM 16.8 62.24 0.127 7.29 3.34 9.55
5/10/2023 5:30:00 PM 16.66 61.988 0.128 7.3 2.36 9.55
5/10/2023 5:45:00 PM 16.51 61.718 0.128 7.29 2.4 9.55
5/10/2023 6:00:00 PM 16.36 61.448 0.128 7.29 2.17 9.56
5/10/2023 6:15:00 PM 16.19 61.142 0.129 7.27 3.37 9.57
5/10/2023 6:30:00 PM 16.03 60.854 0.129 7.28 2.29 9.56
5/10/2023 6:45:00 PM 15.89 60.602 0.129 7.28 2.19 9.56
5/10/2023 7:00:00 PM 15.73 60.314 0.13 7.27 2.39 9.56
5/10/2023 7:15:00 PM 15.55 59.99 0.13 7.25 3.47 9.57
5/10/2023 7:30:00 PM 15.38 59.684 0.131 7.26 2.51 9.55
5/10/2023 7:45:00 PM 15.24 59.432 0.131 7.25 2.57 9.55
5/10/2023 8:00:00 PM 15.08 59.144 0.132 7.24 2.71 9.54
5/10/2023 8:15:00 PM 14.92 58.856 0.133 7.23 2.83 9.53
5/10/2023 8:30:00 PM 14.76 58.568 0.133 7.22 2.54 9.53
5/10/2023 8:45:00 PM 14.61 58.298 0.133 7.21 2.61 9.52
5/10/2023 9:00:00 PM 14.46 58.028 0.134 7.2 2.39 9.52
5/10/2023 9:15:00 PM 14.34 57.812 0.134 7.19 2.36 9.53
5/10/2023 9:30:00 PM 14.2 57.56 0.134 7.19 2.51 9.54
5/10/2023 9:45:00 PM 14.09 57.362 0.134 7.17 3.57 9.54
5/10/2023 10:00:00 PM 13.97 57.146 0.134 7.18 2.63 9.55
5/10/2023 10:15:00 PM 13.85 56.93 0.134 7.17 3.01 9.58
5/10/2023 10:30:00 PM 13.74 56.732 0.133 7.16 3.86 9.59
5/10/2023 10:45:00 PM 13.63 56.534 0.133 7.16 2.61 9.62
5/10/2023 11:00:00 PM 13.52 56.336 0.133 7.15 4.32 9.64
5/10/2023 11:15:00 PM 13.41 56.138 0.133 7.15 3.77 9.65
5/10/2023 11:30:00 PM 13.31 55.958 0.133 7.15 2.89 9.67
5/10/2023 11:45:00 PM 13.21 55.778 0.133 7.15 2.66 9.69
5/11/2023 12:00:00 AM 13.11 55.598 0.133 7.15 2.47 9.72
5/11/2023 12:15:00 AM 13.01 55.418 0.133 7.15 2.42 9.74
5/11/2023 12:30:00 AM 12.91 55.238 0.133 7.14 2.35 9.77
5/11/2023 12:45:00 AM 12.81 55.058 0.133 7.14 2.43 9.78
5/11/2023 1:00:00 AM 12.72 54.896 0.133 7.14 2.61 9.8
5/11/2023 1:15:00 AM 12.62 54.716 0.133 7.14 2.3 9.82
5/11/2023 1:30:00 AM 12.53 54.554 0.133 7.13 2.42 9.84
5/11/2023 1:45:00 AM 12.44 54.392 0.133 7.12 2.69 9.86
5/11/2023 2:00:00 AM 12.35 54.23 0.133 7.06 2.59 9.88
5/11/2023 2:15:00 AM 12.26 54.068 0.133 7.12 2.37 9.91
5/11/2023 2:30:00 AM 12.18 53.924 0.133 7.09 2.24 9.93
5/11/2023 2:45:00 AM 12.09 53.762 0.133 7.1 2.34 9.95
5/11/2023 3:00:00 AM 12 53.6 0.133 7.09 2.57 9.96
5/11/2023 3:15:00 AM 11.92 53.456 0.133 7.1 2.42 9.98
5/11/2023 3:30:00 AM 11.83 53.294 0.133 7.09 2.36 10
5/11/2023 3:45:00 AM 11.75 53.15 0.133 7.09 2.25 10.02
5/11/2023 4:00:00 AM 11.67 53.006 0.133 7.08 2.31 10.05
5/11/2023 4:15:00 AM 11.59 52.862 0.133 7.09 2.25 10.06
5/11/2023 4:30:00 AM 11.52 52.736 0.133 7.08 2.18 10.08
5/11/2023 4:45:00 AM 11.44 52.592 0.133 7.08 2.27 10.1
5/11/2023 5:00:00 AM 11.38 52.484 0.133 7.05 2.25 10.11
5/11/2023 5:15:00 AM 11.3 52.34 0.133 7.08 2.43 10.13
5/11/2023 5:30:00 AM 11.24 52.232 0.133 7.08 2.58 10.14
5/11/2023 5:45:00 AM 11.17 52.106 0.133 7.08 2.42 10.17
5/11/2023 6:00:00 AM 11.11 51.998 0.133 7.08 2.31 10.19
5/11/2023 6:15:00 AM 11.05 51.89 0.133 7.08 2.36 10.22
5/11/2023 6:30:00 AM 11.01 51.818 0.133 7.08 2.78 10.25
5/11/2023 6:45:00 AM 10.97 51.746 0.133 7.09 2.43 10.3
5/11/2023 7:00:00 AM 10.96 51.728 0.133 7.09 2.21 10.36
5/11/2023 7:15:00 AM 10.96 51.728 0.133 7.1 1.97 10.41
5/11/2023 7:30:00 AM 10.98 51.764 0.133 7.11 2.09 10.45
5/11/2023 7:45:00 AM 11.02 51.836 0.133 7.12 1.93 10.5
5/11/2023 8:00:00 AM 11.08 51.944 0.133 7.13 2.06 10.53
5/11/2023 8:15:00 AM 11.17 52.106 0.133 7.14 2.11 10.56
5/11/2023 8:30:00 AM 11.27 52.286 0.133 7.14 2.13 10.57
5/11/2023 8:45:00 AM 11.38 52.484 0.133 7.15 1.97 10.58
5/11/2023 9:00:00 AM 11.52 52.736 0.133 7.16 1.99 10.59
5/11/2023 9:15:00 AM 11.69 53.042 0.133 7.17 1.95 10.59
5/11/2023 9:30:00 AM 11.9 53.42 0.133 7.18 1.91 10.57
5/11/2023 9:45:00 AM 12.13 53.834 0.133 7.18 2.06 10.55
5/11/2023 10:00:00 AM 12.37 54.266 0.133 7.18 1.92 10.53
5/11/2023 10:15:00 AM 12.59 54.662 0.133 7.21 1.81 10.49
5/11/2023 10:30:00 AM 12.85 55.13 0.133 7.19 3.09 10.46
5/11/2023 10:45:00 AM 13.1 55.58 0.133 7.2 3.06 10.41
5/11/2023 11:00:00 AM 13.35 56.03 0.133 7.22 1.84 10.38
5/11/2023 11:15:00 AM 13.64 56.552 0.133 7.21 3.12 10.34
5/11/2023 11:30:00 AM 13.94 57.092 0.133 7.23 1.89 10.28
5/11/2023 11:45:00 AM 14.23 57.614 0.133 7.23 1.88 10.24
5/11/2023 12:00:00 PM 14.53 58.154 0.133 7.24 1.83 10.19
5/11/2023 12:15:00 PM 14.82 58.676 0.133 7.25 1.94 10.14
5/11/2023 12:30:00 PM 15.13 59.234 0.133 7.25 1.98 10.08
5/11/2023 12:45:00 PM 15.42 59.756 0.133 7.23 3.25 10
5/11/2023 1:00:00 PM 15.71 60.278 0.133 7.26 1.94 9.96
5/11/2023 1:15:00 PM 16 60.8 0.133 7.26 1.91 9.9
5/11/2023 1:30:00 PM 16.28 61.304 0.134 7.27 2.02 9.85
5/11/2023 1:45:00 PM 16.57 61.826 0.134 7.26 3.06 9.77
5/11/2023 2:00:00 PM 16.84 62.312 0.134 7.27 3.17 9.73
5/11/2023 2:15:00 PM 17.09 62.762 0.134 7.27 3.29 9.66
5/11/2023 2:30:00 PM 17.34 63.212 0.134 7.29 1.96 9.6
5/11/2023 2:45:00 PM 17.41 63.338 0.134 7.28 3.14 9.52
5/11/2023 3:00:00 PM 17.61 63.698 0.134 7.28 1.96 9.51
5/11/2023 3:15:00 PM 17.76 63.968 0.134 7.28 1.93 9.46
5/11/2023 3:30:00 PM 17.77 63.986 0.134 7.28 1.91 9.41
5/11/2023 3:45:00 PM 17.81 64.058 0.134 7.25 3.08 9.37
5/11/2023 4:00:00 PM 17.86 64.148 0.134 7.27 1.73 9.37
5/11/2023 4:15:00 PM 17.8 64.04 0.134 7.28 1.85 9.34
5/11/2023 4:30:00 PM 17.67 63.806 0.134 7.28 1.83 9.33
5/11/2023 4:45:00 PM 17.54 63.572 0.134 7.25 3.14 9.32
5/11/2023 5:00:00 PM 17.43 63.374 0.134 7.28 1.8 9.33
5/11/2023 5:15:00 PM 17.35 63.23 0.134 7.28 1.81 9.34
5/11/2023 5:30:00 PM 17.34 63.212 0.134 7.28 1.88 9.34
5/11/2023 5:45:00 PM 17.32 63.176 0.134 7.27 1.93 9.34
5/11/2023 6:00:00 PM 17.25 63.05 0.134 7.27 1.8 9.35
5/11/2023 6:15:00 PM 17.14 62.852 0.134 7.25 2.37 9.34
5/11/2023 6:30:00 PM 17.02 62.636 0.134 7.27 1.86 9.34
5/11/2023 6:45:00 PM 16.88 62.384 0.134 7.26 1.94 9.33
5/11/2023 7:00:00 PM 16.74 62.132 0.134 7.25 2.1 9.31
5/11/2023 7:15:00 PM 16.6 61.88 0.135 7.24 1.95 9.29
5/11/2023 7:30:00 PM 16.47 61.646 0.135 7.24 1.91 9.28
5/11/2023 7:45:00 PM 16.33 61.394 0.135 7.23 1.98 9.28
5/11/2023 8:00:00 PM 16.18 61.124 0.135 7.21 3.33 9.25
5/11/2023 8:15:00 PM 16.05 60.89 0.135 7.21 1.97 9.22
5/11/2023 8:30:00 PM 15.89 60.602 0.135 7.19 3.08 9.21
5/11/2023 8:45:00 PM 15.75 60.35 0.135 7.18 2.03 9.2
5/11/2023 9:00:00 PM 15.61 60.098 0.135 7.18 1.99 9.2
5/11/2023 9:15:00 PM 15.48 59.864 0.135 7.17 2.18 9.19
5/11/2023 9:30:00 PM 15.35 59.63 0.136 7.16 2.31 9.18
5/11/2023 9:45:00 PM 15.23 59.414 0.136 7.16 2.11 9.19
5/11/2023 10:00:00 PM 15.12 59.216 0.136 7.15 2.34 9.2
5/11/2023 10:15:00 PM 15.01 59.018 0.136 7.15 2.75 9.2
5/11/2023 10:30:00 PM 14.89 58.802 0.136 7.13 3.44 9.24
5/11/2023 10:45:00 PM 14.79 58.622 0.136 7.14 2.44 9.25
5/11/2023 11:00:00 PM 14.69 58.442 0.136 7.14 2.07 9.26
5/11/2023 11:15:00 PM 14.6 58.28 0.136 7.14 1.88 9.27
5/11/2023 11:30:00 PM 14.51 58.118 0.137 7.13 2.39 9.29
5/11/2023 11:45:00 PM 14.41 57.938 0.137 7.13 1.97 9.3
5/12/2023 12:00:00 AM 14.32 57.776 0.137 7.12 2.07 9.32
5/12/2023 12:15:00 AM 14.24 57.632 0.137 7.12 3.39 9.34
5/12/2023 12:30:00 AM 14.15 57.47 0.137 7.13 2.11 9.36
5/12/2023 12:45:00 AM 14.06 57.308 0.137 7.11 3.31 9.37
5/12/2023 1:00:00 AM 13.98 57.164 0.137 7.12 1.9 9.38
5/12/2023 1:15:00 AM 13.9 57.02 0.137 7.12 2 9.4
5/12/2023 1:30:00 AM 13.83 56.894 0.137 7.12 1.89 9.43
5/12/2023 1:45:00 AM 13.75 56.75 0.137 7.12 2.18 9.44
5/12/2023 2:00:00 AM 13.67 56.606 0.137 7.12 2.05 9.46
5/12/2023 2:15:00 AM 13.61 56.498 0.137 7.08 3.19 9.48
5/12/2023 2:30:00 AM 13.54 56.372 0.137 7.11 1.94 9.49
5/12/2023 2:45:00 AM 13.48 56.264 0.137 7.11 1.81 9.5
5/12/2023 3:00:00 AM 13.42 56.156 0.137 7.11 1.98 9.5
5/12/2023 3:15:00 AM 13.35 56.03 0.138 7.11 2 9.52
5/12/2023 3:30:00 AM 13.28 55.904 0.138 7.1 1.95 9.54
5/12/2023 3:45:00 AM 13.21 55.778 0.138 7.09 2.04 9.55
5/12/2023 4:00:00 AM 13.14 55.652 0.138 7.09 1.9 9.57
5/12/2023 4:15:00 AM 13.06 55.508 0.138 7.08 3.4 9.59
5/12/2023 4:30:00 AM 12.99 55.382 0.138 7.09 1.89 9.6
5/12/2023 4:45:00 AM 12.92 55.256 0.138 7.08 2.06 9.62
5/12/2023 5:00:00 AM 12.86 55.148 0.138 7.09 1.93 9.64
5/12/2023 5:15:00 AM 12.79 55.022 0.138 7.08 1.86 9.64
5/12/2023 5:30:00 AM 12.74 54.932 0.139 7.08 1.92 9.65
5/12/2023 5:45:00 AM 12.68 54.824 0.139 7.08 1.84 9.67
5/12/2023 6:00:00 AM 12.63 54.734 0.139 7.07 3.21 9.68
5/12/2023 6:15:00 AM 12.59 54.662 0.139 7.08 1.99 9.71
5/12/2023 6:30:00 AM 12.56 54.608 0.139 7.08 2.07 9.74
5/12/2023 6:45:00 AM 12.54 54.572 0.139 7.08 2.02 9.8
5/12/2023 7:00:00 AM 12.53 54.554 0.139 7.09 1.81 9.84
5/12/2023 7:15:00 AM 12.54 54.572 0.139 7.1 1.9 9.91
5/12/2023 7:30:00 AM 12.55 54.59 0.139 7.11 1.96 9.96
5/12/2023 7:45:00 AM 12.59 54.662 0.139 7.11 1.94 10.01
5/12/2023 8:00:00 AM 12.66 54.788 0.139 7.13 1.97 10.06
5/12/2023 8:15:00 AM 12.75 54.95 0.139 7.14 1.86 10.1
5/12/2023 8:30:00 AM 12.84 55.112 0.139 7.14 1.99 10.13
5/12/2023 8:45:00 AM 12.96 55.328 0.139 7.15 1.86 10.15
5/12/2023 9:00:00 AM 13.09 55.562 0.139 7.16 1.95 10.14
5/12/2023 9:15:00 AM 13.27 55.886 0.139 7.15 3.07 10.15
5/12/2023 9:30:00 AM 13.47 56.246 0.139 7.18 1.69 10.15
5/12/2023 9:45:00 AM 13.68 56.624 0.139 7.18 1.88 10.14
5/12/2023 10:00:00 AM 13.92 57.056 0.138 7.19 2.29 10.1
5/12/2023 10:15:00 AM 14.18 57.524 0.138 7.17 3.25 10.08
5/12/2023 10:30:00 AM 14.44 57.992 0.139 7.17 2.96 10.05
5/12/2023 10:45:00 AM 14.67 58.406 0.139 7.21 1.78 10.04
5/12/2023 11:00:00 AM 14.96 58.928 0.139 7.22 1.76 10
5/12/2023 11:15:00 AM 15.19 59.342 0.139 7.22 1.65 9.96
5/12/2023 11:30:00 AM 15.44 59.792 0.139 7.21 2.9 9.94
5/12/2023 11:45:00 AM 15.65 60.17 0.139 7.23 2.59 9.9
5/12/2023 12:00:00 PM 15.86 60.548 0.139 7.24 1.67 9.86
5/12/2023 12:15:00 PM 16.1 60.98 0.139 7.23 2.82 9.83
5/12/2023 12:30:00 PM 16.32 61.376 0.139 7.25 1.73 9.8
5/12/2023 12:45:00 PM 16.54 61.772 0.139 7.23 2.87 9.76
5/12/2023 1:00:00 PM 16.77 62.186 0.139 7.26 1.77 9.71
5/12/2023 1:15:00 PM 16.94 62.492 0.139 7.23 3.08 9.66
5/12/2023 1:30:00 PM 17.13 62.834 0.139 7.26 1.73 9.62
5/12/2023 1:45:00 PM 17.28 63.104 0.139 7.24 3.02 9.59
5/12/2023 2:00:00 PM 17.47 63.446 0.139 7.27 1.92 9.55
5/12/2023 2:15:00 PM 17.68 63.824 0.139 7.27 1.97 9.52
5/12/2023 2:30:00 PM 17.92 64.256 0.139 7.26 3.16 9.48
5/12/2023 2:45:00 PM 18.07 64.526 0.139 7.26 3.16 9.43
5/12/2023 3:00:00 PM 18.18 64.724 0.139 7.27 3.09 9.38
5/12/2023 3:15:00 PM 18.26 64.868 0.139 7.28 1.87 9.36
5/12/2023 3:30:00 PM 18.33 64.994 0.139 7.27 3.01 9.33
5/12/2023 3:45:00 PM 18.37 65.066 0.139 7.29 1.71 9.33
5/12/2023 4:00:00 PM 18.4 65.12 0.139 7.26 3.12 9.29
5/12/2023 4:15:00 PM 18.41 65.138 0.139 7.23 3.47 9.27
5/12/2023 4:30:00 PM 18.49 65.282 0.139 7.28 1.94 9.25
5/12/2023 4:45:00 PM 18.46 65.228 0.139 7.28 1.73 9.22
5/12/2023 5:00:00 PM 18.44 65.192 0.139 7.29 1.97 9.23
5/12/2023 5:15:00 PM 18.44 65.192 0.139 7.28 1.69 9.19
5/12/2023 5:30:00 PM 18.4 65.12 0.139 7.27 1.85 9.19
5/12/2023 5:45:00 PM 18.37 65.066 0.139 7.24 3.17 9.18
5/12/2023 6:00:00 PM 18.3 64.94 0.139 7.28 1.88 9.17
5/12/2023 6:15:00 PM 18.18 64.724 0.139 7.27 1.92 9.15
5/12/2023 6:30:00 PM 18.05 64.49 0.139 7.24 3.54 9.11
5/12/2023 6:45:00 PM 17.92 64.256 0.139 7.25 3.05 9.12
5/12/2023 7:00:00 PM 17.79 64.022 0.14 7.24 3.4 9.08
5/12/2023 7:15:00 PM 17.64 63.752 0.14 7.23 3.16 9.05
5/12/2023 7:30:00 PM 17.48 63.464 0.14 7.22 3.06 9.04
5/12/2023 7:45:00 PM 17.34 63.212 0.14 7.21 2.96 8.99
5/12/2023 8:00:00 PM 17.18 62.924 0.14 7.2 2.23 8.97
5/12/2023 8:15:00 PM 17.03 62.654 0.14 7.2 1.76 8.95
5/12/2023 8:30:00 PM 16.9 62.42 0.14 7.19 1.81 8.92
5/12/2023 8:45:00 PM 16.76 62.168 0.14 7.18 1.97 8.9
5/12/2023 9:00:00 PM 16.63 61.934 0.14 7.16 1.97 8.88
5/12/2023 9:15:00 PM 16.5 61.7 0.14 7.16 1.95 8.86
5/12/2023 9:30:00 PM 16.39 61.502 0.141 7.14 2.93 8.86
5/12/2023 9:45:00 PM 16.27 61.286 0.141 7.14 1.87 8.87
5/12/2023 10:00:00 PM 16.16 61.088 0.141 7.14 1.77 8.87
5/12/2023 10:15:00 PM 16.05 60.89 0.141 7.14 2.08 8.87
5/12/2023 10:30:00 PM 15.96 60.728 0.141 7.13 1.99 8.88
5/12/2023 10:45:00 PM 15.85 60.53 0.141 7.12 3.04 8.89
5/12/2023 11:00:00 PM 15.77 60.386 0.141 7.13 1.93 8.9
5/12/2023 11:15:00 PM 15.66 60.188 0.141 7.13 1.98 8.92
5/12/2023 11:30:00 PM 15.58 60.044 0.142 7.11 3.19 8.94
5/12/2023 11:45:00 PM 15.49 59.882 0.142 7.12 2.03 8.95
5/13/2023 12:00:00 AM 15.41 59.738 0.142 7.12 1.87 8.95
5/13/2023 12:15:00 AM 15.32 59.576 0.142 7.1 3.1 8.96
5/13/2023 12:30:00 AM 15.25 59.45 0.142 7.11 1.76 8.98
5/13/2023 12:45:00 AM 15.17 59.306 0.142 7.11 1.86 8.99
5/13/2023 1:00:00 AM 15.09 59.162 0.142 7.11 2.03 9.01
5/13/2023 1:15:00 AM 15.02 59.036 0.142 7.1 3.22 9.02
5/13/2023 1:30:00 AM 14.94 58.892 0.142 7.11 1.85 9.04
5/13/2023 1:45:00 AM 14.87 58.766 0.143 7.1 1.82 9.05
5/13/2023 2:00:00 AM 14.8 58.64 0.143 7.09 3.05 9.06
5/13/2023 2:15:00 AM 14.73 58.514 0.143 7.1 1.94 9.07
5/13/2023 2:30:00 AM 14.66 58.388 0.143 7.1 1.88 9.07
5/13/2023 2:45:00 AM 14.58 58.244 0.143 7.07 3.39 9.09
5/13/2023 3:00:00 AM 14.52 58.136 0.143 7.08 3.28 9.1
5/13/2023 3:15:00 AM 14.44 57.992 0.143 7.07 3.17 9.12
5/13/2023 3:30:00 AM 14.37 57.866 0.143 7.09 1.83 9.13
5/13/2023 3:45:00 AM 14.3 57.74 0.143 7.08 1.75 9.15
5/13/2023 4:00:00 AM 14.23 57.614 0.143 7.08 1.84 9.16
5/13/2023 4:15:00 AM 14.17 57.506 0.143 7.06 3.09 9.18
5/13/2023 4:30:00 AM 14.1 57.38 0.143 7.07 2.99 9.19
5/13/2023 4:45:00 AM 14.05 57.29 0.143 7.07 1.91 9.2
5/13/2023 5:00:00 AM 13.99 57.182 0.143 7.06 2.98 9.21
5/13/2023 5:15:00 AM 13.94 57.092 0.143 7.05 2.94 9.22
5/13/2023 5:30:00 AM 13.89 57.002 0.144 7.06 3.07 9.24
5/13/2023 5:45:00 AM 13.83 56.894 0.144 7.05 3.1 9.24
5/13/2023 6:00:00 AM 13.79 56.822 0.144 7.06 1.75 9.27
5/13/2023 6:15:00 AM 13.75 56.75 0.144 7.07 1.97 9.29
5/13/2023 6:30:00 AM 13.72 56.696 0.144 7.04 1.74 9.32
5/13/2023 6:45:00 AM 13.69 56.642 0.144 7.06 1.96 9.38
5/13/2023 7:00:00 AM 13.66 56.588 0.144 7.07 1.81 9.44
5/13/2023 7:15:00 AM 13.66 56.588 0.144 7.08 1.92 9.52
5/13/2023 7:30:00 AM 13.69 56.642 0.144 7.08 1.84 9.59
5/13/2023 7:45:00 AM 13.74 56.732 0.144 7.1 2.09 9.66
5/13/2023 8:00:00 AM 13.82 56.876 0.144 7.08 3.34 9.72
5/13/2023 8:15:00 AM 13.9 57.02 0.144 7.13 2.06 9.77
5/13/2023 8:30:00 AM 13.98 57.164 0.144 7.09 2.98 9.81
5/13/2023 8:45:00 AM 14.04 57.272 0.144 7.1 3 9.83
5/13/2023 9:00:00 AM 14.13 57.434 0.144 7.15 2.1 9.87
5/13/2023 9:15:00 AM 14.25 57.65 0.144 7.17 1.91 9.88
5/13/2023 9:30:00 AM 14.38 57.884 0.144 7.17 1.82 9.93
5/13/2023 9:45:00 AM 14.51 58.118 0.144 7.19 1.71 9.9
5/13/2023 10:00:00 AM 14.67 58.406 0.144 7.18 3.08 9.89
5/13/2023 10:15:00 AM 14.81 58.658 0.144 7.2 1.77 9.91
5/13/2023 10:30:00 AM 14.96 58.928 0.144 7.19 2.89 9.88
5/13/2023 10:45:00 AM 15.08 59.144 0.144 7.2 2.85 9.87
5/13/2023 11:00:00 AM 15.21 59.378 0.144 7.21 2.8 9.86
5/13/2023 11:15:00 AM 15.34 59.612 0.144 7.23 1.6 9.84
5/13/2023 11:30:00 AM 15.51 59.918 0.144 7.24 1.87 9.84
5/13/2023 11:45:00 AM 15.68 60.224 0.144 7.24 2.03 9.83
5/13/2023 12:00:00 PM 15.85 60.53 0.144 7.24 1.7 9.8
5/13/2023 12:15:00 PM 16.06 60.908 0.144 7.25 1.8 9.78
5/13/2023 12:30:00 PM 16.23 61.214 0.144 7.25 1.58 9.76
5/13/2023 12:45:00 PM 16.39 61.502 0.144 7.24 2.85 9.73
5/13/2023 1:00:00 PM 16.57 61.826 0.144 7.24 2.74 9.69
5/13/2023 1:15:00 PM 16.74 62.132 0.144 7.26 1.76 9.67
5/13/2023 1:30:00 PM 16.91 62.438 0.144 7.25 2.9 9.66
5/13/2023 1:45:00 PM 17.04 62.672 0.144 7.26 2.84 9.6
5/13/2023 2:00:00 PM 17.19 62.942 0.144 7.25 2.84 9.54
5/13/2023 2:15:00 PM 17.32 63.176 0.144 7.27 1.63 9.54
5/13/2023 2:30:00 PM 17.4 63.32 0.144 7.28 1.67 9.51
5/13/2023 2:45:00 PM 17.48 63.464 0.144 7.26 2.87 9.48
5/13/2023 3:00:00 PM 17.56 63.608 0.144 7.28 1.63 9.47
5/13/2023 3:15:00 PM 17.64 63.752 0.144 7.28 1.69 9.44
5/13/2023 3:30:00 PM 17.75 63.95 0.144 7.28 1.68 9.42
5/13/2023 3:45:00 PM 17.85 64.13 0.144 7.26 2.91 9.39
5/13/2023 4:00:00 PM 17.9 64.22 0.144 7.28 1.57 9.37
5/13/2023 4:15:00 PM 17.95 64.31 0.144 7.28 1.87 9.34
5/13/2023 4:30:00 PM 17.94 64.292 0.144 7.28 1.79 9.32
5/13/2023 4:45:00 PM 17.88 64.184 0.144 7.28 1.69 9.28
5/13/2023 5:00:00 PM 17.87 64.166 0.144 7.27 1.91 9.27
5/13/2023 5:15:00 PM 17.84 64.112 0.144 7.27 1.89 9.26
5/13/2023 5:30:00 PM 17.78 64.004 0.145 7.27 2 9.26
5/13/2023 5:45:00 PM 17.68 63.824 0.145 7.27 1.89 9.25
5/13/2023 6:00:00 PM 17.59 63.662 0.145 7.27 1.93 9.24
5/13/2023 6:15:00 PM 17.43 63.374 0.145 7.26 2.07 9.21
5/13/2023 6:30:00 PM 17.29 63.122 0.145 7.26 2.56 9.2
5/13/2023 6:45:00 PM 17.1 62.78 0.145 7.24 3.27 9.19
5/13/2023 7:00:00 PM 16.92 62.456 0.145 7.23 3.19 9.16
5/13/2023 7:15:00 PM 16.73 62.114 0.145 7.23 1.87 9.13
5/13/2023 7:30:00 PM 16.53 61.754 0.145 7.22 2.05 9.1
5/13/2023 7:45:00 PM 16.39 61.502 0.145 7.21 2.17 9.07
5/13/2023 8:00:00 PM 16.25 61.25 0.146 7.21 2 9.05
5/13/2023 8:15:00 PM 16.1 60.98 0.146 7.18 3.15 9.01
5/13/2023 8:30:00 PM 15.97 60.746 0.146 7.18 2.01 9
5/13/2023 8:45:00 PM 15.81 60.458 0.146 7.17 1.81 8.99
5/13/2023 9:00:00 PM 15.67 60.206 0.146 7.17 1.8 8.98
5/13/2023 9:15:00 PM 15.53 59.954 0.146 7.15 2.98 8.97
5/13/2023 9:30:00 PM 15.39 59.702 0.146 7.15 1.72 8.96
5/13/2023 9:45:00 PM 15.25 59.45 0.146 7.14 1.92 8.96
5/13/2023 10:00:00 PM 15.12 59.216 0.146 7.12 3.24 8.98
5/13/2023 10:15:00 PM 15 59 0.146 7.13 2.12 8.98
5/13/2023 10:30:00 PM 14.88 58.784 0.146 7.12 2.04 9
5/13/2023 10:45:00 PM 14.77 58.586 0.146 7.1 3.44 9.01
5/13/2023 11:00:00 PM 14.66 58.388 0.147 7.1 2.2 9.02
5/13/2023 11:15:00 PM 14.57 58.226 0.147 7.1 2.04 9.03
5/13/2023 11:30:00 PM 14.46 58.028 0.147 7.08 3.1 9.05
5/13/2023 11:45:00 PM 14.36 57.848 0.147 7.09 1.97 9.08
5/14/2023 12:00:00 AM 14.26 57.668 0.147 7.08 2.07 9.09
5/14/2023 12:15:00 AM 14.17 57.506 0.147 7.05 3.23 9.1
5/14/2023 12:30:00 AM 14.07 57.326 0.147 7.07 2.05 9.13
5/14/2023 12:45:00 AM 13.98 57.164 0.147 7.06 3.27 9.14
5/14/2023 1:00:00 AM 13.89 57.002 0.147 7.07 1.94 9.15
5/14/2023 1:15:00 AM 13.81 56.858 0.148 7.06 1.99 9.17
5/14/2023 1:30:00 AM 13.72 56.696 0.148 7.03 3.35 9.19
5/14/2023 1:45:00 AM 13.65 56.57 0.148 7.06 2.12 9.2
5/14/2023 2:00:00 AM 13.56 56.408 0.148 7.05 2.42 9.23
5/14/2023 2:15:00 AM 13.49 56.282 0.148 7.05 3.64 9.23
5/14/2023 2:30:00 AM 13.42 56.156 0.148 7.05 2.22 9.25
5/14/2023 2:45:00 AM 13.34 56.012 0.148 7.05 2.24 9.26
5/14/2023 3:00:00 AM 13.27 55.886 0.148 7.05 2.31 9.28
5/14/2023 3:15:00 AM 13.2 55.76 0.148 7.05 2.17 9.29
5/14/2023 3:30:00 AM 13.13 55.634 0.148 7.05 2.38 9.31
5/14/2023 3:45:00 AM 13.07 55.526 0.149 7.05 2.3 9.32
5/14/2023 4:00:00 AM 13.01 55.418 0.149 7.05 2.04 9.33
5/14/2023 4:15:00 AM 12.94 55.292 0.149 7.05 2.05 9.35
5/14/2023 4:30:00 AM 12.87 55.166 0.149 7.05 2.11 9.36
5/14/2023 4:45:00 AM 12.81 55.058 0.149 7.04 2.06 9.38
5/14/2023 5:00:00 AM 12.75 54.95 0.149 7.04 2.02 9.4
5/14/2023 5:15:00 AM 12.7 54.86 0.149 7.04 1.87 9.4
5/14/2023 5:30:00 AM 12.64 54.752 0.149 7.04 1.94 9.4
5/14/2023 5:45:00 AM 12.59 54.662 0.149 7.05 1.74 9.42
5/14/2023 6:00:00 AM 12.55 54.59 0.149 7.05 1.86 9.45
5/14/2023 6:15:00 AM 12.51 54.518 0.149 7.05 1.87 9.5
5/14/2023 6:30:00 AM 12.49 54.482 0.149 7.06 1.67 9.56
5/14/2023 6:45:00 AM 12.47 54.446 0.149 7.07 1.76 9.63
5/14/2023 7:00:00 AM 12.47 54.446 0.149 7.08 1.64 9.69
5/14/2023 7:15:00 AM 12.49 54.482 0.149 7.09 1.72 9.78
5/14/2023 7:30:00 AM 12.53 54.554 0.149 7.1 1.75 9.84
5/14/2023 7:45:00 AM 12.58 54.644 0.149 7.12 1.76 9.91
5/14/2023 8:00:00 AM 12.66 54.788 0.149 7.13 1.87 9.96
5/14/2023 8:15:00 AM 12.73 54.914 0.149 7.14 1.81 10.01
5/14/2023 8:30:00 AM 12.81 55.058 0.149 7.15 2 10.05
5/14/2023 8:45:00 AM 12.89 55.202 0.149 7.16 1.69 10.09
5/14/2023 9:00:00 AM 13 55.4 0.149 7.17 1.81 10.1
5/14/2023 9:15:00 AM 13.15 55.67 0.149 7.16 2.76 10.1
5/14/2023 9:30:00 AM 13.33 55.994 0.149 7.19 1.64 10.1
5/14/2023 9:45:00 AM 13.53 56.354 0.149 7.18 2.69 10.1
5/14/2023 10:00:00 AM 13.72 56.696 0.149 7.19 2.78 10.1
5/14/2023 10:15:00 AM 13.96 57.128 0.149 7.21 1.72 10.07
5/14/2023 10:30:00 AM 14.19 57.542 0.149 7.2 2.8 10.05
5/14/2023 10:45:00 AM 14.44 57.992 0.149 7.22 1.63 10.02
5/14/2023 11:00:00 AM 14.67 58.406 0.149 7.23 1.72 10.01
5/14/2023 11:15:00 AM 14.92 58.856 0.149 7.23 1.61 9.97
5/14/2023 11:30:00 AM 15.15 59.27 0.149 7.24 1.8 9.94
5/14/2023 11:45:00 AM 15.42 59.756 0.149 7.24 1.7 9.9
5/14/2023 12:00:00 PM 15.67 60.206 0.149 7.25 1.59 9.89
5/14/2023 12:15:00 PM 15.89 60.602 0.15 7.26 1.57 9.86
5/14/2023 12:30:00 PM 16.12 61.016 0.149 7.26 1.5 9.81
5/14/2023 12:45:00 PM 16.33 61.394 0.149 7.26 1.52 9.77
5/14/2023 1:00:00 PM 16.52 61.736 0.15 7.26 1.55 9.74
5/14/2023 1:15:00 PM 16.74 62.132 0.15 7.27 1.79 9.72
5/14/2023 1:30:00 PM 16.93 62.474 0.15 7.27 1.49 9.69
5/14/2023 1:45:00 PM 17.11 62.798 0.15 7.26 2.73 9.64
5/14/2023 2:00:00 PM 17.28 63.104 0.15 7.26 2.7 9.6
5/14/2023 2:15:00 PM 17.44 63.392 0.15 7.28 1.38 9.59
5/14/2023 2:30:00 PM 17.58 63.644 0.15 7.28 1.63 9.55
5/14/2023 2:45:00 PM 17.72 63.896 0.15 7.29 1.57 9.52
5/14/2023 3:00:00 PM 17.82 64.076 0.15 7.28 1.62 9.47
5/14/2023 3:15:00 PM 17.92 64.256 0.15 7.29 1.5 9.44
5/14/2023 3:30:00 PM 18 64.4 0.15 7.29 1.63 9.43
5/14/2023 3:45:00 PM 18.02 64.436 0.15 7.29 1.46 9.39
5/14/2023 4:00:00 PM 17.98 64.364 0.15 7.28 2.81 9.37
5/14/2023 4:15:00 PM 17.98 64.364 0.15 7.29 1.54 9.38
5/14/2023 4:30:00 PM 17.94 64.292 0.15 7.29 1.45 9.36
5/14/2023 4:45:00 PM 17.9 64.22 0.15 7.29 1.58 9.35
5/14/2023 5:00:00 PM 17.8 64.04 0.15 7.29 1.58 9.36
5/14/2023 5:15:00 PM 17.69 63.842 0.15 7.28 2.79 9.35
5/14/2023 5:30:00 PM 17.57 63.626 0.15 7.28 2.93 9.35
5/14/2023 5:45:00 PM 17.44 63.392 0.15 7.27 2.98 9.33
5/14/2023 6:00:00 PM 17.27 63.086 0.15 7.27 2.81 9.33
5/14/2023 6:15:00 PM 17.08 62.744 0.151 7.26 2.95 9.32
5/14/2023 6:30:00 PM 16.88 62.384 0.151 7.25 2.95 9.32
5/14/2023 6:45:00 PM 16.68 62.024 0.151 7.26 1.74 9.3
5/14/2023 7:00:00 PM 16.5 61.7 0.151 7.24 2.77 9.28
5/14/2023 7:15:00 PM 16.34 61.412 0.151 7.25 1.7 9.28
5/14/2023 7:30:00 PM 16.14 61.052 0.151 7.24 1.68 9.27
5/14/2023 7:45:00 PM 15.97 60.746 0.151 7.24 1.89 9.23
5/14/2023 8:00:00 PM 15.8 60.44 0.151 7.23 1.74 9.2
5/14/2023 8:15:00 PM 15.61 60.098 0.151 7.21 1.84 9.18
5/14/2023 8:30:00 PM 15.45 59.81 0.151 7.2 1.82 9.14
5/14/2023 8:45:00 PM 15.29 59.522 0.151 7.19 1.69 9.1
5/14/2023 9:00:00 PM 15.14 59.252 0.151 7.17 3.05 9.08
5/14/2023 9:15:00 PM 14.97 58.946 0.151 7.17 1.84 9.07
5/14/2023 9:30:00 PM 14.81 58.658 0.152 7.16 1.77 9.06
5/14/2023 9:45:00 PM 14.67 58.406 0.152 7.14 2.99 9.05
5/14/2023 10:00:00 PM 14.53 58.154 0.152 7.13 2.91 9.06
5/14/2023 10:15:00 PM 14.41 57.938 0.152 7.14 1.71 9.07
5/14/2023 10:30:00 PM 14.27 57.686 0.152 7.12 3.3 9.09
5/14/2023 10:45:00 PM 14.15 57.47 0.152 7.12 1.75 9.11
5/14/2023 11:00:00 PM 14.02 57.236 0.152 7.11 1.84 9.12
5/14/2023 11:15:00 PM 13.9 57.02 0.152 7.1 1.86 9.14
5/14/2023 11:30:00 PM 13.78 56.804 0.152 7.1 1.78 9.16
5/14/2023 11:45:00 PM 13.67 56.606 0.152 7.09 1.74 9.19
5/15/2023 12:00:00 AM 13.57 56.426 0.152 7.09 1.84 9.2
5/15/2023 12:15:00 AM 13.47 56.246 0.152 7.08 1.77 9.22
5/15/2023 12:30:00 AM 13.36 56.048 0.153 7.08 1.68 9.23
5/15/2023 12:45:00 AM 13.26 55.868 0.153 7.08 1.64 9.25
5/15/2023 1:00:00 AM 13.17 55.706 0.153 7.07 1.58 9.27
5/15/2023 1:15:00 AM 13.07 55.526 0.153 7.07 1.71 9.29
5/15/2023 1:30:00 AM 12.98 55.364 0.153 7.07 1.69 9.31
5/15/2023 1:45:00 AM 12.9 55.22 0.153 7.07 1.7 9.32
5/15/2023 2:00:00 AM 12.81 55.058 0.153 7.07 1.58 9.34
5/15/2023 2:15:00 AM 12.73 54.914 0.153 7.07 1.66 9.35
5/15/2023 2:30:00 AM 12.65 54.77 0.154 7.06 1.69 9.37
5/15/2023 2:45:00 AM 12.57 54.626 0.154 7.06 1.95 9.39
5/15/2023 3:00:00 AM 12.49 54.482 0.154 7.06 1.63 9.39
5/15/2023 3:15:00 AM 12.42 54.356 0.154 7.06 1.68 9.41
5/15/2023 3:30:00 AM 12.35 54.23 0.154 7.06 1.54 9.42
5/15/2023 3:45:00 AM 12.28 54.104 0.154 7.05 1.71 9.45
5/15/2023 4:00:00 AM 12.21 53.978 0.154 7.05 1.82 9.46
5/15/2023 4:15:00 AM 12.14 53.852 0.154 7.06 1.57 9.47
5/15/2023 4:30:00 AM 12.07 53.726 0.154 7.05 1.73 9.48
5/15/2023 4:45:00 AM 12 53.6 0.155 7.05 1.4 9.49
5/15/2023 5:00:00 AM 11.95 53.51 0.155 7.04 1.62 9.51
5/15/2023 5:15:00 AM 11.87 53.366 0.155 7.05 1.66 9.52
5/15/2023 5:30:00 AM 11.81 53.258 0.155 7.05 1.57 9.53
5/15/2023 5:45:00 AM 11.75 53.15 0.155 7.05 1.52 9.56
5/15/2023 6:00:00 AM 11.7 53.06 0.155 7.05 1.88 9.58
5/15/2023 6:15:00 AM 11.65 52.97 0.155 7.04 2.77 9.62
5/15/2023 6:30:00 AM 11.6 52.88 0.155 7.05 1.54 9.67
5/15/2023 6:45:00 AM 11.58 52.844 0.155 7.06 1.52 9.73
5/15/2023 7:00:00 AM 11.58 52.844 0.155 7.07 1.55 9.79
5/15/2023 7:15:00 AM 11.6 52.88 0.155 7.07 2.77 9.85
5/15/2023 7:30:00 AM 11.61 52.898 0.155 7.09 1.46 9.91
5/15/2023 7:45:00 AM 11.64 52.952 0.155 7.1 1.63 10
5/15/2023 8:00:00 AM 11.67 53.006 0.155 7.09 2.76 10.07
5/15/2023 8:15:00 AM 11.75 53.15 0.155 7.12 1.54 10.12
5/15/2023 8:30:00 AM 11.84 53.312 0.155 7.14 1.58 10.17
5/15/2023 8:45:00 AM 11.93 53.474 0.155 7.15 1.61 10.22
5/15/2023 9:00:00 AM 12.05 53.69 0.155 7.15 1.67 10.25
5/15/2023 9:15:00 AM 12.21 53.978 0.155 7.17 2.13 10.29
5/15/2023 9:30:00 AM 12.36 54.248 0.155 7.17 1.85 10.29
5/15/2023 9:45:00 AM 12.6 54.68 0.154 7.18 1.75 10.29
5/15/2023 10:00:00 AM 12.84 55.112 0.154 7.19 1.58 10.29
5/15/2023 10:15:00 AM 13.09 55.562 0.154 7.2 1.61 10.28
5/15/2023 10:30:00 AM 13.37 56.066 0.154 7.2 1.54 10.26
5/15/2023 10:45:00 AM 13.63 56.534 0.154 7.21 1.55 10.23
5/15/2023 11:00:00 AM 13.93 57.074 0.154 7.22 1.91 10.19
5/15/2023 11:15:00 AM 14.19 57.542 0.154 7.21 2.8 10.17
5/15/2023 11:30:00 AM 14.48 58.064 0.155 7.24 1.6 10.13
5/15/2023 11:45:00 AM 14.74 58.532 0.155 7.25 1.55 10.09
5/15/2023 12:00:00 PM 14.98 58.964 0.155 7.25 1.51 10.08
5/15/2023 12:15:00 PM 15.25 59.45 0.154 7.26 1.51 10.03
5/15/2023 12:30:00 PM 15.47 59.846 0.154 7.27 1.65 10
5/15/2023 12:45:00 PM 15.67 60.206 0.155 7.27 1.93 10.01
5/15/2023 1:00:00 PM 15.9 60.62 0.155 7.27 1.9 9.96
5/15/2023 1:15:00 PM 16.12 61.016 0.155 7.28 1.83 9.92
5/15/2023 1:30:00 PM 16.32 61.376 0.155 7.27 2.69 9.89
5/15/2023 1:45:00 PM 16.52 61.736 0.155 7.28 2.76 9.84
5/15/2023 2:00:00 PM 16.7 62.06 0.155 7.29 1.64 9.78
5/15/2023 2:15:00 PM 16.87 62.366 0.155 7.28 2.68 9.75
5/15/2023 2:30:00 PM 17.06 62.708 0.155 7.28 2.91 9.74
5/15/2023 2:45:00 PM 17.21 62.978 0.155 7.27 2.99 9.64
5/15/2023 3:00:00 PM 17.33 63.194 0.155 7.29 1.63 9.63
5/15/2023 3:15:00 PM 17.45 63.41 0.155 7.3 1.64 9.6
5/15/2023 3:30:00 PM 17.55 63.59 0.155 7.28 2.98 9.56
5/15/2023 3:45:00 PM 17.64 63.752 0.155 7.28 2.35 9.54
5/15/2023 4:00:00 PM 17.7 63.86 0.155 7.29 1.59 9.5
5/15/2023 4:15:00 PM 17.74 63.932 0.155 7.29 1.58 9.47
5/15/2023 4:30:00 PM 17.79 64.022 0.155 7.28 2.73 9.44
5/15/2023 4:45:00 PM 17.76 63.968 0.155 7.29 1.65 9.42
5/15/2023 5:00:00 PM 17.73 63.914 0.155 7.29 1.63 9.39
5/15/2023 5:15:00 PM 17.68 63.824 0.155 7.27 2.81 9.36
5/15/2023 5:30:00 PM 17.61 63.698 0.155 7.28 2.17 9.35
5/15/2023 5:45:00 PM 17.52 63.536 0.155 7.23 2.69 9.32
5/15/2023 6:00:00 PM 17.39 63.302 0.155 7.25 2.72 9.26
5/15/2023 6:15:00 PM 17.27 63.086 0.155 7.27 1.69 9.25
5/15/2023 6:30:00 PM 17.12 62.816 0.156 7.27 1.49 9.24
5/15/2023 6:45:00 PM 16.92 62.456 0.156 7.22 2.75 9.23
5/15/2023 7:00:00 PM 16.8 62.24 0.156 7.25 1.96 9.2
5/15/2023 7:15:00 PM 16.61 61.898 0.156 7.24 2.93 9.18
5/15/2023 7:30:00 PM 16.46 61.628 0.156 7.24 1.9 9.12
5/15/2023 7:45:00 PM 16.29 61.322 0.156 7.22 1.83 9.1
5/15/2023 8:00:00 PM 16.11 60.998 0.156 7.21 1.76 9.05
5/15/2023 8:15:00 PM 15.95 60.71 0.156 7.2 1.6 9
5/15/2023 8:30:00 PM 15.81 60.458 0.156 7.18 2.78 8.93
5/15/2023 8:45:00 PM 15.64 60.152 0.156 7.18 1.62 8.92
5/15/2023 9:00:00 PM 15.51 59.918 0.156 7.17 1.58 8.89
5/15/2023 9:15:00 PM 15.35 59.63 0.156 7.16 1.6 8.85
5/15/2023 9:30:00 PM 15.21 59.378 0.156 7.15 1.91 8.84
5/15/2023 9:45:00 PM 15.09 59.162 0.157 7.14 1.82 8.83
5/15/2023 10:00:00 PM 14.94 58.892 0.157 7.12 2.78 8.84
5/15/2023 10:15:00 PM 14.83 58.694 0.157 7.13 1.58 8.82
5/15/2023 10:30:00 PM 14.69 58.442 0.157 7.13 1.59 8.83
5/15/2023 10:45:00 PM 14.57 58.226 0.157 7.12 1.6 8.84
5/15/2023 11:00:00 PM 14.45 58.01 0.157 7.11 1.65 8.85
5/15/2023 11:15:00 PM 14.34 57.812 0.157 7.11 1.61 8.86
5/15/2023 11:30:00 PM 14.23 57.614 0.157 7.11 1.66 8.88
5/15/2023 11:45:00 PM 14.11 57.398 0.157 7.11 1.79 8.9
5/16/2023 12:00:00 AM 14.02 57.236 0.157 7.1 1.78 8.89
5/16/2023 12:15:00 AM 13.91 57.038 0.158 7.09 1.76 8.92
5/16/2023 12:30:00 AM 13.81 56.858 0.158 7.08 1.55 8.93
5/16/2023 12:45:00 AM 13.71 56.678 0.158 7.07 2.77 8.96
5/16/2023 1:00:00 AM 13.62 56.516 0.158 7.08 1.74 8.97
5/16/2023 1:15:00 AM 13.53 56.354 0.158 7.07 1.95 8.99
5/16/2023 1:30:00 AM 13.43 56.174 0.158 7.07 1.59 9.01
5/16/2023 1:45:00 AM 13.34 56.012 0.158 7.06 1.6 9.02
5/16/2023 2:00:00 AM 13.26 55.868 0.158 7.06 1.52 9.03
5/16/2023 2:15:00 AM 13.17 55.706 0.158 7.06 1.58 9.04
5/16/2023 2:30:00 AM 13.09 55.562 0.159 7.06 1.48 9.07
5/16/2023 2:45:00 AM 13.01 55.418 0.159 7.05 1.61 9.08
5/16/2023 3:00:00 AM 12.92 55.256 0.159 7.05 1.48 9.1
5/16/2023 3:15:00 AM 12.84 55.112 0.159 7.05 1.59 9.11
5/16/2023 3:30:00 AM 12.77 54.986 0.159 7.05 1.61 9.13
5/16/2023 3:45:00 AM 12.69 54.842 0.159 7.05 1.36 9.14
5/16/2023 4:00:00 AM 12.62 54.716 0.159 7.05 1.55 9.16
5/16/2023 4:15:00 AM 12.55 54.59 0.159 7.04 1.64 9.17
5/16/2023 4:30:00 AM 12.48 54.464 0.159 7.04 1.54 9.19
5/16/2023 4:45:00 AM 12.4 54.32 0.159 7.04 1.51 9.2
5/16/2023 5:00:00 AM 12.34 54.212 0.159 7.04 1.6 9.21
5/16/2023 5:15:00 AM 12.27 54.086 0.159 7.04 1.53 9.24
5/16/2023 5:30:00 AM 12.21 53.978 0.159 7.04 1.56 9.24
5/16/2023 5:45:00 AM 12.15 53.87 0.159 7.04 1.32 9.26
5/16/2023 6:00:00 AM 12.09 53.762 0.159 7.04 1.77 9.27
5/16/2023 6:15:00 AM 12.04 53.672 0.16 7.03 2.69 9.29
5/16/2023 6:30:00 AM 11.99 53.582 0.159 7.05 1.52 9.35
5/16/2023 6:45:00 AM 11.97 53.546 0.16 7.05 1.58 9.42
5/16/2023 7:00:00 AM 11.94 53.492 0.16 7.06 1.63 9.5
5/16/2023 7:15:00 AM 11.94 53.492 0.16 7.07 1.47 9.56
5/16/2023 7:30:00 AM 11.97 53.546 0.16 7.08 1.47 9.65
5/16/2023 7:45:00 AM 12.02 53.636 0.16 7.09 1.53 9.73
5/16/2023 8:00:00 AM 12.08 53.744 0.159 7.1 1.44 9.76
5/16/2023 8:15:00 AM 12.18 53.924 0.159 7.11 1.43 9.85
5/16/2023 8:30:00 AM 12.29 54.122 0.159 7.12 1.46 9.9
5/16/2023 8:45:00 AM 12.42 54.356 0.159 7.13 1.45 9.94
5/16/2023 9:00:00 AM 12.57 54.626 0.159 7.14 1.56 9.97
5/16/2023 9:15:00 AM 12.74 54.932 0.159 7.15 1.41 9.99
5/16/2023 9:30:00 AM 12.94 55.292 0.159 7.16 1.27 10.03
5/16/2023 9:45:00 AM 13.17 55.706 0.159 7.17 1.48 10.03
5/16/2023 10:00:00 AM 13.41 56.138 0.159 7.18 1.41 10
5/16/2023 10:15:00 AM 13.64 56.552 0.159 7.19 1.37 9.99
5/16/2023 10:30:00 AM 13.92 57.056 0.159 7.2 1.53 9.99
5/16/2023 10:45:00 AM 14.21 57.578 0.159 7.18 2.58 9.96
5/16/2023 11:00:00 AM 14.49 58.082 0.159 7.22 1.37 9.94
5/16/2023 11:15:00 AM 14.76 58.568 0.158 7.23 1.38 9.91
5/16/2023 11:30:00 AM 15.06 59.108 0.158 7.24 1.39 9.89
5/16/2023 11:45:00 AM 15.32 59.576 0.158 7.23 2.53 9.85
5/16/2023 12:00:00 PM 15.54 59.972 0.159 7.26 1.37 9.83
5/16/2023 12:15:00 PM 15.76 60.368 0.159 7.26 1.39 9.8
5/16/2023 12:30:00 PM 15.95 60.71 0.159 7.26 1.41 9.79
5/16/2023 12:45:00 PM 16.15 61.07 0.159 7.27 1.37 9.75
5/16/2023 1:00:00 PM 16.37 61.466 0.159 7.26 2.47 9.72
5/16/2023 1:15:00 PM 16.47 61.646 0.159 7.28 1.4 9.7
5/16/2023 1:30:00 PM 16.55 61.79 0.159 7.28 1.46 9.66
5/16/2023 1:45:00 PM 16.7 62.06 0.159 7.28 1.37 9.65
5/16/2023 2:00:00 PM 16.84 62.312 0.16 7.28 1.42 9.62
5/16/2023 2:15:00 PM 17 62.6 0.16 7.29 1.41 9.63
5/16/2023 2:30:00 PM 17.09 62.762 0.16 7.29 1.5 9.56
5/16/2023 2:45:00 PM 17.09 62.762 0.16 7.25 2.65 9.55
5/16/2023 3:00:00 PM 17.15 62.87 0.16 7.28 2.52 9.54
5/16/2023 3:15:00 PM 17.25 63.05 0.16 7.29 1.35 9.52
5/16/2023 3:30:00 PM 17.27 63.086 0.16 7.28 2.45 9.49
5/16/2023 3:45:00 PM 17.25 63.05 0.159 7.27 2.77 9.47
5/16/2023 4:00:00 PM 17.22 62.996 0.159 7.28 2.48 9.43
5/16/2023 4:15:00 PM 17.17 62.906 0.159 7.29 1.44 9.41
5/16/2023 4:30:00 PM 17.11 62.798 0.159 7.29 1.44 9.41
5/16/2023 4:45:00 PM 17.08 62.744 0.159 7.27 2.53 9.41
5/16/2023 5:00:00 PM 17.05 62.69 0.159 7.27 2.49 9.41
5/16/2023 5:15:00 PM 16.97 62.546 0.16 7.26 2.5 9.35
5/16/2023 5:30:00 PM 16.88 62.384 0.16 7.26 3.58 9.33
5/16/2023 5:45:00 PM 16.8 62.24 0.16 7.27 2.02 9.32
5/16/2023 6:00:00 PM 16.72 62.096 0.16 7.26 2.26 9.26
5/16/2023 6:15:00 PM 16.61 61.898 0.16 7.24 3.49 9.26
5/16/2023 6:30:00 PM 16.51 61.718 0.16 7.25 2.47 9.23
5/16/2023 6:45:00 PM 16.39 61.502 0.16 7.24 1.86 9.18
5/16/2023 7:00:00 PM 16.28 61.304 0.16 7.23 1.62 9.13
5/16/2023 7:15:00 PM 16.16 61.088 0.16 7.21 2.8 9.1
5/16/2023 7:30:00 PM 16.07 60.926 0.16 7.21 1.45 9.06
5/16/2023 7:45:00 PM 15.96 60.728 0.16 7.2 1.48 8.99
5/16/2023 8:00:00 PM 15.85 60.53 0.16 7.18 1.4 8.92
5/16/2023 8:15:00 PM 15.77 60.386 0.16 7.16 2.49 8.85
5/16/2023 8:30:00 PM 15.65 60.17 0.16 7.16 1.49 8.83
5/16/2023 8:45:00 PM 15.57 60.026 0.16 7.14 15.83 8.76
5/16/2023 9:00:00 PM 15.46 59.828 0.161 7.13 6.98 8.71
5/16/2023 9:15:00 PM 15.39 59.702 0.161 7.13 5.16 8.67
5/16/2023 9:30:00 PM 15.31 59.558 0.161 7.12 2.86 8.64
5/16/2023 9:45:00 PM 15.22 59.396 0.161 7.11 2.6 8.61
5/16/2023 10:00:00 PM 15.11 59.198 0.161 7.11 2.49 8.6
5/16/2023 10:15:00 PM 15.01 59.018 0.161 7.1 3.1 8.59
5/16/2023 10:30:00 PM 14.92 58.856 0.161 7.11 1.84 8.59
5/16/2023 10:45:00 PM 14.81 58.658 0.161 7.11 1.9 8.59
5/16/2023 11:00:00 PM 14.72 58.496 0.161 7.1 1.82 8.58
5/16/2023 11:15:00 PM 14.63 58.334 0.161 7.1 1.61 8.6
5/16/2023 11:30:00 PM 14.53 58.154 0.161 7.09 2.91 8.61
5/16/2023 11:45:00 PM 14.44 57.992 0.161 7.09 2.79 8.63
5/17/2023 12:00:00 AM 14.35 57.83 0.162 7.09 2.86 8.64
5/17/2023 12:15:00 AM 14.26 57.668 0.162 7.1 1.62 8.66
5/17/2023 12:30:00 AM 14.18 57.524 0.162 7.08 2.76 8.67
5/17/2023 12:45:00 AM 14.09 57.362 0.162 7.09 1.54 8.68
5/17/2023 1:00:00 AM 14.02 57.236 0.162 7.08 1.5 8.69
5/17/2023 1:15:00 AM 13.94 57.092 0.162 7.08 1.61 8.7
5/17/2023 1:30:00 AM 13.87 56.966 0.162 7.08 1.5 8.72
5/17/2023 1:45:00 AM 13.8 56.84 0.162 7.07 1.69 8.73
5/17/2023 2:00:00 AM 13.73 56.714 0.162 7.07 1.51 8.75
5/17/2023 2:15:00 AM 13.69 56.642 0.163 7.07 1.45 8.75
5/17/2023 2:30:00 AM 13.63 56.534 0.163 7.05 2.57 8.77
5/17/2023 2:45:00 AM 13.58 56.444 0.163 7.05 2.63 8.78
5/17/2023 3:00:00 AM 13.54 56.372 0.163 7.06 1.45 8.78
5/17/2023 3:15:00 AM 13.49 56.282 0.163 7.06 1.64 8.79
5/17/2023 3:30:00 AM 13.45 56.21 0.163 7.05 1.61 8.8
5/17/2023 3:45:00 AM 13.4 56.12 0.163 7.05 1.63 8.8
5/17/2023 4:00:00 AM 13.34 56.012 0.163 7.05 1.53 8.82
5/17/2023 4:15:00 AM 13.27 55.886 0.163 7.05 1.47 8.83
5/17/2023 4:30:00 AM 13.22 55.796 0.163 7.05 1.55 8.85
5/17/2023 4:45:00 AM 13.16 55.688 0.163 7.04 2.63 8.86
5/17/2023 5:00:00 AM 13.12 55.616 0.163 7.04 2.74 8.86
5/17/2023 5:15:00 AM 13.08 55.544 0.164 7.06 1.67 8.87
5/17/2023 5:30:00 AM 13.02 55.436 0.164 7.05 1.72 8.86
5/17/2023 5:45:00 AM 12.97 55.346 0.164 7.05 1.4 8.9
5/17/2023 6:00:00 AM 12.92 55.256 0.164 7.05 1.5 8.91
5/17/2023 6:15:00 AM 12.87 55.166 0.164 7.05 1.41 8.94
5/17/2023 6:30:00 AM 12.82 55.076 0.164 7.06 1.41 9
5/17/2023 6:45:00 AM 12.77 54.986 0.164 7.06 1.4 9.03
5/17/2023 7:00:00 AM 12.73 54.914 0.164 7.06 1.39 9.09
5/17/2023 7:15:00 AM 12.71 54.878 0.164 7.07 1.4 9.17
5/17/2023 7:30:00 AM 12.68 54.824 0.164 7.08 1.44 9.28
5/17/2023 7:45:00 AM 12.66 54.788 0.164 7.09 1.45 9.37
5/17/2023 8:00:00 AM 12.66 54.788 0.164 7.1 1.49 9.42
5/17/2023 8:15:00 AM 12.66 54.788 0.164 7.11 1.49 9.55
5/17/2023 8:30:00 AM 12.68 54.824 0.164 7.12 1.63 9.65
5/17/2023 8:45:00 AM 12.69 54.842 0.164 7.13 1.39 9.72
5/17/2023 9:00:00 AM 12.71 54.878 0.164 7.14 1.55 9.77
5/17/2023 9:15:00 AM 12.73 54.914 0.164 7.15 1.45 9.83
5/17/2023 9:30:00 AM 12.78 55.004 0.164 7.16 1.35 9.9
5/17/2023 9:45:00 AM 12.83 55.094 0.164 7.16 1.53 9.95
5/17/2023 10:00:00 AM 12.89 55.202 0.164 7.17 1.38 9.98
5/17/2023 10:15:00 AM 13.05 55.49 0.163 7.18 1.34 10.03
5/17/2023 10:30:00 AM 13.27 55.886 0.163 7.19 1.29 10.05
5/17/2023 10:45:00 AM 13.41 56.138 0.163 7.19 1.29 10.03
5/17/2023 11:00:00 AM 13.5 56.3 0.163 7.2 1.33 10.04
5/17/2023 11:15:00 AM 13.62 56.516 0.163 7.21 1.35 10.08
5/17/2023 11:30:00 AM 13.98 57.164 0.164 7.19 2.35 10.01
5/17/2023 11:45:00 AM 14.2 57.56 0.163 7.2 2.35 9.99
5/17/2023 12:00:00 PM 14.35 57.83 0.163 7.22 1.33 9.98
5/17/2023 12:15:00 PM 14.54 58.172 0.163 7.22 1.31 9.97
5/17/2023 12:30:00 PM 14.78 58.604 0.163 7.23 1.39 9.94
5/17/2023 12:45:00 PM 14.88 58.784 0.163 7.23 1.42 9.92
5/17/2023 1:00:00 PM 15.07 59.126 0.163 7.23 1.38 9.88
5/17/2023 1:15:00 PM 15.24 59.432 0.163 7.24 1.28 9.86
5/17/2023 1:30:00 PM 15.47 59.846 0.163 7.25 1.39 9.9
5/17/2023 1:45:00 PM 15.68 60.224 0.163 7.27 1.44 9.9
5/17/2023 2:00:00 PM 15.83 60.494 0.163 7.29 1.55 9.91
5/17/2023 2:15:00 PM 16.02 60.836 0.162 7.3 1.53 9.89
5/17/2023 2:30:00 PM 16.18 61.124 0.162 7.3 1.46 9.87
5/17/2023 2:45:00 PM 16.33 61.394 0.162 7.29 2.53 9.86
5/17/2023 3:00:00 PM 16.42 61.556 0.161 7.29 2.16 9.81
5/17/2023 3:15:00 PM 16.52 61.736 0.161 7.29 1.92 9.81
5/17/2023 3:30:00 PM 16.6 61.88 0.161 7.29 1.95 9.74
5/17/2023 3:45:00 PM 16.66 61.988 0.161 7.29 2.51 9.72
5/17/2023 4:00:00 PM 16.69 62.042 0.161 7.28 2.64 9.69
5/17/2023 4:15:00 PM 16.7 62.06 0.161 7.3 1.72 9.65
5/17/2023 4:30:00 PM 16.67 62.006 0.161 7.3 1.42 9.63
5/17/2023 4:45:00 PM 16.62 61.916 0.161 7.3 1.4 9.65
5/17/2023 5:00:00 PM 16.52 61.736 0.161 7.27 2.56 9.59
5/17/2023 5:15:00 PM 16.43 61.574 0.162 7.29 1.48 9.57
5/17/2023 5:30:00 PM 16.26 61.268 0.162 7.28 1.42 9.55
5/17/2023 5:45:00 PM 16.1 60.98 0.162 7.27 1.42 9.56
5/17/2023 6:00:00 PM 15.94 60.692 0.162 7.27 1.49 9.55
5/17/2023 6:15:00 PM 15.76 60.368 0.162 7.26 1.39 9.53
5/17/2023 6:30:00 PM 15.56 60.008 0.162 7.26 1.48 9.52
5/17/2023 6:45:00 PM 15.4 59.72 0.162 7.25 1.57 9.5
5/17/2023 7:00:00 PM 15.18 59.324 0.162 7.24 1.64 9.48
5/17/2023 7:15:00 PM 15.02 59.036 0.162 7.22 2.54 9.44
5/17/2023 7:30:00 PM 14.84 58.712 0.163 7.23 1.43 9.41
5/17/2023 7:45:00 PM 14.64 58.352 0.163 7.22 1.44 9.38
5/17/2023 8:00:00 PM 14.49 58.082 0.163 7.19 2.46 9.32
5/17/2023 8:15:00 PM 14.33 57.794 0.163 7.19 1.62 9.27
5/17/2023 8:30:00 PM 14.15 57.47 0.163 7.18 1.62 9.23
5/17/2023 8:45:00 PM 14.02 57.236 0.163 7.17 1.56 9.18
5/17/2023 9:00:00 PM 13.87 56.966 0.164 7.14 2.5 9.14
5/17/2023 9:15:00 PM 13.75 56.75 0.164 7.14 1.49 9.11
5/17/2023 9:30:00 PM 13.62 56.516 0.164 7.11 1.84 9.09
5/17/2023 9:45:00 PM 13.48 56.264 0.164 7.1 1.94 9.09
5/17/2023 10:00:00 PM 13.36 56.048 0.164 7.1 1.73 9.06
5/17/2023 10:15:00 PM 13.25 55.85 0.164 7.09 1.57 9.06
5/17/2023 10:30:00 PM 13.12 55.616 0.164 7.08 1.68 9.07
5/17/2023 10:45:00 PM 13.01 55.418 0.165 7.07 1.5 9.07
5/17/2023 11:00:00 PM 12.9 55.22 0.165 7.07 1.58 9.09
5/17/2023 11:15:00 PM 12.8 55.04 0.165 7.07 1.56 9.1
5/17/2023 11:30:00 PM 12.7 54.86 0.165 7.06 1.62 9.1
5/17/2023 11:45:00 PM 12.6 54.68 0.165 6.97 1.59 9.11
5/18/2023 12:00:00 AM 12.51 54.518 0.165 7.02 1.64 9.12
5/18/2023 12:15:00 AM 12.42 54.356 0.166 7.05 1.79 9.13
5/18/2023 12:30:00 AM 12.32 54.176 0.166 7.04 1.59 9.16
5/18/2023 12:45:00 AM 12.24 54.032 0.166 7.05 1.67 9.18
5/18/2023 1:00:00 AM 12.16 53.888 0.166 7.05 1.57 9.19
5/18/2023 1:15:00 AM 12.07 53.726 0.166 7.04 1.46 9.21
5/18/2023 1:30:00 AM 11.99 53.582 0.167 7.04 1.9 9.22
5/18/2023 1:45:00 AM 11.92 53.456 0.167 7.04 1.47 9.23
5/18/2023 2:00:00 AM 11.85 53.33 0.167 7.04 1.61 9.25
5/18/2023 2:15:00 AM 11.78 53.204 0.167 7.04 1.55 9.26
5/18/2023 2:30:00 AM 11.7 53.06 0.167 7.04 1.93 9.28
5/18/2023 2:45:00 AM 11.63 52.934 0.167 7.04 1.8 9.31
5/18/2023 3:00:00 AM 11.57 52.826 0.168 7.04 1.66 9.32
5/18/2023 3:15:00 AM 11.5 52.7 0.168 7.03 1.48 9.34
5/18/2023 3:30:00 AM 11.44 52.592 0.168 7.04 1.52 9.35
5/18/2023 3:45:00 AM 11.38 52.484 0.168 7.03 1.49 9.36
5/18/2023 4:00:00 AM 11.31 52.358 0.168 7.03 1.42 9.37
5/18/2023 4:15:00 AM 11.25 52.25 0.168 7.03 1.43 9.39
5/18/2023 4:30:00 AM 11.2 52.16 0.168 7.03 1.65 9.4
5/18/2023 4:45:00 AM 11.14 52.052 0.169 7.04 1.44 9.4
5/18/2023 5:00:00 AM 11.08 51.944 0.169 7.04 1.41 9.42
5/18/2023 5:15:00 AM 11.02 51.836 0.169 7.03 1.45 9.4
5/18/2023 5:30:00 AM 10.97 51.746 0.169 7.03 1.72 9.43
5/18/2023 5:45:00 AM 10.91 51.638 0.169 7.04 1.65 9.46
5/18/2023 6:00:00 AM 10.86 51.548 0.169 7.04 1.58 9.46
5/18/2023 6:15:00 AM 10.83 51.494 0.169 7.04 1.58 9.53
5/18/2023 6:30:00 AM 10.79 51.422 0.169 7.05 1.52 9.57
5/18/2023 6:45:00 AM 10.78 51.404 0.169 7.06 1.51 9.67
5/18/2023 7:00:00 AM 10.77 51.386 0.169 7.07 1.54 9.75
5/18/2023 7:15:00 AM 10.77 51.386 0.169 7.08 1.47 9.82
5/18/2023 7:30:00 AM 10.79 51.422 0.169 7.09 1.48 9.9
5/18/2023 7:45:00 AM 10.84 51.512 0.169 7.1 1.52 9.97
5/18/2023 8:00:00 AM 10.92 51.656 0.169 7.1 1.45 10.06
5/18/2023 8:15:00 AM 11.01 51.818 0.169 7.09 2.55 10.12
5/18/2023 8:30:00 AM 11.03 51.854 0.169 7.12 1.42 10.09
5/18/2023 8:45:00 AM 11.19 52.142 0.169 7.13 1.42 10.23
5/18/2023 9:00:00 AM 11.34 52.412 0.169 7.14 1.45 10.26
5/18/2023 9:15:00 AM 11.49 52.682 0.169 7.15 1.36 10.31
5/18/2023 9:30:00 AM 11.68 53.024 0.169 7.16 1.47 10.32
5/18/2023 9:45:00 AM 11.88 53.384 0.169 7.17 1.38 10.36
5/18/2023 10:00:00 AM 12.08 53.744 0.169 7.18 1.34 10.35
5/18/2023 10:15:00 AM 12.3 54.14 0.169 7.19 1.34 10.36
5/18/2023 10:30:00 AM 12.56 54.608 0.169 7.2 1.37 10.35
5/18/2023 10:45:00 AM 12.82 55.076 0.169 7.21 1.3 10.34
5/18/2023 11:00:00 AM 13.1 55.58 0.169 7.22 1.35 10.3
5/18/2023 11:15:00 AM 13.36 56.048 0.169 7.22 1.44 10.3
5/18/2023 11:30:00 AM 13.64 56.552 0.169 7.22 1.45 10.27
5/18/2023 11:45:00 AM 13.91 57.038 0.17 7.23 1.5 10.23
5/18/2023 12:00:00 PM 14.17 57.506 0.17 7.24 1.5 10.26
5/18/2023 12:15:00 PM 14.46 58.028 0.17 7.24 1.38 10.22
5/18/2023 12:30:00 PM 14.71 58.478 0.169 7.24 1.4 10.14
5/18/2023 12:45:00 PM 14.92 58.856 0.169 7.26 1.35 10.12
5/18/2023 1:00:00 PM 15.18 59.324 0.169 7.26 1.26 10.14
5/18/2023 1:15:00 PM 15.41 59.738 0.169 7.24 2.43 10.05
5/18/2023 1:30:00 PM 15.59 60.062 0.169 7.27 1.34 10.06
5/18/2023 1:45:00 PM 15.79 60.422 0.169 7.26 1.29 10
5/18/2023 2:00:00 PM 15.97 60.746 0.17 7.26 1.27 9.97
5/18/2023 2:15:00 PM 16.14 61.052 0.17 7.25 2.52 9.94
5/18/2023 2:30:00 PM 16.29 61.322 0.171 7.26 1.31 9.91
5/18/2023 2:45:00 PM 16.41 61.538 0.17 7.27 1.21 9.89
5/18/2023 3:00:00 PM 16.54 61.772 0.17 7.25 2.38 9.83
5/18/2023 3:15:00 PM 16.62 61.916 0.17 7.27 1.25 9.82
5/18/2023 3:30:00 PM 16.7 62.06 0.17 7.28 1.28 9.79
5/18/2023 3:45:00 PM 16.78 62.204 0.17 7.28 1.25 9.74
5/18/2023 4:00:00 PM 16.83 62.294 0.17 7.28 1.28 9.72
5/18/2023 4:15:00 PM 16.88 62.384 0.17 7.28 1.41 9.74
5/18/2023 4:30:00 PM 16.83 62.294 0.17 7.27 1.32 9.7
5/18/2023 4:45:00 PM 16.82 62.276 0.17 7.26 2.19 9.68
5/18/2023 5:00:00 PM 16.78 62.204 0.17 7.26 2.48 9.65
5/18/2023 5:15:00 PM 16.77 62.186 0.17 7.27 1.38 9.68
5/18/2023 5:30:00 PM 16.66 61.988 0.17 7.24 2.57 9.59
5/18/2023 5:45:00 PM 16.58 61.844 0.17 7.25 2.37 9.59
5/18/2023 6:00:00 PM 16.49 61.682 0.17 7.26 1.24 9.64
5/18/2023 6:15:00 PM 16.35 61.43 0.171 7.25 1.29 9.57
5/18/2023 6:30:00 PM 16.14 61.052 0.171 7.24 1.39 9.5
5/18/2023 6:45:00 PM 16.04 60.872 0.17 7.22 2.43 9.42
5/18/2023 7:00:00 PM 15.91 60.638 0.171 7.22 2.3 9.41

These are provisional data and have not been subject to a quality assurance process, but rather are the raw data reported by the instrument.
H: value is above sensor operating range
L: value is below sensor operating range
Offline: station is not reporting data
NC: parameter is not collected at site

Data Availability & Limitations

Uncertainty and potential for error can be associated with environmental monitoring data. Provisional data have not been subject to a quality assurance process, but rather are the raw data reported by the instrument. Data users are cautioned to consider carefully the provisional nature of the information before using it for decisions that concern personal or public safety or the conduct of business that involves substantial monetary or operational consequences.

Approved data are currently available by request by emailing: [email protected]. Approved data have been subject to a quality assurance process to correct for equipment or fouling drift. Data recorded during equipment malfunctions have been removed.

View Historical Stations that have been discontinued.